Darstellungsparameter: Aktuell verwendete Einstellungen:
Skalierung der Graphiken ... ?
xyx+y,   Skalierungsfaktor:      Skalierung: Modus: x, Faktor: 1
Darstellungszeitraum ... ?
Vom - - bis: - -   Zeitraum: 01.10.2010 - 30.09.2020
Min/Max/Avg-Anzeige ... ?
Zeige MMA aktuell
Zeige MMA Monat
Zeige MMA alles
Zeige --A aktuell
Zeige --A Monat
Zeige --A alles
Keine MMA-Anzeige
MMA:
Keine MMA-Graphiken
MMA-Basis: 01.10.2010 - 30.09.2020
Quicknavigation für Darstellung... ?
Tage:      1T, 2T, 3T, 5T -1T -2T -3T -5T +1T +2T +3T +5T
Wochen: 1W, 2W, 3W -1W -2W -3W +1W +2W +3W
Monate: 1M, 3M, 6M -1M -3M -6M +1M +3M +6M
Jahre:    1J, 3J, 5J, 10J -1J -3J -5J -10J +1J +3J +5J +10J
Nutze für die Darstellung ... ?
Originaldaten oder ...
Mittelwerte Minima Maxima auf...
Stundenbasis Tagesbasis Wochenbasis
Monatsbasis Jahresbasis      Datenbasis: Mittelwerte auf Stundenbasis
Darstellen als:
Statistik (Auto) Statistik J:M      Darstellung:
Zur Graphik,    zurück zur Übersicht aller Sensoren.
 
Tabellarische Datenbersicht: ?
 
Sensor: Nr:Datum:Temp:Abs-Feuchte:Windchill:Wind:
Aussen-T/F 1 01-10-2010 00:00:00 12.02 C 10.05 g/m*3 12.02 C 0 km/h
2 01-10-2010 01:00:00 11.58 C 9.86 g/m*3 11.58 C 0 km/h
3 01-10-2010 02:00:00 11.44 C 9.78 g/m*3 11.44 C 0 km/h
4 01-10-2010 03:00:00 11.56 C 9.85 g/m*3 11.56 C 0 km/h
5 01-10-2010 04:00:00 11.7 C 9.94 g/m*3 11.7 C 0 km/h
6 01-10-2010 05:00:00 11.62 C 9.89 g/m*3 11.62 C 0 km/h
7 01-10-2010 06:00:00 11.4 C 9.75 g/m*3 11.4 C 0 km/h
8 01-10-2010 07:00:00 11 C 9.51 g/m*3 11 C 0 km/h
9 01-10-2010 08:00:00 10.3 C 9.1 g/m*3 10.3 C 0 km/h
10 01-10-2010 09:00:00 11.24 C 9.65 g/m*3 11.24 C 0 km/h
11 01-10-2010 10:00:00 11.72 C 9.63 g/m*3 11.72 C 0 km/h
12 01-10-2010 11:00:00 12.46 C 8.84 g/m*3 12.46 C 0 km/h
13 01-10-2010 12:00:00 12.68 C 8.49 g/m*3 12.68 C 0 km/h
14 01-10-2010 13:00:00 13.18 C 8.12 g/m*3 13.18 C 0 km/h
15 01-10-2010 14:00:00 13.32 C 7.94 g/m*3 13.32 C 0 km/h
16 01-10-2010 15:00:00 15.3 C 7.78 g/m*3 15.3 C 0 km/h
17 01-10-2010 16:00:00 16.74 C 7.61 g/m*3 16.74 C 0 km/h
18 01-10-2010 17:00:00 16.14 C 8.35 g/m*3 16.14 C 0 km/h
19 01-10-2010 18:00:00 14.34 C 8.79 g/m*3 14.34 C 0 km/h
20 01-10-2010 19:00:00 12.18 C 8.56 g/m*3 12.18 C 0 km/h
21 01-10-2010 20:00:00 11.26 C 8.51 g/m*3 11.26 C 0 km/h
22 01-10-2010 21:00:00 10.86 C 8.53 g/m*3 10.86 C 0 km/h
23 01-10-2010 22:00:00 10.98 C 8.76 g/m*3 10.98 C 0 km/h
24 01-10-2010 23:00:00 11.06 C 8.74 g/m*3 11.06 C 0 km/h
25 02-10-2010 00:00:00 11.12 C 8.71 g/m*3 11.12 C 0 km/h
Sensor: Nr:Datum:Temp:Abs-Feuchte:Windchill:Wind:
Aussen-T/F 26 02-10-2010 01:00:00 10.92 C 8.74 g/m*3 10.92 C 0 km/h
27 02-10-2010 02:00:00 10.96 C 8.97 g/m*3 10.96 C 0 km/h
28 02-10-2010 03:00:00 11.1 C 9.15 g/m*3 11.1 C 0 km/h
29 02-10-2010 04:00:00 11.08 C 9.26 g/m*3 11.08 C 0 km/h
30 02-10-2010 05:00:00 10.98 C 9.3 g/m*3 10.98 C 0 km/h
31 02-10-2010 06:00:00 11 C 9.39 g/m*3 11 C 0 km/h
32 02-10-2010 07:00:00 11.14 C 9.55 g/m*3 11.14 C 0 km/h
33 02-10-2010 08:00:00 11.46 C 9.79 g/m*3 11.46 C 0 km/h
34 02-10-2010 09:00:00 12 C 10.12 g/m*3 12 C 0 km/h
35 02-10-2010 10:00:00 13.14 C 10.75 g/m*3 13.14 C 0 km/h
36 02-10-2010 11:00:00 14.32 C 11.27 g/m*3 14.32 C 0 km/h
37 02-10-2010 12:00:00 15.04 C 11.52 g/m*3 15.04 C 0 km/h
38 02-10-2010 13:00:00 15.74 C 11.53 g/m*3 15.74 C 0 km/h
39 02-10-2010 14:00:00 15.64 C 11.41 g/m*3 15.64 C 0 km/h
40 02-10-2010 15:00:00 16 C 11.47 g/m*3 16 C 0 km/h
41 02-10-2010 16:00:00 16.24 C 11.09 g/m*3 16.24 C 0 km/h
42 02-10-2010 17:00:00 16.28 C 10.92 g/m*3 16.28 C 0 km/h
43 02-10-2010 18:00:00 15.42 C 10.92 g/m*3 15.42 C 0 km/h
44 02-10-2010 19:00:00 14.94 C 10.94 g/m*3 14.94 C 0 km/h
45 02-10-2010 20:00:00 14.8 C 11.1 g/m*3 14.8 C 0 km/h
46 02-10-2010 21:00:00 14.5 C 11.02 g/m*3 14.5 C 0 km/h
47 02-10-2010 22:00:00 14.48 C 11.16 g/m*3 14.48 C 0 km/h
48 02-10-2010 23:00:00 14.56 C 11.13 g/m*3 14.56 C 0 km/h
49 03-10-2010 00:00:00 14.44 C 11.08 g/m*3 14.44 C 0 km/h
50 03-10-2010 01:00:00 14.7 C 10.7 g/m*3 14.7 C 0 km/h
Sensor: Nr:Datum:Temp:Abs-Feuchte:Windchill:Wind:
Aussen-T/F 51 03-10-2010 02:00:00 14.58 C 10.32 g/m*3 14.58 C 0 km/h
52 03-10-2010 03:00:00 13.92 C 10.59 g/m*3 13.92 C 0 km/h
53 03-10-2010 04:00:00 14.08 C 10.62 g/m*3 14.08 C 0 km/h
54 03-10-2010 05:00:00 14.26 C 10.34 g/m*3 14.26 C 0 km/h
55 03-10-2010 06:00:00 13.46 C 10.24 g/m*3 13.46 C 0 km/h
56 03-10-2010 07:00:00 13.42 C 10.43 g/m*3 13.42 C 0 km/h
57 03-10-2010 08:00:00 13.98 C 10.41 g/m*3 13.98 C 0 km/h
58 03-10-2010 09:00:00 15.12 C 10.08 g/m*3 15.12 C 0 km/h
59 03-10-2010 10:00:00 16.78 C 9.91 g/m*3 16.78 C 0 km/h
60 03-10-2010 11:00:00 18.14 C 10.13 g/m*3 18.14 C 0 km/h
61 03-10-2010 12:00:00 19.68 C 9.74 g/m*3 19.68 C 0 km/h
62 03-10-2010 13:00:00 21.36 C 9.43 g/m*3 21.36 C 0 km/h
63 03-10-2010 14:00:00 23.34 C 9.09 g/m*3 23.34 C 0 km/h
64 03-10-2010 15:00:00 24.72 C 8.61 g/m*3 24.72 C 0 km/h
65 03-10-2010 16:00:00 25.12 C 8.67 g/m*3 25.12 C 0 km/h
66 03-10-2010 17:00:00 25.22 C 9.37 g/m*3 25.22 C 0 km/h
67 03-10-2010 18:00:00 21.54 C 10.55 g/m*3 21.54 C 0 km/h
68 03-10-2010 19:00:00 18.78 C 10.84 g/m*3 18.78 C 0 km/h
69 03-10-2010 20:00:00 18.34 C 10.88 g/m*3 18.34 C 0 km/h
70 03-10-2010 21:00:00 17.96 C 11.03 g/m*3 17.96 C 0 km/h
71 03-10-2010 22:00:00 17.56 C 10.86 g/m*3 17.56 C 0 km/h
72 03-10-2010 23:00:00 17.56 C 10.32 g/m*3 17.56 C 0 km/h
73 04-10-2010 00:00:00 17.28 C 9.86 g/m*3 17.28 C 0 km/h
74 04-10-2010 01:00:00 17.18 C 9.59 g/m*3 17.18 C 0 km/h
75 04-10-2010 02:00:00 16.82 C 9.65 g/m*3 16.82 C 0 km/h
Sensor: Nr:Datum:Temp:Abs-Feuchte:Windchill:Wind:
Aussen-T/F 76 04-10-2010 03:00:00 15.76 C 9.96 g/m*3 15.76 C 0 km/h
77 04-10-2010 04:00:00 15.1 C 9.99 g/m*3 15.1 C 0 km/h
78 04-10-2010 05:00:00 14.3 C 9.95 g/m*3 14.3 C 0 km/h
79 04-10-2010 06:00:00 13.92 C 9.94 g/m*3 13.92 C 0 km/h
80 04-10-2010 07:00:00 13.62 C 9.83 g/m*3 13.62 C 0 km/h
81 04-10-2010 08:00:00 14.26 C 9.8 g/m*3 14.26 C 0 km/h
82 04-10-2010 09:00:00 15 C 9.23 g/m*3 15 C 0 km/h
83 04-10-2010 10:00:00 15.66 C 8.97 g/m*3 15.66 C 0 km/h
84 04-10-2010 11:00:00 17.62 C 8.92 g/m*3 17.62 C 0 km/h
85 04-10-2010 12:00:00 17.84 C 8.76 g/m*3 17.84 C 0 km/h
86 04-10-2010 13:00:00 18.72 C 8.62 g/m*3 18.72 C 0 km/h
87 04-10-2010 14:00:00 19.76 C 8.72 g/m*3 19.76 C 0 km/h
88 04-10-2010 15:00:00 22.5 C 8.63 g/m*3 22.5 C 0 km/h
89 04-10-2010 16:00:00 23.64 C 8.23 g/m*3 23.64 C 0 km/h
90 04-10-2010 17:00:00 21.14 C 9.16 g/m*3 21.14 C 0 km/h
91 04-10-2010 18:00:00 18.68 C 9.66 g/m*3 18.68 C 0 km/h
92 04-10-2010 19:00:00 16.52 C 10.09 g/m*3 16.52 C 0 km/h
93 04-10-2010 20:00:00 16.22 C 10.02 g/m*3 16.22 C 0 km/h
94 04-10-2010 21:00:00 15.42 C 9.94 g/m*3 15.42 C 0 km/h
95 04-10-2010 22:00:00 14.56 C 9.91 g/m*3 14.56 C 0 km/h
96 04-10-2010 23:00:00 14.2 C 9.92 g/m*3 14.2 C 0 km/h
97 05-10-2010 00:00:00 14.2 C 10.01 g/m*3 14.2 C 0 km/h
98 05-10-2010 01:00:00 13.94 C 9.9 g/m*3 13.94 C 0 km/h
99 05-10-2010 02:00:00 13.52 C 9.84 g/m*3 13.52 C 0 km/h
100 05-10-2010 03:00:00 13.6 C 10 g/m*3 13.6 C 0 km/h
Sensor: Nr:Datum:Temp:Abs-Feuchte:Windchill:Wind:
Aussen-T/F 101 05-10-2010 04:00:00 13.6 C 10.1 g/m*3 13.6 C 0 km/h
102 05-10-2010 05:00:00 13.6 C 10.14 g/m*3 13.6 C 0 km/h
103 05-10-2010 06:00:00 13.42 C 10.38 g/m*3 13.42 C 0 km/h
104 05-10-2010 07:00:00 13.4 C 10.56 g/m*3 13.4 C 0 km/h
105 05-10-2010 08:00:00 13.14 C 10.41 g/m*3 13.14 C 0 km/h
106 05-10-2010 09:00:00 13.3 C 10.68 g/m*3 13.3 C 0 km/h
107 05-10-2010 10:00:00 14.8 C 11.81 g/m*3 14.8 C 0 km/h
108 05-10-2010 11:00:00 17.48 C 13.01 g/m*3 17.48 C 0 km/h
109 05-10-2010 12:00:00 18.1 C 11.43 g/m*3 18.1 C 0 km/h
110 05-10-2010 13:00:00 19.18 C 11.23 g/m*3 19.18 C 0 km/h
111 05-10-2010 14:00:00 19.26 C 10.95 g/m*3 19.26 C 0 km/h
112 05-10-2010 15:00:00 18.8 C 12.63 g/m*3 18.8 C 0 km/h
113 05-10-2010 16:00:00 18.5 C 12.47 g/m*3 18.5 C 0 km/h
114 05-10-2010 17:00:00 17.1 C 11.67 g/m*3 17.1 C 0 km/h
115 05-10-2010 18:00:00 17.02 C 11.44 g/m*3 17.02 C 0 km/h
116 05-10-2010 19:00:00 16.66 C 11.31 g/m*3 16.66 C 0 km/h
117 05-10-2010 20:00:00 16.36 C 10.94 g/m*3 16.36 C 0 km/h
118 05-10-2010 21:00:00 15.68 C 10.26 g/m*3 15.68 C 0 km/h
119 05-10-2010 22:00:00 15.3 C 9.98 g/m*3 15.3 C 0 km/h
120 05-10-2010 23:00:00 15.6 C 9.97 g/m*3 15.6 C 0 km/h
121 06-10-2010 00:00:00 15.6 C 9.97 g/m*3 15.6 C 0 km/h
122 06-10-2010 01:00:00 15.5 C 9.99 g/m*3 15.5 C 0 km/h
123 06-10-2010 02:00:00 15.44 C 10.17 g/m*3 15.44 C 0 km/h
124 06-10-2010 03:00:00 15.28 C 10.1 g/m*3 15.28 C 0 km/h
125 06-10-2010 04:00:00 15.1 C 10.09 g/m*3 15.1 C 0 km/h
Sensor: Nr:Datum:Temp:Abs-Feuchte:Windchill:Wind:
Aussen-T/F 126 06-10-2010 05:00:00 14.92 C 10.26 g/m*3 14.92 C 0 km/h
127 06-10-2010 06:00:00 14.82 C 10.1 g/m*3 14.82 C 0 km/h
128 06-10-2010 07:00:00 14.66 C 9.95 g/m*3 14.66 C 0 km/h
129 06-10-2010 08:00:00 14.52 C 10.19 g/m*3 14.52 C 0 km/h
130 06-10-2010 09:00:00 15.54 C 10.12 g/m*3 15.54 C 0 km/h
131 06-10-2010 10:00:00 16.24 C 9.93 g/m*3 16.24 C 0 km/h
132 06-10-2010 11:00:00 17.76 C 9.27 g/m*3 17.76 C 0 km/h
133 06-10-2010 12:00:00 19.04 C 8.69 g/m*3 19.04 C 0 km/h
134 06-10-2010 13:00:00 20.2 C 8.5 g/m*3 20.2 C 0 km/h
135 06-10-2010 14:00:00 21.62 C 8.24 g/m*3 21.62 C 0 km/h
136 06-10-2010 15:00:00 23.06 C 8.25 g/m*3 23.06 C 0 km/h
137 06-10-2010 16:00:00 22.84 C 8.96 g/m*3 22.84 C 0 km/h
138 06-10-2010 17:00:00 21.08 C 10.16 g/m*3 21.08 C 0 km/h
139 06-10-2010 18:00:00 18.94 C 10.23 g/m*3 18.94 C 0 km/h
140 06-10-2010 19:00:00 17.3 C 10.19 g/m*3 17.3 C 0 km/h
141 06-10-2010 20:00:00 16.9 C 10.13 g/m*3 16.9 C 0 km/h
142 06-10-2010 21:00:00 16.36 C 10.42 g/m*3 16.36 C 0 km/h
143 06-10-2010 22:00:00 15.74 C 10.52 g/m*3 15.74 C 0 km/h
144 06-10-2010 23:00:00 14.9 C 10.32 g/m*3 14.9 C 0 km/h
145 07-10-2010 00:00:00 14.22 C 10.17 g/m*3 14.22 C 0 km/h
146 07-10-2010 01:00:00 14.24 C 10.5 g/m*3 14.24 C 0 km/h
147 07-10-2010 02:00:00 14.24 C 10.43 g/m*3 14.24 C 0 km/h
148 07-10-2010 03:00:00 14.08 C 10.35 g/m*3 14.08 C 0 km/h
149 07-10-2010 04:00:00 13.82 C 10.31 g/m*3 13.82 C 0 km/h
150 07-10-2010 05:00:00 13.3 C 10.17 g/m*3 13.3 C 0 km/h
Sensor: Nr:Datum:Temp:Abs-Feuchte:Windchill:Wind:
Aussen-T/F 151 07-10-2010 06:00:00 13.84 C 10.51 g/m*3 13.84 C 0 km/h
152 07-10-2010 07:00:00 14.12 C 10.6 g/m*3 14.12 C 0 km/h
153 07-10-2010 08:00:00 14.66 C 10.9 g/m*3 14.66 C 0 km/h
154 07-10-2010 09:00:00 15.06 C 10.6 g/m*3 15.06 C 0 km/h
155 07-10-2010 10:00:00 16.18 C 10.33 g/m*3 16.18 C 0 km/h
156 07-10-2010 11:00:00 17.26 C 10.32 g/m*3 17.26 C 0 km/h
157 07-10-2010 12:00:00 18.4 C 9.97 g/m*3 18.4 C 0 km/h
158 07-10-2010 13:00:00 19.26 C 9.83 g/m*3 19.26 C 0 km/h
159 07-10-2010 14:00:00 19.88 C 9.78 g/m*3 19.88 C 0 km/h
160 07-10-2010 15:00:00 20.5 C 9.5 g/m*3 20.5 C 0 km/h
161 07-10-2010 16:00:00 19.94 C 9.47 g/m*3 19.94 C 0 km/h
162 07-10-2010 17:00:00 19.16 C 9.57 g/m*3 19.16 C 0 km/h
163 07-10-2010 18:00:00 17.88 C 10.22 g/m*3 17.88 C 0 km/h
164 07-10-2010 19:00:00 16.9 C 10.38 g/m*3 16.9 C 0 km/h
165 07-10-2010 20:00:00 16.3 C 10.35 g/m*3 16.3 C 0 km/h
166 07-10-2010 21:00:00 16.22 C 10.13 g/m*3 16.22 C 0 km/h
167 07-10-2010 22:00:00 16 C 9.86 g/m*3 16 C 0 km/h
168 07-10-2010 23:00:00 16.02 C 9.74 g/m*3 16.02 C 0 km/h
169 08-10-2010 00:00:00 15.82 C 9.89 g/m*3 15.82 C 0 km/h
170 08-10-2010 01:00:00 15.62 C 9.67 g/m*3 15.62 C 0 km/h
171 08-10-2010 02:00:00 15.44 C 9.35 g/m*3 15.44 C 0 km/h
172 08-10-2010 03:00:00 14.92 C 8.75 g/m*3 14.92 C 0 km/h
173 08-10-2010 04:00:00 14.52 C 8.57 g/m*3 14.52 C 0 km/h
174 08-10-2010 05:00:00 14.24 C 8.81 g/m*3 14.24 C 0 km/h
175 08-10-2010 06:00:00 13.98 C 8.96 g/m*3 13.98 C 0 km/h
Sensor: Nr:Datum:Temp:Abs-Feuchte:Windchill:Wind:
Aussen-T/F 176 08-10-2010 07:00:00 14.02 C 9.13 g/m*3 14.02 C 0 km/h
177 08-10-2010 08:00:00 14.2 C 9.23 g/m*3 14.2 C 0 km/h
178 08-10-2010 09:00:00 14.6 C 9.41 g/m*3 14.6 C 0 km/h
179 08-10-2010 10:00:00 15.28 C 9.47 g/m*3 15.28 C 0 km/h
180 08-10-2010 11:00:00 15.86 C 9.29 g/m*3 15.86 C 0 km/h
181 08-10-2010 12:00:00 16.54 C 9.09 g/m*3 16.54 C 0 km/h
182 08-10-2010 13:00:00 16.94 C 8.77 g/m*3 16.94 C 0 km/h
183 08-10-2010 14:00:00 18.76 C 8.77 g/m*3 18.76 C 0 km/h
184 08-10-2010 15:00:00 20.32 C 8.52 g/m*3 20.32 C 0 km/h
185 08-10-2010 16:00:00 22.2 C 8.95 g/m*3 22.2 C 0 km/h
186 08-10-2010 17:00:00 21.78 C 9.24 g/m*3 21.78 C 0 km/h
187 08-10-2010 18:00:00 19.06 C 9.68 g/m*3 19.06 C 0 km/h
188 08-10-2010 19:00:00 15.88 C 9.98 g/m*3 15.88 C 0 km/h
189 08-10-2010 20:00:00 14.78 C 9.79 g/m*3 14.78 C 0 km/h
190 08-10-2010 21:00:00 14.08 C 9.65 g/m*3 14.08 C 0 km/h
191 08-10-2010 22:00:00 13.28 C 9.51 g/m*3 13.28 C 0 km/h
192 08-10-2010 23:00:00 12.58 C 9.3 g/m*3 12.58 C 0 km/h
193 09-10-2010 00:00:00 11.9 C 9.11 g/m*3 11.9 C 0 km/h
194 09-10-2010 01:00:00 11.34 C 8.96 g/m*3 11.34 C 0 km/h
195 09-10-2010 02:00:00 10.74 C 8.68 g/m*3 10.74 C 0 km/h
196 09-10-2010 03:00:00 10.24 C 8.43 g/m*3 10.24 C 0 km/h
197 09-10-2010 04:00:00 9.78 C 8.32 g/m*3 9.78 C 0 km/h
198 09-10-2010 05:00:00 9.52 C 8.29 g/m*3 9.52 C 0 km/h
199 09-10-2010 06:00:00 9.42 C 8.31 g/m*3 9.42 C 0 km/h
200 09-10-2010 07:00:00 9.24 C 8.24 g/m*3 9.24 C 0 km/h
Sensor: Nr:Datum:Temp:Abs-Feuchte:Windchill:Wind:
Aussen-T/F 201 09-10-2010 08:00:00 9.2 C 8.22 g/m*3 9.2 C 0 km/h
202 09-10-2010 09:00:00 9.28 C 8.24 g/m*3 9.28 C 0 km/h
203 09-10-2010 10:00:00 10.44 C 8.87 g/m*3 10.44 C 0 km/h
204 09-10-2010 11:00:00 12.52 C 9.53 g/m*3 12.52 C 0 km/h
205 09-10-2010 12:00:00 14.68 C 8.2 g/m*3 14.68 C 0 km/h
206 09-10-2010 13:00:00 17.1 C 7.89 g/m*3 17.1 C 0 km/h
207 09-10-2010 14:00:00 19.96 C 7.03 g/m*3 19.96 C 0 km/h
208 09-10-2010 15:00:00 21.86 C 6.28 g/m*3 21.86 C 0 km/h
209 09-10-2010 16:00:00 22.16 C 6.23 g/m*3 22.16 C 0 km/h
210 09-10-2010 17:00:00 20.8 C 6.19 g/m*3 20.8 C 0 km/h
211 09-10-2010 18:00:00 17.02 C 6.26 g/m*3 17.02 C 0 km/h
212 09-10-2010 19:00:00 13.8 C 6.12 g/m*3 13.8 C 0 km/h
213 09-10-2010 20:00:00 12.84 C 6.58 g/m*3 12.84 C 0 km/h
214 09-10-2010 21:00:00 11.48 C 6.99 g/m*3 11.48 C 0 km/h
215 09-10-2010 22:00:00 10.6 C 7.03 g/m*3 10.6 C 0 km/h
216 09-10-2010 23:00:00 9.62 C 6.92 g/m*3 9.62 C 0 km/h
217 10-10-2010 00:00:00 8.94 C 6.99 g/m*3 8.94 C 0 km/h
218 10-10-2010 01:00:00 8.38 C 6.93 g/m*3 8.38 C 0 km/h
219 10-10-2010 02:00:00 7.76 C 6.82 g/m*3 7.76 C 0 km/h
220 10-10-2010 03:00:00 7.14 C 6.66 g/m*3 7.14 C 0 km/h
221 10-10-2010 04:00:00 6.76 C 6.61 g/m*3 6.76 C 0 km/h
222 10-10-2010 05:00:00 6.28 C 6.45 g/m*3 6.28 C 0 km/h
223 10-10-2010 06:00:00 5.86 C 6.36 g/m*3 5.86 C 0 km/h
224 10-10-2010 07:00:00 5.5 C 6.31 g/m*3 5.5 C 0 km/h
225 10-10-2010 08:00:00 6.36 C 6.69 g/m*3 6.36 C 0 km/h
Sensor: Nr:Datum:Temp:Abs-Feuchte:Windchill:Wind:
Aussen-T/F 226 10-10-2010 09:00:00 7.26 C 6.79 g/m*3 7.26 C 0 km/h
227 10-10-2010 10:00:00 8.92 C 6.6 g/m*3 8.92 C 0 km/h
228 10-10-2010 11:00:00 10.92 C 6.57 g/m*3 10.92 C 0 km/h
229 10-10-2010 12:00:00 12.8 C 6.47 g/m*3 12.8 C 0 km/h
230 10-10-2010 13:00:00 15.86 C 5.67 g/m*3 15.86 C 0 km/h
231 10-10-2010 14:00:00 18.62 C 5.45 g/m*3 18.62 C 0 km/h
232 10-10-2010 15:00:00 20.4 C 5.91 g/m*3 20.4 C 0 km/h
233 10-10-2010 16:00:00 21.28 C 5.7 g/m*3 21.28 C 0 km/h
234 10-10-2010 17:00:00 20.64 C 5.6 g/m*3 20.64 C 0 km/h
235 10-10-2010 18:00:00 17.2 C 5.45 g/m*3 17.2 C 0 km/h
236 10-10-2010 19:00:00 14.18 C 5.49 g/m*3 14.18 C 0 km/h
237 10-10-2010 20:00:00 13.02 C 4.91 g/m*3 13.02 C 0 km/h
238 10-10-2010 21:00:00 12.44 C 4.01 g/m*3 12.44 C 0 km/h
239 10-10-2010 22:00:00 11.46 C 4.12 g/m*3 11.46 C 0 km/h
240 10-10-2010 23:00:00 10.72 C 4.52 g/m*3 10.72 C 0 km/h
241 11-10-2010 00:00:00 9.98 C 4.88 g/m*3 9.98 C 0 km/h
242 11-10-2010 01:00:00 9.44 C 4.91 g/m*3 9.44 C 0 km/h
243 11-10-2010 02:00:00 9.08 C 4.87 g/m*3 9.08 C 0 km/h
244 11-10-2010 03:00:00 8.24 C 4.99 g/m*3 8.24 C 0 km/h
245 11-10-2010 04:00:00 7.58 C 5.1 g/m*3 7.58 C 0 km/h
246 11-10-2010 05:00:00 6.64 C 5.24 g/m*3 6.64 C 0 km/h
247 11-10-2010 06:00:00 5.72 C 5.32 g/m*3 5.72 C 0 km/h
248 11-10-2010 07:00:00 5.22 C 5.36 g/m*3 5.22 C 0 km/h
249 11-10-2010 08:00:00 4.96 C 5.39 g/m*3 4.96 C 0 km/h
250 11-10-2010 09:00:00 5.6 C 5.7 g/m*3 5.6 C 0 km/h
Sensor: Nr:Datum:Temp:Abs-Feuchte:Windchill:Wind:
Aussen-T/F 251 11-10-2010 10:00:00 7.12 C 6.11 g/m*3 7.12 C 0 km/h
252 11-10-2010 11:00:00 9.46 C 6.36 g/m*3 9.46 C 0 km/h
253 11-10-2010 12:00:00 11.62 C 6.45 g/m*3 11.62 C 0 km/h
254 11-10-2010 13:00:00 14.92 C 5.9 g/m*3 14.92 C 0 km/h
255 11-10-2010 14:00:00 17.48 C 5.45 g/m*3 17.48 C 0 km/h
256 11-10-2010 15:00:00 19.78 C 5.05 g/m*3 19.78 C 0 km/h
257 11-10-2010 16:00:00 20.96 C 4.61 g/m*3 20.96 C 0 km/h
258 11-10-2010 17:00:00 19.56 C 3.6 g/m*3 19.56 C 0 km/h
259 11-10-2010 18:00:00 16.12 C 3.98 g/m*3 16.12 C 0 km/h
260 11-10-2010 19:00:00 13.18 C 4.33 g/m*3 13.18 C 0 km/h
261 11-10-2010 20:00:00 11.32 C 4.82 g/m*3 11.32 C 0 km/h
262 11-10-2010 21:00:00 10.025 C 4.96 g/m*3 10.03 C 0 km/h
263 11-10-2010 22:00:00 9.2 C 4.84 g/m*3 9.2 C 0 km/h
264 11-10-2010 23:00:00 8.24 C 4.87 g/m*3 8.24 C 0 km/h
265 12-10-2010 00:00:00 7.16 C 5.01 g/m*3 7.16 C 0 km/h
266 12-10-2010 01:00:00 6.4 C 5.13 g/m*3 6.4 C 0 km/h
267 12-10-2010 02:00:00 5.74 C 5.24 g/m*3 5.74 C 0 km/h
268 12-10-2010 03:00:00 5.04 C 5.31 g/m*3 5.04 C 0 km/h
269 12-10-2010 04:00:00 4.42 C 5.34 g/m*3 4.42 C 0 km/h
270 12-10-2010 05:00:00 3.8 C 5.31 g/m*3 3.8 C 0 km/h
271 12-10-2010 06:00:00 3.46 C 5.26 g/m*3 3.46 C 0 km/h
272 12-10-2010 07:00:00 2.94 C 5.15 g/m*3 2.94 C 0 km/h
273 12-10-2010 08:00:00 3.56 C 5.52 g/m*3 3.56 C 0 km/h
274 12-10-2010 09:00:00 4.9 C 5.93 g/m*3 4.9 C 0 km/h
275 12-10-2010 10:00:00 5.82 C 6.07 g/m*3 5.82 C 0 km/h
Sensor: Nr:Datum:Temp:Abs-Feuchte:Windchill:Wind:
Aussen-T/F 276 12-10-2010 11:00:00 7.16 C 6.36 g/m*3 7.16 C 0 km/h
277 12-10-2010 12:00:00 9.56 C 6.18 g/m*3 9.56 C 0 km/h
278 12-10-2010 13:00:00 12.58 C 5.72 g/m*3 12.58 C 0 km/h
279 12-10-2010 14:00:00 15.26 C 5.65 g/m*3 15.26 C 0 km/h
280 12-10-2010 15:00:00 16.94 C 5.42 g/m*3 16.94 C 0 km/h
281 12-10-2010 16:00:00 17.66 C 5.42 g/m*3 17.66 C 0 km/h
282 12-10-2010 17:00:00 17.22 C 4.57 g/m*3 17.22 C 0 km/h
283 12-10-2010 18:00:00 14.5 C 5.65 g/m*3 14.5 C 0 km/h
284 12-10-2010 19:00:00 11.42 C 6.45 g/m*3 11.42 C 0 km/h
285 12-10-2010 20:00:00 9.84 C 6.47 g/m*3 9.84 C 0 km/h
286 12-10-2010 21:00:00 8.36 C 6.26 g/m*3 8.36 C 0 km/h
287 12-10-2010 22:00:00 7.74 C 6.15 g/m*3 7.74 C 0 km/h
288 12-10-2010 23:00:00 7.78 C 6 g/m*3 7.78 C 0 km/h
289 13-10-2010 00:00:00 7.6 C 5.86 g/m*3 7.6 C 0 km/h
290 13-10-2010 01:00:00 7.02 C 5.82 g/m*3 7.02 C 0 km/h
291 13-10-2010 02:00:00 6.8 C 5.83 g/m*3 6.8 C 0 km/h
292 13-10-2010 03:00:00 6.44 C 5.69 g/m*3 6.44 C 0 km/h
293 13-10-2010 04:00:00 6.2 C 5.59 g/m*3 6.2 C 0 km/h
294 13-10-2010 05:00:00 6.1 C 5.6 g/m*3 6.1 C 0 km/h
295 13-10-2010 06:00:00 5.84 C 5.6 g/m*3 5.84 C 0 km/h
296 13-10-2010 07:00:00 5.42 C 5.53 g/m*3 5.42 C 0 km/h
297 13-10-2010 08:00:00 5.62 C 5.49 g/m*3 5.62 C 0 km/h
298 13-10-2010 09:00:00 5.86 C 5.45 g/m*3 5.86 C 0 km/h
299 13-10-2010 10:00:00 6.66 C 5.3 g/m*3 6.66 C 0 km/h
300 13-10-2010 11:00:00 7.04 C 5.08 g/m*3 7.04 C 0 km/h
Sensor: Nr:Datum:Temp:Abs-Feuchte:Windchill:Wind:
Aussen-T/F 301 13-10-2010 12:00:00 8.14 C 5.06 g/m*3 8.14 C 0 km/h
302 13-10-2010 13:00:00 8.8 C 4.89 g/m*3 8.8 C 0 km/h
303 13-10-2010 14:00:00 9.8 C 4.95 g/m*3 9.8 C 0 km/h
304 13-10-2010 15:00:00 11.78 C 4.94 g/m*3 11.78 C 0 km/h
305 13-10-2010 16:00:00 12.06 C 5.01 g/m*3 12.06 C 0 km/h
306 13-10-2010 17:00:00 12.34 C 5.23 g/m*3 12.34 C 0 km/h
307 13-10-2010 18:00:00 9.94 C 5.5 g/m*3 9.94 C 0 km/h
308 13-10-2010 19:00:00 7.48 C 5.76 g/m*3 7.48 C 0 km/h
309 13-10-2010 20:00:00 6.96 C 5.81 g/m*3 6.96 C 0 km/h
310 13-10-2010 21:00:00 5.82 C 5.72 g/m*3 5.82 C 0 km/h
311 13-10-2010 22:00:00 5.16 C 5.73 g/m*3 5.16 C 0 km/h
312 13-10-2010 23:00:00 4.52 C 5.61 g/m*3 4.52 C 0 km/h
313 14-10-2010 00:00:00 3.88 C 5.51 g/m*3 3.88 C 0 km/h
314 14-10-2010 01:00:00 3.38 C 5.47 g/m*3 3.38 C 0 km/h
315 14-10-2010 02:00:00 3.62 C 5.65 g/m*3 3.62 C 0 km/h
316 14-10-2010 03:00:00 3.52 C 5.57 g/m*3 3.52 C 0 km/h
317 14-10-2010 04:00:00 3.54 C 5.55 g/m*3 3.54 C 0 km/h
318 14-10-2010 05:00:00 3.62 C 5.63 g/m*3 3.62 C 0 km/h
319 14-10-2010 06:00:00 3.92 C 5.7 g/m*3 3.92 C 0 km/h
320 14-10-2010 07:00:00 4.12 C 5.76 g/m*3 4.12 C 0 km/h
321 14-10-2010 08:00:00 4.44 C 5.84 g/m*3 4.44 C 0 km/h
322 14-10-2010 09:00:00 4.56 C 5.86 g/m*3 4.56 C 0 km/h
323 14-10-2010 10:00:00 5.16 C 5.88 g/m*3 5.16 C 0 km/h
324 14-10-2010 11:00:00 6.2 C 5.75 g/m*3 6.2 C 0 km/h
325 14-10-2010 12:00:00 7.86 C 5.59 g/m*3 7.86 C 0 km/h
Sensor: Nr:Datum:Temp:Abs-Feuchte:Windchill:Wind:
Aussen-T/F 326 14-10-2010 13:00:00 9.36 C 5.58 g/m*3 9.36 C 0 km/h
327 14-10-2010 14:00:00 11.86 C 5.85 g/m*3 11.86 C 0 km/h
328 14-10-2010 15:00:00 13.94 C 5.72 g/m*3 13.94 C 0 km/h
329 14-10-2010 16:00:00 14.4 C 5.83 g/m*3 14.4 C 0 km/h
330 14-10-2010 17:00:00 13.24 C 5.5 g/m*3 13.24 C 0 km/h
331 14-10-2010 18:00:00 11.04 C 5.96 g/m*3 11.04 C 0 km/h
332 14-10-2010 19:00:00 10.26 C 6.25 g/m*3 10.26 C 0 km/h
333 14-10-2010 20:00:00 10.2 C 6.24 g/m*3 10.2 C 0 km/h
334 14-10-2010 21:00:00 9.8 C 6.33 g/m*3 9.8 C 0 km/h
335 14-10-2010 22:00:00 9.74 C 6.51 g/m*3 9.74 C 0 km/h
336 14-10-2010 23:00:00 9.68 C 6.68 g/m*3 9.68 C 0 km/h
337 15-10-2010 00:00:00 9.5 C 6.75 g/m*3 9.5 C 0 km/h
338 15-10-2010 01:00:00 9.42 C 6.88 g/m*3 9.42 C 0 km/h
339 15-10-2010 02:00:00 9.24 C 7.13 g/m*3 9.24 C 0 km/h
340 15-10-2010 03:00:00 9.28 C 7.25 g/m*3 9.28 C 0 km/h
341 15-10-2010 04:00:00 9.28 C 7.36 g/m*3 9.28 C 0 km/h
342 15-10-2010 05:00:00 9.2 C 7.41 g/m*3 9.2 C 0 km/h
343 15-10-2010 06:00:00 9.3 C 7.66 g/m*3 9.3 C 0 km/h
344 15-10-2010 07:00:00 9.28 C 7.74 g/m*3 9.28 C 0 km/h
345 15-10-2010 08:00:00 9.24 C 7.86 g/m*3 9.24 C 0 km/h
346 15-10-2010 09:00:00 9.82 C 8.19 g/m*3 9.82 C 0 km/h
347 15-10-2010 10:00:00 10.72 C 8.06 g/m*3 10.72 C 0 km/h
348 15-10-2010 11:00:00 11.52 C 7.76 g/m*3 11.52 C 0 km/h
349 15-10-2010 12:00:00 12.42 C 7.33 g/m*3 12.42 C 0 km/h
350 15-10-2010 13:00:00 13.38 C 6.9 g/m*3 13.38 C 0 km/h
Sensor: Nr:Datum:Temp:Abs-Feuchte:Windchill:Wind:
Aussen-T/F 351 15-10-2010 14:00:00 12.78 C 6.76 g/m*3 12.78 C 0 km/h
352 15-10-2010 15:00:00 12.86 C 6.68 g/m*3 12.86 C 0 km/h
353 15-10-2010 16:00:00 12.24 C 6.79 g/m*3 12.24 C 0 km/h
354 15-10-2010 17:00:00 11.56 C 7.07 g/m*3 11.56 C 0 km/h
355 15-10-2010 18:00:00 10.88 C 7.03 g/m*3 10.88 C 0 km/h
356 15-10-2010 19:00:00 10.52 C 7.01 g/m*3 10.52 C 0 km/h
357 15-10-2010 20:00:00 10.36 C 7.02 g/m*3 10.36 C 0 km/h
358 15-10-2010 21:00:00 10.1 C 7.19 g/m*3 10.1 C 0 km/h
359 15-10-2010 22:00:00 9.3 C 7.67 g/m*3 9.3 C 0 km/h
360 15-10-2010 23:00:00 9.2 C 8.04 g/m*3 9.2 C 0 km/h
361 16-10-2010 00:00:00 9.02 C 8.16 g/m*3 9.02 C 0 km/h
362 16-10-2010 01:00:00 8.82 C 8.19 g/m*3 8.82 C 0 km/h
363 16-10-2010 02:00:00 8.78 C 8.22 g/m*3 8.78 C 0 km/h
364 16-10-2010 03:00:00 8.68 C 8.21 g/m*3 8.68 C 0 km/h
365 16-10-2010 04:00:00 8.54 C 8.13 g/m*3 8.54 C 0 km/h
366 16-10-2010 05:00:00 8.36 C 8.04 g/m*3 8.36 C 0 km/h
367 16-10-2010 06:00:00 8.3 C 8.01 g/m*3 8.3 C 0 km/h
368 16-10-2010 07:00:00 8.12 C 7.88 g/m*3 8.12 C 0 km/h
369 16-10-2010 08:00:00 8.1 C 7.77 g/m*3 8.1 C 0 km/h
370 16-10-2010 09:00:00 8.24 C 7.81 g/m*3 8.24 C 0 km/h
371 16-10-2010 10:00:00 8.64 C 8.03 g/m*3 8.64 C 0 km/h
372 16-10-2010 11:00:00 8.96 C 8.11 g/m*3 8.96 C 0 km/h
373 16-10-2010 12:00:00 9.38 C 8.11 g/m*3 9.38 C 0 km/h
374 16-10-2010 13:00:00 9.72 C 8.16 g/m*3 9.72 C 0 km/h
375 16-10-2010 14:00:00 9.96 C 7.89 g/m*3 9.96 C 0 km/h
Sensor: Nr:Datum:Temp:Abs-Feuchte:Windchill:Wind:
Aussen-T/F 376 16-10-2010 15:00:00 10.08 C 7.82 g/m*3 10.08 C 0 km/h
377 16-10-2010 16:00:00 9.9 C 7.84 g/m*3 9.9 C 0 km/h
378 16-10-2010 17:00:00 9.36 C 7.9 g/m*3 9.36 C 0 km/h
379 16-10-2010 18:00:00 8.38 C 6.98 g/m*3 8.38 C 0 km/h
380 16-10-2010 19:00:00 6.96 C 6.55 g/m*3 6.96 C 0 km/h
381 16-10-2010 20:00:00 6.56 C 6.31 g/m*3 6.56 C 0 km/h
382 16-10-2010 21:00:00 6.28 C 6.21 g/m*3 6.28 C 0 km/h
383 16-10-2010 22:00:00 5.9 C 6.37 g/m*3 5.9 C 0 km/h
384 16-10-2010 23:00:00 5.96 C 6.56 g/m*3 5.96 C 0 km/h
385 17-10-2010 00:00:00 6.14 C 6.7 g/m*3 6.14 C 0 km/h
386 17-10-2010 01:00:00 6.24 C 6.71 g/m*3 6.24 C 0 km/h
387 17-10-2010 02:00:00 6.22 C 6.61 g/m*3 6.22 C 0 km/h
388 17-10-2010 03:00:00 6.24 C 6.49 g/m*3 6.24 C 0 km/h
389 17-10-2010 04:00:00 6.22 C 6.33 g/m*3 6.22 C 0 km/h
390 17-10-2010 05:00:00 6.3 C 6.43 g/m*3 6.3 C 0 km/h
391 17-10-2010 06:00:00 6.34 C 6.46 g/m*3 6.34 C 0 km/h
392 17-10-2010 07:00:00 6.34 C 6.29 g/m*3 6.34 C 0 km/h
393 17-10-2010 08:00:00 6.58 C 6.17 g/m*3 6.58 C 0 km/h
394 17-10-2010 09:00:00 6.88 C 6.15 g/m*3 6.88 C 0 km/h
395 17-10-2010 10:00:00 7.32 C 6.14 g/m*3 7.32 C 0 km/h
396 17-10-2010 11:00:00 7.7 C 5.98 g/m*3 7.7 C 0 km/h
397 17-10-2010 12:00:00 7.88 C 5.97 g/m*3 7.88 C 0 km/h
398 17-10-2010 13:00:00 8.1 C 5.96 g/m*3 8.1 C 0 km/h
399 17-10-2010 14:00:00 8.36 C 6.14 g/m*3 8.36 C 0 km/h
400 17-10-2010 15:00:00 8.52 C 6.12 g/m*3 8.52 C 0 km/h
Sensor: Nr:Datum:Temp:Abs-Feuchte:Windchill:Wind:
Aussen-T/F 401 17-10-2010 16:00:00 8.46 C 6.28 g/m*3 8.46 C 0 km/h
402 17-10-2010 17:00:00 8.3 C 6.32 g/m*3 8.3 C 0 km/h
403 17-10-2010 18:00:00 7.9 C 6.32 g/m*3 7.9 C 0 km/h
404 17-10-2010 19:00:00 7.68 C 6.38 g/m*3 7.68 C 0 km/h
405 17-10-2010 20:00:00 7.68 C 6.43 g/m*3 7.68 C 0 km/h
406 17-10-2010 21:00:00 7.62 C 6.44 g/m*3 7.62 C 0 km/h
407 17-10-2010 22:00:00 7.38 C 6.43 g/m*3 7.38 C 0 km/h
408 17-10-2010 23:00:00 7.04 C 6.31 g/m*3 7.04 C 0 km/h
409 18-10-2010 00:00:00 6.48 C 6.19 g/m*3 6.48 C 0 km/h
410 18-10-2010 01:00:00 5.18 C 5.97 g/m*3 5.18 C 0 km/h
411 18-10-2010 02:00:00 5.8 C 6.35 g/m*3 5.8 C 0 km/h
412 18-10-2010 03:00:00 6 C 6.3 g/m*3 6 C 0 km/h
413 18-10-2010 04:00:00 6.02 C 6.25 g/m*3 6.02 C 0 km/h
414 18-10-2010 05:00:00 5.84 C 6.1 g/m*3 5.84 C 0 km/h
415 18-10-2010 06:00:00 5.8 C 6.16 g/m*3 5.8 C 0 km/h
416 18-10-2010 07:00:00 5.76 C 6.14 g/m*3 5.76 C 0 km/h
417 18-10-2010 08:00:00 5.78 C 6.2 g/m*3 5.78 C 0 km/h
418 18-10-2010 09:00:00 6.66 C 6.44 g/m*3 6.66 C 0 km/h
419 18-10-2010 10:00:00 7.56 C 5.99 g/m*3 7.56 C 0 km/h
420 18-10-2010 11:00:00 7.76 C 5.06 g/m*3 7.76 C 0 km/h
421 18-10-2010 12:00:00 8.26 C 4.98 g/m*3 8.26 C 0 km/h
422 18-10-2010 13:00:00 8.82 C 4.85 g/m*3 8.82 C 0 km/h
423 18-10-2010 14:00:00 8.88 C 4.86 g/m*3 8.88 C 0 km/h
424 18-10-2010 15:00:00 8.74 C 4.86 g/m*3 8.74 C 0 km/h
425 18-10-2010 16:00:00 8.74 C 4.91 g/m*3 8.74 C 0 km/h
Sensor: Nr:Datum:Temp:Abs-Feuchte:Windchill:Wind:
Aussen-T/F 426 18-10-2010 17:00:00 8.52 C 4.86 g/m*3 8.52 C 0 km/h
427 18-10-2010 18:00:00 7.76 C 4.97 g/m*3 7.76 C 0 km/h
428 18-10-2010 19:00:00 6.32 C 4.89 g/m*3 6.32 C 0 km/h
429 18-10-2010 20:00:00 5.6 C 5.05 g/m*3 5.6 C 0 km/h
430 18-10-2010 21:00:00 5.18 C 5.03 g/m*3 5.18 C 0 km/h
431 18-10-2010 22:00:00 4.92 C 5.06 g/m*3 4.92 C 0 km/h
432 18-10-2010 23:00:00 4.86 C 5.17 g/m*3 4.86 C 0 km/h
433 19-10-2010 00:00:00 5.14 C 5.24 g/m*3 5.14 C 0 km/h
434 19-10-2010 01:00:00 5.42 C 5.27 g/m*3 5.42 C 0 km/h
435 19-10-2010 02:00:00 5.5 C 5.32 g/m*3 5.5 C 0 km/h
436 19-10-2010 03:00:00 4.96 C 5.75 g/m*3 4.96 C 0 km/h
437 19-10-2010 04:00:00 5.04 C 6.04 g/m*3 5.04 C 0 km/h
438 19-10-2010 05:00:00 5.42 C 6.06 g/m*3 5.42 C 0 km/h
439 19-10-2010 06:00:00 5.6 C 6.31 g/m*3 5.6 C 0 km/h
440 19-10-2010 07:00:00 5.98 C 6.38 g/m*3 5.98 C 0 km/h
441 19-10-2010 08:00:00 5.98 C 6.42 g/m*3 5.98 C 0 km/h
442 19-10-2010 09:00:00 6.54 C 6.62 g/m*3 6.54 C 0 km/h
443 19-10-2010 10:00:00 7.34 C 6.65 g/m*3 7.34 C 0 km/h
444 19-10-2010 11:00:00 7.5 C 6.93 g/m*3 7.5 C 0 km/h
445 19-10-2010 12:00:00 7.98 C 7.08 g/m*3 7.98 C 0 km/h
446 19-10-2010 13:00:00 9.08 C 7.48 g/m*3 9.08 C 0 km/h
447 19-10-2010 14:00:00 9.8 C 7.42 g/m*3 9.8 C 0 km/h
448 19-10-2010 15:00:00 10.34 C 7.37 g/m*3 10.34 C 0 km/h
449 19-10-2010 16:00:00 12.46 C 7 g/m*3 12.46 C 0 km/h
450 19-10-2010 17:00:00 10.3 C 7.22 g/m*3 10.3 C 0 km/h
Sensor: Nr:Datum:Temp:Abs-Feuchte:Windchill:Wind:
Aussen-T/F 451 19-10-2010 18:00:00 9.04 C 6.96 g/m*3 9.04 C 0 km/h
452 19-10-2010 19:00:00 7.98 C 6.85 g/m*3 7.98 C 0 km/h
453 19-10-2010 20:00:00 7.36 C 6.46 g/m*3 7.36 C 0 km/h
454 19-10-2010 21:00:00 6.94 C 6.22 g/m*3 6.94 C 0 km/h
455 19-10-2010 22:00:00 6.52 C 6.16 g/m*3 6.52 C 0 km/h
456 19-10-2010 23:00:00 6.54 C 6.2 g/m*3 6.54 C 0 km/h
457 20-10-2010 00:00:00 6.34 C 6.16 g/m*3 6.34 C 0 km/h
458 20-10-2010 01:00:00 6.38 C 6.16 g/m*3 6.38 C 0 km/h
459 20-10-2010 02:00:00 5.94 C 6.39 g/m*3 5.94 C 0 km/h
460 20-10-2010 03:00:00 5.76 C 6.53 g/m*3 5.76 C 0 km/h
461 20-10-2010 04:00:00 5.84 C 6.51 g/m*3 5.84 C 0 km/h
462 20-10-2010 05:00:00 5.62 C 6.56 g/m*3 5.62 C 0 km/h
463 20-10-2010 06:00:00 5.52 C 6.61 g/m*3 5.52 C 0 km/h
464 20-10-2010 07:00:00 5.5 C 6.64 g/m*3 5.5 C 0 km/h
465 20-10-2010 08:00:00 5.6 C 6.66 g/m*3 5.6 C 0 km/h
466 20-10-2010 09:00:00 6 C 6.84 g/m*3 6 C 0 km/h
467 20-10-2010 10:00:00 6.92 C 6.95 g/m*3 6.92 C 0 km/h
468 20-10-2010 11:00:00 6.84 C 6.44 g/m*3 6.84 C 0 km/h
469 20-10-2010 12:00:00 6.92 C 6.38 g/m*3 6.92 C 0 km/h
470 20-10-2010 13:00:00 7.92 C 6.2 g/m*3 7.92 C 0 km/h
471 20-10-2010 14:00:00 9.48 C 5.67 g/m*3 9.48 C 0 km/h
472 20-10-2010 15:00:00 7.68 C 5.56 g/m*3 7.68 C 0 km/h
473 20-10-2010 16:00:00 7.36 C 5.06 g/m*3 7.36 C 0 km/h
474 20-10-2010 17:00:00 7.02 C 4.92 g/m*3 7.02 C 0 km/h
475 20-10-2010 18:00:00 6.32 C 5.04 g/m*3 6.32 C 0 km/h
Sensor: Nr:Datum:Temp:Abs-Feuchte:Windchill:Wind:
Aussen-T/F 476 20-10-2010 19:00:00 4.64 C 5.24 g/m*3 4.64 C 0 km/h
477 20-10-2010 20:00:00 4.54 C 5.25 g/m*3 4.54 C 0 km/h
478 20-10-2010 21:00:00 4.46 C 5.11 g/m*3 4.46 C 0 km/h
479 20-10-2010 22:00:00 4.48 C 5.07 g/m*3 4.48 C 0 km/h
480 20-10-2010 23:00:00 4.32 C 5.05 g/m*3 4.32 C 0 km/h
481 21-10-2010 00:00:00 4.6 C 5.11 g/m*3 4.6 C 0 km/h
482 21-10-2010 01:00:00 4.44 C 5.04 g/m*3 4.44 C 0 km/h
483 21-10-2010 02:00:00 3.74 C 4.97 g/m*3 3.74 C 0 km/h
484 21-10-2010 03:00:00 3.32 C 4.98 g/m*3 3.32 C 0 km/h
485 21-10-2010 04:00:00 2.64 C 4.9 g/m*3 2.64 C 0 km/h
486 21-10-2010 05:00:00 1.92 C 4.82 g/m*3 1.92 C 0 km/h
487 21-10-2010 06:00:00 1.7 C 4.9 g/m*3 1.7 C 0 km/h
488 21-10-2010 07:00:00 1.66 C 5 g/m*3 1.66 C 0 km/h
489 21-10-2010 08:00:00 2.1 C 5.14 g/m*3 2.1 C 0 km/h
490 21-10-2010 09:00:00 3 C 5.24 g/m*3 3 C 0 km/h
491 21-10-2010 10:00:00 4.16 C 5.06 g/m*3 4.16 C 0 km/h
492 21-10-2010 11:00:00 5.64 C 4.99 g/m*3 5.64 C 0 km/h
493 21-10-2010 12:00:00 6.98 C 4.63 g/m*3 6.98 C 0 km/h
494 21-10-2010 13:00:00 8.7 C 4.13 g/m*3 8.7 C 0 km/h
495 21-10-2010 14:00:00 10.38 C 3.87 g/m*3 10.38 C 0 km/h
496 21-10-2010 15:00:00 10.66 C 3.63 g/m*3 10.66 C 0 km/h
497 21-10-2010 16:00:00 10.4 C 3.64 g/m*3 10.4 C 0 km/h
498 21-10-2010 17:00:00 10.96 C 3.55 g/m*3 10.96 C 0 km/h
499 21-10-2010 18:00:00 7.38 C 3.99 g/m*3 7.38 C 0 km/h
500 21-10-2010 19:00:00 5.64 C 4.05 g/m*3 5.64 C 0 km/h
Sensor: Nr:Datum:Temp:Abs-Feuchte:Windchill:Wind:
Aussen-T/F 501 21-10-2010 20:00:00 4.86 C 3.96 g/m*3 4.86 C 0 km/h
502 21-10-2010 21:00:00 4.62 C 3.74 g/m*3 4.62 C 0 km/h
503 21-10-2010 22:00:00 3.84 C 3.84 g/m*3 3.84 C 0 km/h
504 21-10-2010 23:00:00 3.14 C 3.89 g/m*3 3.14 C 0 km/h
505 22-10-2010 00:00:00 2.38 C 4.06 g/m*3 2.38 C 0 km/h
506 22-10-2010 01:00:00 1.74 C 4.11 g/m*3 1.74 C 0 km/h
507 22-10-2010 02:00:00 2.12 C 4.09 g/m*3 2.12 C 0 km/h
508 22-10-2010 03:00:00 2.16 C 4.08 g/m*3 2.16 C 0 km/h
509 22-10-2010 04:00:00 1.48 C 4.09 g/m*3 1.48 C 0 km/h
510 22-10-2010 05:00:00 1.38 C 4.11 g/m*3 1.38 C 0 km/h
511 22-10-2010 06:00:00 1.66 C 4.06 g/m*3 1.66 C 0 km/h
512 22-10-2010 07:00:00 0.94 C 3.98 g/m*3 0.94 C 0 km/h
513 22-10-2010 08:00:00 1.28 C 4.04 g/m*3 1.28 C 0 km/h
514 22-10-2010 09:00:00 2.06 C 4.3 g/m*3 2.06 C 0 km/h
515 22-10-2010 10:00:00 4.3 C 4.23 g/m*3 4.3 C 0 km/h
516 22-10-2010 11:00:00 5.36 C 3.94 g/m*3 5.36 C 0 km/h
517 22-10-2010 12:00:00 6.56 C 3.9 g/m*3 6.56 C 0 km/h
518 22-10-2010 13:00:00 7.18 C 3.89 g/m*3 7.18 C 0 km/h
519 22-10-2010 14:00:00 7.36 C 3.87 g/m*3 7.36 C 0 km/h
520 22-10-2010 15:00:00 7.22 C 3.82 g/m*3 7.22 C 0 km/h
521 22-10-2010 16:00:00 7.42 C 4.33 g/m*3 7.42 C 0 km/h
522 22-10-2010 17:00:00 7.22 C 4.28 g/m*3 7.22 C 0 km/h
523 22-10-2010 18:00:00 6.18 C 4.1 g/m*3 6.18 C 0 km/h
524 22-10-2010 19:00:00 6.2 C 3.69 g/m*3 6.2 C 0 km/h
525 22-10-2010 20:00:00 6.02 C 3.82 g/m*3 6.02 C 0 km/h
Sensor: Nr:Datum:Temp:Abs-Feuchte:Windchill:Wind:
Aussen-T/F 526 22-10-2010 21:00:00 5.72 C 3.9 g/m*3 5.72 C 0 km/h
527 22-10-2010 22:00:00 4.14 C 4.09 g/m*3 4.14 C 0 km/h
528 22-10-2010 23:00:00 2.76 C 4.31 g/m*3 2.76 C 0 km/h
529 23-10-2010 00:00:00 1.7 C 4.3 g/m*3 1.7 C 0 km/h
530 23-10-2010 01:00:00 1.08 C 4.29 g/m*3 1.08 C 0 km/h
531 23-10-2010 02:00:00 0.54 C 4.24 g/m*3 0.54 C 0 km/h
532 23-10-2010 03:00:00 0.1 C 4.19 g/m*3 0.1 C 0 km/h
533 23-10-2010 04:00:00 -0.34 C 4.14 g/m*3 -0.34 C 0 km/h
534 23-10-2010 05:00:00 -0.82 C 4.03 g/m*3 -0.82 C 0 km/h
535 23-10-2010 06:00:00 -1.04 C 4 g/m*3 -1.04 C 0 km/h
536 23-10-2010 07:00:00 -0.86 C 4.09 g/m*3 -0.86 C 0 km/h
537 23-10-2010 08:00:00 -0.78 C 4.18 g/m*3 -0.78 C 0 km/h
538 23-10-2010 09:00:00 -0.82 C 4.14 g/m*3 -0.82 C 0 km/h
539 23-10-2010 10:00:00 1.06 C 4.78 g/m*3 1.06 C 0 km/h
540 23-10-2010 11:00:00 4.08 C 5.33 g/m*3 4.08 C 0 km/h
541 23-10-2010 12:00:00 6.64 C 5.16 g/m*3 6.64 C 0 km/h
542 23-10-2010 13:00:00 8.56 C 4.97 g/m*3 8.56 C 0 km/h
543 23-10-2010 14:00:00 9.08 C 4.25 g/m*3 9.08 C 0 km/h
544 23-10-2010 15:00:00 8.42 C 4.64 g/m*3 8.42 C 0 km/h
545 23-10-2010 16:00:00 7.92 C 4.93 g/m*3 7.92 C 0 km/h
546 23-10-2010 17:00:00 7.88 C 5.35 g/m*3 7.88 C 0 km/h
547 23-10-2010 18:00:00 8.04 C 5.49 g/m*3 8.04 C 0 km/h
548 23-10-2010 19:00:00 8.56 C 5.16 g/m*3 8.56 C 0 km/h
549 23-10-2010 20:00:00 9.14 C 5.27 g/m*3 9.14 C 0 km/h
550 23-10-2010 21:00:00 9.26 C 5.77 g/m*3 9.26 C 0 km/h
Sensor: Nr:Datum:Temp:Abs-Feuchte:Windchill:Wind:
Aussen-T/F 551 23-10-2010 22:00:00 9.375 C 5.85 g/m*3 9.38 C 0 km/h
552 23-10-2010 23:00:00 9.32 C 5.67 g/m*3 9.32 C 0 km/h
553 24-10-2010 00:00:00 9.02 C 5.74 g/m*3 9.02 C 0 km/h
554 24-10-2010 01:00:00 8.98 C 5.85 g/m*3 8.98 C 0 km/h
555 24-10-2010 02:00:00 8.46 C 6.28 g/m*3 8.46 C 0 km/h
556 24-10-2010 03:00:00 8.46 C 6.3 g/m*3 8.46 C 0 km/h
557 24-10-2010 04:00:00 8.66 C 6.02 g/m*3 8.66 C 0 km/h
558 24-10-2010 05:00:00 8.5 C 5.98 g/m*3 8.5 C 0 km/h
559 24-10-2010 06:00:00 7.98 C 6.24 g/m*3 7.98 C 0 km/h
560 24-10-2010 07:00:00 7.06 C 6.72 g/m*3 7.06 C 0 km/h
561 24-10-2010 08:00:00 6.96 C 6.91 g/m*3 6.96 C 0 km/h
562 24-10-2010 09:00:00 7.14 C 7.02 g/m*3 7.14 C 0 km/h
563 24-10-2010 10:00:00 7 C 6.65 g/m*3 7 C 0 km/h
564 24-10-2010 11:00:00 8.3 C 5.85 g/m*3 8.3 C 0 km/h
565 24-10-2010 12:00:00 9.36 C 4.75 g/m*3 9.36 C 0 km/h
566 24-10-2010 13:00:00 10.46 C 4.6 g/m*3 10.46 C 0 km/h
567 24-10-2010 14:00:00 11.62 C 4.29 g/m*3 11.62 C 0 km/h
568 24-10-2010 15:00:00 12.3 C 4.23 g/m*3 12.3 C 0 km/h
569 24-10-2010 16:00:00 13.04 C 3.75 g/m*3 13.04 C 0 km/h
570 24-10-2010 17:00:00 12.02 C 4.01 g/m*3 12.02 C 0 km/h
571 24-10-2010 18:00:00 9.56 C 4.75 g/m*3 9.56 C 0 km/h
572 24-10-2010 19:00:00 7.42 C 5.14 g/m*3 7.42 C 0 km/h
573 24-10-2010 20:00:00 6.48 C 5.18 g/m*3 6.48 C 0 km/h
574 24-10-2010 21:00:00 6.12 C 5.38 g/m*3 6.12 C 0 km/h
575 24-10-2010 22:00:00 5.62 C 5.56 g/m*3 5.62 C 0 km/h
Sensor: Nr:Datum:Temp:Abs-Feuchte:Windchill:Wind:
Aussen-T/F 576 24-10-2010 23:00:00 4.84 C 5.49 g/m*3 4.84 C 0 km/h
577 25-10-2010 00:00:00 4.8 C 5.7 g/m*3 4.8 C 0 km/h
578 25-10-2010 01:00:00 4.5 C 5.65 g/m*3 4.5 C 0 km/h
579 25-10-2010 02:00:00 4.42 C 5.69 g/m*3 4.42 C 0 km/h
580 25-10-2010 03:00:00 4.62 C 5.76 g/m*3 4.62 C 0 km/h
581 25-10-2010 04:00:00 5.1 C 5.73 g/m*3 5.1 C 0 km/h
582 25-10-2010 05:00:00 5.1 C 5.62 g/m*3 5.1 C 0 km/h
583 25-10-2010 06:00:00 5.04 C 5.55 g/m*3 5.04 C 0 km/h
584 25-10-2010 07:00:00 4.86 C 5.51 g/m*3 4.86 C 0 km/h
585 25-10-2010 08:00:00 4.9 C 5.52 g/m*3 4.9 C 0 km/h
586 25-10-2010 09:00:00 5.06 C 5.47 g/m*3 5.06 C 0 km/h
587 25-10-2010 10:00:00 5.8 C 5.5 g/m*3 5.8 C 0 km/h
588 25-10-2010 11:00:00 6.54 C 5.44 g/m*3 6.54 C 0 km/h
589 25-10-2010 12:00:00 7.84 C 5.3 g/m*3 7.84 C 0 km/h
590 25-10-2010 13:00:00 8.74 C 5.12 g/m*3 8.74 C 0 km/h
591 25-10-2010 14:00:00 10.1 C 4.63 g/m*3 10.1 C 0 km/h
592 25-10-2010 15:00:00 10.4 C 3.91 g/m*3 10.4 C 0 km/h
593 25-10-2010 16:00:00 10.72 C 3.91 g/m*3 10.72 C 0 km/h
594 25-10-2010 17:00:00 10.68 C 4.06 g/m*3 10.68 C 0 km/h
595 25-10-2010 18:00:00 8.36 C 4.25 g/m*3 8.36 C 0 km/h
596 25-10-2010 19:00:00 6.22 C 4.68 g/m*3 6.22 C 0 km/h
597 25-10-2010 20:00:00 4.66 C 4.77 g/m*3 4.66 C 0 km/h
598 25-10-2010 21:00:00 3.92 C 4.92 g/m*3 3.92 C 0 km/h
599 25-10-2010 22:00:00 3 C 4.83 g/m*3 3 C 0 km/h
600 25-10-2010 23:00:00 2.28 C 4.79 g/m*3 2.28 C 0 km/h
Sensor: Nr:Datum:Temp:Abs-Feuchte:Windchill:Wind:
Aussen-T/F 601 26-10-2010 00:00:00 1.88 C 4.78 g/m*3 1.88 C 0 km/h
602 26-10-2010 01:00:00 1.48 C 4.76 g/m*3 1.48 C 0 km/h
603 26-10-2010 02:00:00 0.82 C 4.64 g/m*3 0.82 C 0 km/h
604 26-10-2010 03:00:00 0.3 C 4.5 g/m*3 0.3 C 0 km/h
605 26-10-2010 04:00:00 0.12 C 4.51 g/m*3 0.12 C 0 km/h
606 26-10-2010 05:00:00 0.08 C 4.56 g/m*3 0.08 C 0 km/h
607 26-10-2010 06:00:00 0.14 C 4.6 g/m*3 0.14 C 0 km/h
608 26-10-2010 07:00:00 -0.32 C 4.45 g/m*3 -0.32 C 0 km/h
609 26-10-2010 08:00:00 -0.42 C 4.42 g/m*3 -0.42 C 0 km/h
610 26-10-2010 09:00:00 -0.36 C 4.44 g/m*3 -0.36 C 0 km/h
611 26-10-2010 10:00:00 0.1 C 4.58 g/m*3 0.1 C 0 km/h
612 26-10-2010 11:00:00 1.22 C 4.82 g/m*3 1.22 C 0 km/h
613 26-10-2010 12:00:00 3.16 C 5.19 g/m*3 3.16 C 0 km/h
614 26-10-2010 13:00:00 5.54 C 5.61 g/m*3 5.54 C 0 km/h
615 26-10-2010 14:00:00 8.88 C 5.51 g/m*3 8.88 C 0 km/h
616 26-10-2010 15:00:00 9.72 C 5.28 g/m*3 9.72 C 0 km/h
617 26-10-2010 16:00:00 9.24 C 5.41 g/m*3 9.24 C 0 km/h
618 26-10-2010 17:00:00 8.04 C 5.69 g/m*3 8.04 C 0 km/h
619 26-10-2010 18:00:00 7.08 C 5.64 g/m*3 7.08 C 0 km/h
620 26-10-2010 19:00:00 6.58 C 5.68 g/m*3 6.58 C 0 km/h
621 26-10-2010 20:00:00 6.34 C 5.66 g/m*3 6.34 C 0 km/h
622 26-10-2010 21:00:00 6.06 C 5.58 g/m*3 6.06 C 0 km/h
623 26-10-2010 22:00:00 5.7 C 5.71 g/m*3 5.7 C 0 km/h
624 26-10-2010 23:00:00 5.6 C 5.73 g/m*3 5.6 C 0 km/h
625 27-10-2010 00:00:00 5.16 C 5.6 g/m*3 5.16 C 0 km/h
Sensor: Nr:Datum:Temp:Abs-Feuchte:Windchill:Wind:
Aussen-T/F 626 27-10-2010 01:00:00 5.36 C 5.14 g/m*3 5.36 C 0 km/h
627 27-10-2010 02:00:00 5.54 C 5.11 g/m*3 5.54 C 0 km/h
628 27-10-2010 03:00:00 5.48 C 5.26 g/m*3 5.48 C 0 km/h
629 27-10-2010 04:00:00 5.42 C 5.24 g/m*3 5.42 C 0 km/h
630 27-10-2010 05:00:00 5.64 C 5.16 g/m*3 5.64 C 0 km/h
631 27-10-2010 06:00:00 5.68 C 5.22 g/m*3 5.68 C 0 km/h
632 27-10-2010 07:00:00 5.76 C 5.16 g/m*3 5.76 C 0 km/h
633 27-10-2010 08:00:00 5.68 C 5.09 g/m*3 5.68 C 0 km/h
634 27-10-2010 09:00:00 5.84 C 5.65 g/m*3 5.84 C 0 km/h
635 27-10-2010 10:00:00 7 C 5.8 g/m*3 7 C 0 km/h
636 27-10-2010 11:00:00 8.22 C 5.45 g/m*3 8.22 C 0 km/h
637 27-10-2010 12:00:00 9.62 C 4.46 g/m*3 9.62 C 0 km/h
638 27-10-2010 13:00:00 10.92 C 3.84 g/m*3 10.92 C 0 km/h
639 27-10-2010 14:00:00 11.06 C 3.64 g/m*3 11.06 C 0 km/h
640 27-10-2010 15:00:00 11.56 C 3.55 g/m*3 11.56 C 0 km/h
641 27-10-2010 16:00:00 11.98 C 3.43 g/m*3 11.98 C 0 km/h
642 27-10-2010 17:00:00 11.6 C 3.55 g/m*3 11.6 C 0 km/h
643 27-10-2010 18:00:00 10.44 C 4.27 g/m*3 10.44 C 0 km/h
644 27-10-2010 19:00:00 10.04 C 4.41 g/m*3 10.04 C 0 km/h
645 27-10-2010 20:00:00 9.8 C 4.42 g/m*3 9.8 C 0 km/h
646 27-10-2010 21:00:00 9.56 C 4.71 g/m*3 9.56 C 0 km/h
647 27-10-2010 22:00:00 9.2 C 4.89 g/m*3 9.2 C 0 km/h
648 27-10-2010 23:00:00 9.02 C 4.86 g/m*3 9.02 C 0 km/h
649 28-10-2010 00:00:00 8.66 C 4.87 g/m*3 8.66 C 0 km/h
650 28-10-2010 01:00:00 8.46 C 4.91 g/m*3 8.46 C 0 km/h
Sensor: Nr:Datum:Temp:Abs-Feuchte:Windchill:Wind:
Aussen-T/F 651 28-10-2010 02:00:00 8.06 C 5.05 g/m*3 8.06 C 0 km/h
652 28-10-2010 03:00:00 7.62 C 4.86 g/m*3 7.62 C 0 km/h
653 28-10-2010 04:00:00 7.66 C 5.06 g/m*3 7.66 C 0 km/h
654 28-10-2010 05:00:00 7.52 C 5.05 g/m*3 7.52 C 0 km/h
655 28-10-2010 06:00:00 7.98 C 4.41 g/m*3 7.98 C 0 km/h
656 28-10-2010 07:00:00 8.48 C 4.31 g/m*3 8.48 C 0 km/h
657 28-10-2010 08:00:00 8.7 C 4.67 g/m*3 8.7 C 0 km/h
658 28-10-2010 09:00:00 8.86 C 4.91 g/m*3 8.86 C 0 km/h
659 28-10-2010 10:00:00 7.9 C 6.09 g/m*3 7.9 C 0 km/h
660 28-10-2010 11:00:00 9.7 C 5.97 g/m*3 9.7 C 0 km/h
661 28-10-2010 12:00:00 10.72 C 5.78 g/m*3 10.72 C 0 km/h
662 28-10-2010 13:00:00 11.34 C 5.69 g/m*3 11.34 C 0 km/h
663 28-10-2010 14:00:00 12.3 C 5.67 g/m*3 12.3 C 0 km/h
664 28-10-2010 15:00:00 12.72 C 5.66 g/m*3 12.72 C 0 km/h
665 28-10-2010 16:00:00 11.62 C 6.12 g/m*3 11.62 C 0 km/h
666 28-10-2010 17:00:00 11.08 C 6.14 g/m*3 11.08 C 0 km/h
667 28-10-2010 18:00:00 9.86 C 6.13 g/m*3 9.86 C 0 km/h
668 28-10-2010 19:00:00 9.18 C 6.22 g/m*3 9.18 C 0 km/h
669 28-10-2010 20:00:00 9 C 6.24 g/m*3 9 C 0 km/h
670 28-10-2010 21:00:00 8.38 C 6.3 g/m*3 8.38 C 0 km/h
671 28-10-2010 22:00:00 7.56 C 6.36 g/m*3 7.56 C 0 km/h
672 28-10-2010 23:00:00 6.78 C 6.32 g/m*3 6.78 C 0 km/h
673 29-10-2010 00:00:00 6.26 C 6.26 g/m*3 6.26 C 0 km/h
674 29-10-2010 01:00:00 6.28 C 6.4 g/m*3 6.28 C 0 km/h
675 29-10-2010 02:00:00 6.46 C 6.57 g/m*3 6.46 C 0 km/h
Sensor: Nr:Datum:Temp:Abs-Feuchte:Windchill:Wind:
Aussen-T/F 676 29-10-2010 03:00:00 7.23333 C 6.82 g/m*3 7.23 C 0 km/h
677 02-11-2010 08:00:00 8.77778 C 6.98 g/m*3 8.78 C 0 km/h
678 02-11-2010 09:00:00 9.9 C 6.85 g/m*3 9.9 C 0 km/h
679 02-11-2010 10:00:00 11.04 C 6.74 g/m*3 11.04 C 0 km/h
680 02-11-2010 11:00:00 11.88 C 6.43 g/m*3 11.88 C 0 km/h
681 02-11-2010 12:00:00 12.52 C 6.49 g/m*3 12.52 C 0 km/h
682 02-11-2010 13:00:00 12.72 C 6.33 g/m*3 12.72 C 0 km/h
683 02-11-2010 14:00:00 12.8 C 6.36 g/m*3 12.8 C 0 km/h
684 02-11-2010 15:00:00 12.92 C 6.39 g/m*3 12.92 C 0 km/h
685 02-11-2010 16:00:00 12.34 C 6.44 g/m*3 12.34 C 0 km/h
686 02-11-2010 17:00:00 11.34 C 6.61 g/m*3 11.34 C 0 km/h
687 02-11-2010 18:00:00 11.22 C 6.66 g/m*3 11.22 C 0 km/h
688 02-11-2010 19:00:00 11.46 C 6.66 g/m*3 11.46 C 0 km/h
689 02-11-2010 20:00:00 11 C 7.01 g/m*3 11 C 0 km/h
690 02-11-2010 21:00:00 10.94 C 7.18 g/m*3 10.94 C 0 km/h
691 02-11-2010 22:00:00 11.08 C 7.42 g/m*3 11.08 C 0 km/h
692 02-11-2010 23:00:00 11.14 C 7.57 g/m*3 11.14 C 0 km/h
693 03-11-2010 00:00:00 11.32 C 7.66 g/m*3 11.32 C 0 km/h
694 03-11-2010 01:00:00 10.88 C 7.49 g/m*3 10.88 C 0 km/h
695 03-11-2010 02:00:00 11.68 C 7.56 g/m*3 11.68 C 0 km/h
696 03-11-2010 03:00:00 12.06 C 7.34 g/m*3 12.06 C 0 km/h
697 03-11-2010 04:00:00 12.44 C 7.47 g/m*3 12.44 C 0 km/h
698 03-11-2010 05:00:00 12.72 C 7.49 g/m*3 12.72 C 0 km/h
699 03-11-2010 06:00:00 12.66 C 7.62 g/m*3 12.66 C 0 km/h
700 03-11-2010 07:00:00 12.76 C 7.66 g/m*3 12.76 C 0 km/h
Sensor: Nr:Datum:Temp:Abs-Feuchte:Windchill:Wind:
Aussen-T/F 701 03-11-2010 08:00:00 13.28 C 7.57 g/m*3 13.28 C 0 km/h
702 03-11-2010 09:00:00 13.78 C 7.64 g/m*3 13.78 C 0 km/h
703 03-11-2010 10:00:00 14.2 C 7.55 g/m*3 14.2 C 0 km/h
704 03-11-2010 11:00:00 14.42 C 7.65 g/m*3 14.42 C 0 km/h
705 03-11-2010 12:00:00 13.94 C 7.74 g/m*3 13.94 C 0 km/h
706 03-11-2010 13:00:00 13.54 C 7.83 g/m*3 13.54 C 0 km/h
707 03-11-2010 14:00:00 13.66 C 7.94 g/m*3 13.66 C 0 km/h
708 03-11-2010 15:00:00 13.78 C 8.07 g/m*3 13.78 C 0 km/h
709 03-11-2010 16:00:00 13.46 C 8.1 g/m*3 13.46 C 0 km/h
710 03-11-2010 17:00:00 13.06 C 8.2 g/m*3 13.06 C 0 km/h
711 03-11-2010 18:00:00 12.66 C 8.31 g/m*3 12.66 C 0 km/h
712 03-11-2010 19:00:00 12.96 C 8.26 g/m*3 12.96 C 0 km/h
713 03-11-2010 20:00:00 13.38 C 8.2 g/m*3 13.38 C 0 km/h
714 03-11-2010 21:00:00 13.54 C 8.16 g/m*3 13.54 C 0 km/h
715 03-11-2010 22:00:00 14.1 C 8.16 g/m*3 14.1 C 0 km/h
716 03-11-2010 23:00:00 14.2 C 8.4 g/m*3 14.2 C 0 km/h
717 04-11-2010 00:00:00 14.3 C 8.77 g/m*3 14.3 C 0 km/h
718 04-11-2010 01:00:00 14.74 C 9.06 g/m*3 14.74 C 0 km/h
719 04-11-2010 02:00:00 14.96 C 9.06 g/m*3 14.96 C 0 km/h
720 04-11-2010 03:00:00 15.16 C 9.12 g/m*3 15.16 C 0 km/h
721 04-11-2010 04:00:00 15.22 C 9.3 g/m*3 15.22 C 0 km/h
722 04-11-2010 05:00:00 15.54 C 9.41 g/m*3 15.54 C 0 km/h
723 04-11-2010 06:00:00 15.7 C 9.61 g/m*3 15.7 C 0 km/h
724 04-11-2010 07:00:00 15.92 C 9.52 g/m*3 15.92 C 0 km/h
725 04-11-2010 08:00:00 16.2 C 9.43 g/m*3 16.2 C 0 km/h
Sensor: Nr:Datum:Temp:Abs-Feuchte:Windchill:Wind:
Aussen-T/F 726 04-11-2010 09:00:00 16.64 C 9.06 g/m*3 16.64 C 0 km/h
727 04-11-2010 10:00:00 17.24 C 8.84 g/m*3 17.24 C 0 km/h
728 04-11-2010 11:00:00 17.82 C 8.45 g/m*3 17.82 C 0 km/h
729 04-11-2010 12:00:00 18.44 C 8.17 g/m*3 18.44 C 0 km/h
730 04-11-2010 13:00:00 18.54 C 8.18 g/m*3 18.54 C 0 km/h
731 04-11-2010 14:00:00 18.44 C 8.01 g/m*3 18.44 C 0 km/h
732 04-11-2010 15:00:00 18.24 C 8.13 g/m*3 18.24 C 0 km/h
733 04-11-2010 16:00:00 17.52 C 8.42 g/m*3 17.52 C 0 km/h
734 04-11-2010 17:00:00 16.92 C 8.44 g/m*3 16.92 C 0 km/h
735 04-11-2010 18:00:00 16.78 C 8.43 g/m*3 16.78 C 0 km/h
736 04-11-2010 19:00:00 16.92 C 8.47 g/m*3 16.92 C 0 km/h
737 04-11-2010 20:00:00 16.12 C 8.12 g/m*3 16.12 C 0 km/h
738 04-11-2010 21:00:00 15.74 C 8.05 g/m*3 15.74 C 0 km/h
739 04-11-2010 22:00:00 15.38 C 7.87 g/m*3 15.38 C 0 km/h
740 04-11-2010 23:00:00 15.4 C 7.88 g/m*3 15.4 C 0 km/h
741 05-11-2010 00:00:00 15.34 C 7.88 g/m*3 15.34 C 0 km/h
742 05-11-2010 01:00:00 15.14 C 7.53 g/m*3 15.14 C 0 km/h
743 05-11-2010 02:00:00 14.74 C 7.45 g/m*3 14.74 C 0 km/h
744 05-11-2010 03:00:00 14.46 C 7.37 g/m*3 14.46 C 0 km/h
745 05-11-2010 04:00:00 14.2 C 7.38 g/m*3 14.2 C 0 km/h
746 05-11-2010 05:00:00 14.14 C 7.18 g/m*3 14.14 C 0 km/h
747 05-11-2010 06:00:00 13.82 C 7.13 g/m*3 13.82 C 0 km/h
748 05-11-2010 07:00:00 13.46 C 6.95 g/m*3 13.46 C 0 km/h
749 05-11-2010 08:00:00 13.88 C 6.61 g/m*3 13.88 C 0 km/h
750 05-11-2010 09:00:00 14.52 C 6.72 g/m*3 14.52 C 0 km/h
Sensor: Nr:Datum:Temp:Abs-Feuchte:Windchill:Wind:
Aussen-T/F 751 05-11-2010 10:00:00 14.9 C 6.88 g/m*3 14.9 C 0 km/h
752 05-11-2010 11:00:00 15.22 C 6.99 g/m*3 15.22 C 0 km/h
753 05-11-2010 12:00:00 15.14 C 7.09 g/m*3 15.14 C 0 km/h
754 05-11-2010 13:00:00 15.1 C 7.1 g/m*3 15.1 C 0 km/h
755 05-11-2010 14:00:00 14.8 C 7.4 g/m*3 14.8 C 0 km/h
756 05-11-2010 15:00:00 14.6 C 7.48 g/m*3 14.6 C 0 km/h
757 05-11-2010 16:00:00 14.56 C 7.49 g/m*3 14.56 C 0 km/h
758 05-11-2010 17:00:00 14.64 C 7.55 g/m*3 14.64 C 0 km/h
759 05-11-2010 18:00:00 14.76 C 7.58 g/m*3 14.76 C 0 km/h
760 05-11-2010 19:00:00 14.36 C 7.57 g/m*3 14.36 C 0 km/h
761 05-11-2010 20:00:00 14.44 C 7.58 g/m*3 14.44 C 0 km/h
762 05-11-2010 21:00:00 14.28 C 7.61 g/m*3 14.28 C 0 km/h
763 05-11-2010 22:00:00 14.02 C 7.58 g/m*3 14.02 C 0 km/h
764 05-11-2010 23:00:00 13.94 C 7.57 g/m*3 13.94 C 0 km/h
765 06-11-2010 00:00:00 14.04 C 7.57 g/m*3 14.04 C 0 km/h
766 06-11-2010 01:00:00 14.02 C 7.61 g/m*3 14.02 C 0 km/h
767 06-11-2010 02:00:00 13.38 C 7.69 g/m*3 13.38 C 0 km/h
768 06-11-2010 03:00:00 12.9 C 7.98 g/m*3 12.9 C 0 km/h
769 06-11-2010 04:00:00 12.78 C 8.12 g/m*3 12.78 C 0 km/h
770 06-11-2010 05:00:00 13.12 C 8 g/m*3 13.12 C 0 km/h
771 06-11-2010 06:00:00 13.46 C 7.86 g/m*3 13.46 C 0 km/h
772 06-11-2010 07:00:00 13.48 C 7.57 g/m*3 13.48 C 0 km/h
773 06-11-2010 08:00:00 13.34 C 7.5 g/m*3 13.34 C 0 km/h
774 06-11-2010 09:00:00 11.92 C 7.55 g/m*3 11.92 C 0 km/h
775 06-11-2010 10:00:00 10.18 C 7.93 g/m*3 10.18 C 0 km/h
Sensor: Nr:Datum:Temp:Abs-Feuchte:Windchill:Wind:
Aussen-T/F 776 06-11-2010 11:00:00 10.58 C 8.19 g/m*3 10.58 C 0 km/h
777 06-11-2010 12:00:00 9.78 C 7.67 g/m*3 9.78 C 0 km/h
778 06-11-2010 13:00:00 9.08 C 7.46 g/m*3 9.08 C 0 km/h
779 06-11-2010 14:00:00 8.92 C 7.67 g/m*3 8.92 C 0 km/h
780 06-11-2010 15:00:00 8.64 C 7.67 g/m*3 8.64 C 0 km/h
781 06-11-2010 16:00:00 8.2 C 7.54 g/m*3 8.2 C 0 km/h
782 06-11-2010 17:00:00 7.84 C 7.49 g/m*3 7.84 C 0 km/h
783 06-11-2010 18:00:00 7.44 C 7.34 g/m*3 7.44 C 0 km/h
784 06-11-2010 19:00:00 7.42 C 7.41 g/m*3 7.42 C 0 km/h
785 06-11-2010 20:00:00 7.2 C 7.3 g/m*3 7.2 C 0 km/h
786 06-11-2010 21:00:00 7.26 C 7.33 g/m*3 7.26 C 0 km/h
787 06-11-2010 22:00:00 7.48 C 7.43 g/m*3 7.48 C 0 km/h
788 06-11-2010 23:00:00 7.36 C 7.38 g/m*3 7.36 C 0 km/h
789 07-11-2010 00:00:00 7.22 C 7.31 g/m*3 7.22 C 0 km/h
790 07-11-2010 01:00:00 7.18 C 7.29 g/m*3 7.18 C 0 km/h
791 07-11-2010 02:00:00 6.98 C 7.24 g/m*3 6.98 C 0 km/h
792 07-11-2010 03:00:00 7.3 C 7.4 g/m*3 7.3 C 0 km/h
793 07-11-2010 04:00:00 7.18 C 7.34 g/m*3 7.18 C 0 km/h
794 07-11-2010 05:00:00 6.8 C 7.19 g/m*3 6.8 C 0 km/h
795 07-11-2010 06:00:00 6.48 C 7.04 g/m*3 6.48 C 0 km/h
796 07-11-2010 07:00:00 6.7 C 7.14 g/m*3 6.7 C 0 km/h
797 07-11-2010 08:00:00 7.16 C 7.28 g/m*3 7.16 C 0 km/h
798 07-11-2010 09:00:00 7.46 C 7.47 g/m*3 7.46 C 0 km/h
799 07-11-2010 10:00:00 7.82 C 7.68 g/m*3 7.82 C 0 km/h
800 07-11-2010 11:00:00 8.06 C 7.67 g/m*3 8.06 C 0 km/h
Sensor: Nr:Datum:Temp:Abs-Feuchte:Windchill:Wind:
Aussen-T/F 801 07-11-2010 12:00:00 8.74 C 7.87 g/m*3 8.74 C 0 km/h
802 07-11-2010 13:00:00 8.48 C 7.5 g/m*3 8.48 C 0 km/h
803 07-11-2010 14:00:00 8.22 C 7.43 g/m*3 8.22 C 0 km/h
804 07-11-2010 15:00:00 7.5 C 7.17 g/m*3 7.5 C 0 km/h
805 07-11-2010 16:00:00 6.82 C 6.97 g/m*3 6.82 C 0 km/h
806 07-11-2010 17:00:00 6.76 C 7.02 g/m*3 6.76 C 0 km/h
807 07-11-2010 18:00:00 6.58 C 6.94 g/m*3 6.58 C 0 km/h
808 07-11-2010 19:00:00 5.72 C 6.61 g/m*3 5.72 C 0 km/h
809 07-11-2010 20:00:00 5.18 C 6.4 g/m*3 5.18 C 0 km/h
810 07-11-2010 21:00:00 4.98 C 6.32 g/m*3 4.98 C 0 km/h
811 07-11-2010 22:00:00 4.9 C 6.32 g/m*3 4.9 C 0 km/h
812 07-11-2010 23:00:00 4.64 C 6.22 g/m*3 4.64 C 0 km/h
813 08-11-2010 00:00:00 4.04 C 5.95 g/m*3 4.04 C 0 km/h
814 08-11-2010 01:00:00 4.12 C 5.97 g/m*3 4.12 C 0 km/h
815 08-11-2010 02:00:00 4.04 C 5.97 g/m*3 4.04 C 0 km/h
816 08-11-2010 03:00:00 4.46 C 6.16 g/m*3 4.46 C 0 km/h
817 08-11-2010 04:00:00 4.4 C 6.14 g/m*3 4.4 C 0 km/h
818 08-11-2010 05:00:00 4.6 C 6.22 g/m*3 4.6 C 0 km/h
819 08-11-2010 06:00:00 4.86 C 6.33 g/m*3 4.86 C 0 km/h
820 08-11-2010 07:00:00 4.74 C 6.26 g/m*3 4.74 C 0 km/h
821 08-11-2010 08:00:00 4.96 C 6.34 g/m*3 4.96 C 0 km/h
822 08-11-2010 09:00:00 5.84 C 6.58 g/m*3 5.84 C 0 km/h
823 08-11-2010 10:00:00 7.08 C 6.5 g/m*3 7.08 C 0 km/h
824 08-11-2010 11:00:00 7.26 C 5.75 g/m*3 7.26 C 0 km/h
825 08-11-2010 12:00:00 6.78 C 5.3 g/m*3 6.78 C 0 km/h
Sensor: Nr:Datum:Temp:Abs-Feuchte:Windchill:Wind:
Aussen-T/F 826 08-11-2010 13:00:00 7.24 C 5.15 g/m*3 7.24 C 0 km/h
827 08-11-2010 14:00:00 6.88 C 4.74 g/m*3 6.88 C 0 km/h
828 08-11-2010 15:00:00 5.6 C 4.67 g/m*3 5.6 C 0 km/h
829 08-11-2010 16:00:00 2.98 C 4.87 g/m*3 2.98 C 0 km/h
830 08-11-2010 17:00:00 2.08 C 4.85 g/m*3 2.08 C 0 km/h
831 08-11-2010 18:00:00 1.46 C 4.79 g/m*3 1.46 C 0 km/h
832 08-11-2010 19:00:00 2.26 C 5.11 g/m*3 2.26 C 0 km/h
833 08-11-2010 20:00:00 3.5 C 5.42 g/m*3 3.5 C 0 km/h
834 08-11-2010 21:00:00 3.9 C 5.56 g/m*3 3.9 C 0 km/h
835 08-11-2010 22:00:00 4.22 C 5.72 g/m*3 4.22 C 0 km/h
836 08-11-2010 23:00:00 4.44 C 5.62 g/m*3 4.44 C 0 km/h
837 09-11-2010 00:00:00 4.24 C 5.65 g/m*3 4.24 C 0 km/h
838 09-11-2010 01:00:00 4.2 C 5.73 g/m*3 4.2 C 0 km/h
839 09-11-2010 02:00:00 4.2 C 5.79 g/m*3 4.2 C 0 km/h
840 09-11-2010 03:00:00 4.46 C 5.97 g/m*3 4.46 C 0 km/h
841 09-11-2010 04:00:00 4.44 C 5.96 g/m*3 4.44 C 0 km/h
842 09-11-2010 05:00:00 4.74 C 6.08 g/m*3 4.74 C 0 km/h
843 09-11-2010 06:00:00 5.1 C 6.16 g/m*3 5.1 C 0 km/h
844 09-11-2010 07:00:00 5.58 C 6.24 g/m*3 5.58 C 0 km/h
845 09-11-2010 08:00:00 6.42 C 6.09 g/m*3 6.42 C 0 km/h
846 09-11-2010 09:00:00 6.9 C 6.1 g/m*3 6.9 C 0 km/h
847 09-11-2010 10:00:00 7.9 C 6.26 g/m*3 7.9 C 0 km/h
848 09-11-2010 11:00:00 9.16 C 6.29 g/m*3 9.16 C 0 km/h
849 09-11-2010 12:00:00 9.52 C 6.43 g/m*3 9.52 C 0 km/h
850 09-11-2010 13:00:00 9.66 C 6.47 g/m*3 9.66 C 0 km/h
Sensor: Nr:Datum:Temp:Abs-Feuchte:Windchill:Wind:
Aussen-T/F 851 09-11-2010 14:00:00 8.86 C 6.85 g/m*3 8.86 C 0 km/h
852 09-11-2010 15:00:00 8.42 C 7.07 g/m*3 8.42 C 0 km/h
853 09-11-2010 16:00:00 7.92 C 7.19 g/m*3 7.92 C 0 km/h
854 09-11-2010 17:00:00 7.3 C 7.05 g/m*3 7.3 C 0 km/h
855 09-11-2010 18:00:00 6.64 C 6.83 g/m*3 6.64 C 0 km/h
856 09-11-2010 19:00:00 6.86 C 7.02 g/m*3 6.86 C 0 km/h
857 09-11-2010 20:00:00 6.78 C 7.03 g/m*3 6.78 C 0 km/h
858 09-11-2010 21:00:00 6.84 C 7.05 g/m*3 6.84 C 0 km/h
859 09-11-2010 22:00:00 6.78 C 7.03 g/m*3 6.78 C 0 km/h
860 09-11-2010 23:00:00 6.84 C 7.05 g/m*3 6.84 C 0 km/h
861 10-11-2010 00:00:00 6.56 C 6.93 g/m*3 6.56 C 0 km/h
862 10-11-2010 01:00:00 6.92 C 7.14 g/m*3 6.92 C 0 km/h
863 10-11-2010 02:00:00 6.9 C 7.14 g/m*3 6.9 C 0 km/h
864 10-11-2010 03:00:00 7.1 C 7.18 g/m*3 7.1 C 0 km/h
865 10-11-2010 04:00:00 6.88 C 7.12 g/m*3 6.88 C 0 km/h
866 10-11-2010 05:00:00 6.9 C 7.13 g/m*3 6.9 C 0 km/h
867 10-11-2010 06:00:00 6.82 C 7.09 g/m*3 6.82 C 0 km/h
868 10-11-2010 07:00:00 6.34 C 6.87 g/m*3 6.34 C 0 km/h
869 10-11-2010 08:00:00 6.72 C 7.05 g/m*3 6.72 C 0 km/h
870 10-11-2010 09:00:00 8.22 C 7.56 g/m*3 8.22 C 0 km/h
871 10-11-2010 10:00:00 9.6 C 6.93 g/m*3 9.6 C 0 km/h
872 10-11-2010 11:00:00 9.64 C 6.48 g/m*3 9.64 C 0 km/h
873 10-11-2010 12:00:00 10.18 C 6.48 g/m*3 10.18 C 0 km/h
874 10-11-2010 13:00:00 11.08 C 6.16 g/m*3 11.08 C 0 km/h
875 10-11-2010 14:00:00 10.52 C 6.02 g/m*3 10.52 C 0 km/h
Sensor: Nr:Datum:Temp:Abs-Feuchte:Windchill:Wind:
Aussen-T/F 876 10-11-2010 15:00:00 7.86 C 6.41 g/m*3 7.86 C 0 km/h
877 10-11-2010 16:00:00 6.24 C 6.18 g/m*3 6.24 C 0 km/h
878 10-11-2010 17:00:00 5.94 C 5.81 g/m*3 5.94 C 0 km/h
879 10-11-2010 18:00:00 5.22 C 5.67 g/m*3 5.22 C 0 km/h
880 10-11-2010 19:00:00 5.2 C 5.63 g/m*3 5.2 C 0 km/h
881 10-11-2010 20:00:00 5.34 C 5.5 g/m*3 5.34 C 0 km/h
882 10-11-2010 21:00:00 4.46 C 5.52 g/m*3 4.46 C 0 km/h
883 10-11-2010 22:00:00 4.55 C 5.59 g/m*3 4.55 C 0 km/h
884 10-11-2010 23:00:00 4.3 C 5.34 g/m*3 4.3 C 0 km/h
885 11-11-2010 00:00:00 4.6 C 5.29 g/m*3 4.6 C 0 km/h
886 11-11-2010 01:00:00 4.5 C 5.44 g/m*3 4.5 C 0 km/h
887 11-11-2010 02:00:00 5.02 C 5.42 g/m*3 5.02 C 0 km/h
888 11-11-2010 03:00:00 4.84 C 5.23 g/m*3 4.84 C 0 km/h
889 11-11-2010 04:00:00 4.3 C 5.24 g/m*3 4.3 C 0 km/h
890 11-11-2010 05:00:00 4.12 C 5.2 g/m*3 4.12 C 0 km/h
891 11-11-2010 06:00:00 3.7 C 5.01 g/m*3 3.7 C 0 km/h
892 11-11-2010 07:00:00 3.56 C 4.98 g/m*3 3.56 C 0 km/h
893 11-11-2010 08:00:00 2.32 C 4.71 g/m*3 2.32 C 0 km/h
894 11-11-2010 09:00:00 3.66 C 5.28 g/m*3 3.66 C 0 km/h
895 11-11-2010 10:00:00 5.58 C 4.59 g/m*3 5.58 C 0 km/h
896 11-11-2010 11:00:00 6.94 C 3.78 g/m*3 6.94 C 0 km/h
897 11-11-2010 12:00:00 7.46 C 3.98 g/m*3 7.46 C 0 km/h
898 11-11-2010 13:00:00 7.7 C 4.15 g/m*3 7.7 C 0 km/h
899 11-11-2010 14:00:00 7.36 C 4.24 g/m*3 7.36 C 0 km/h
900 11-11-2010 15:00:00 6.8 C 4.45 g/m*3 6.8 C 0 km/h
Sensor: Nr:Datum:Temp:Abs-Feuchte:Windchill:Wind:
Aussen-T/F 901 11-11-2010 16:00:00 5.54 C 5.08 g/m*3 5.54 C 0 km/h
902 11-11-2010 17:00:00 5.28 C 5.48 g/m*3 5.28 C 0 km/h
903 11-11-2010 18:00:00 5.64 C 5.87 g/m*3 5.64 C 0 km/h
904 11-11-2010 19:00:00 6.22 C 6.27 g/m*3 6.22 C 0 km/h
905 11-11-2010 20:00:00 7.5 C 6.34 g/m*3 7.5 C 0 km/h
906 11-11-2010 21:00:00 8.44 C 6.57 g/m*3 8.44 C 0 km/h
907 11-11-2010 22:00:00 9.34 C 7.23 g/m*3 9.34 C 0 km/h
908 11-11-2010 23:00:00 9.78 C 7.69 g/m*3 9.78 C 0 km/h
909 12-11-2010 00:00:00 9.74 C 6.82 g/m*3 9.74 C 0 km/h
910 12-11-2010 01:00:00 9.84 C 5.93 g/m*3 9.84 C 0 km/h
911 12-11-2010 02:00:00 9.88 C 5.63 g/m*3 9.88 C 0 km/h
912 12-11-2010 03:00:00 9.6 C 5.81 g/m*3 9.6 C 0 km/h
913 12-11-2010 04:00:00 9.8 C 5.6 g/m*3 9.8 C 0 km/h
914 12-11-2010 05:00:00 9.94 C 5.77 g/m*3 9.94 C 0 km/h
915 12-11-2010 06:00:00 10.62 C 5.77 g/m*3 10.62 C 0 km/h
916 12-11-2010 07:00:00 10.62 C 5.8 g/m*3 10.62 C 0 km/h
917 12-11-2010 08:00:00 10.7 C 5.81 g/m*3 10.7 C 0 km/h
918 12-11-2010 09:00:00 10.84 C 5.85 g/m*3 10.84 C 0 km/h
919 12-11-2010 10:00:00 10.7 C 6.11 g/m*3 10.7 C 0 km/h
920 12-11-2010 11:00:00 11.42 C 6.08 g/m*3 11.42 C 0 km/h
921 12-11-2010 12:00:00 11.88 C 5.99 g/m*3 11.88 C 0 km/h
922 12-11-2010 13:00:00 11.64 C 6.29 g/m*3 11.64 C 0 km/h
923 12-11-2010 14:00:00 11.6 C 6.55 g/m*3 11.6 C 0 km/h
924 12-11-2010 15:00:00 11.6 C 6.57 g/m*3 11.6 C 0 km/h
925 12-11-2010 16:00:00 11.54 C 6.73 g/m*3 11.54 C 0 km/h
Sensor: Nr:Datum:Temp:Abs-Feuchte:Windchill:Wind:
Aussen-T/F 926 12-11-2010 17:00:00 11.16 C 7.2 g/m*3 11.16 C 0 km/h
927 12-11-2010 18:00:00 10.48 C 7.73 g/m*3 10.48 C 0 km/h
928 12-11-2010 19:00:00 10.52 C 8.29 g/m*3 10.52 C 0 km/h
929 12-11-2010 20:00:00 11.52 C 8.77 g/m*3 11.52 C 0 km/h
930 12-11-2010 21:00:00 12.16 C 9.28 g/m*3 12.16 C 0 km/h
931 12-11-2010 22:00:00 13.3 C 9.22 g/m*3 13.3 C 0 km/h
932 12-11-2010 23:00:00 13.88 C 8.69 g/m*3 13.88 C 0 km/h
933 13-11-2010 00:00:00 13.82 C 8.85 g/m*3 13.82 C 0 km/h
934 13-11-2010 01:00:00 13.86 C 9.06 g/m*3 13.86 C 0 km/h
935 13-11-2010 02:00:00 13.78 C 9.28 g/m*3 13.78 C 0 km/h
936 13-11-2010 03:00:00 14.2 C 9.33 g/m*3 14.2 C 0 km/h
937 13-11-2010 04:00:00 14.14 C 9.25 g/m*3 14.14 C 0 km/h
938 13-11-2010 05:00:00 14.5 C 9.1 g/m*3 14.5 C 0 km/h
939 13-11-2010 06:00:00 14.62 C 9.05 g/m*3 14.62 C 0 km/h
940 13-11-2010 07:00:00 14.72 C 9 g/m*3 14.72 C 0 km/h
941 13-11-2010 08:00:00 14.72 C 9 g/m*3 14.72 C 0 km/h
942 13-11-2010 09:00:00 14.18 C 9.15 g/m*3 14.18 C 0 km/h
943 13-11-2010 10:00:00 14.32 C 9.23 g/m*3 14.32 C 0 km/h
944 13-11-2010 11:00:00 14.76 C 9 g/m*3 14.76 C 0 km/h
945 13-11-2010 12:00:00 14.8 C 8.84 g/m*3 14.8 C 0 km/h
946 13-11-2010 13:00:00 14.76 C 8.85 g/m*3 14.76 C 0 km/h
947 13-11-2010 14:00:00 14.78 C 8.68 g/m*3 14.78 C 0 km/h
948 13-11-2010 15:00:00 14.82 C 8.55 g/m*3 14.82 C 0 km/h
949 13-11-2010 16:00:00 14.68 C 8.68 g/m*3 14.68 C 0 km/h
950 13-11-2010 17:00:00 14.26 C 8.75 g/m*3 14.26 C 0 km/h
Sensor: Nr:Datum:Temp:Abs-Feuchte:Windchill:Wind:
Aussen-T/F 951 13-11-2010 18:00:00 14.68 C 8.7 g/m*3 14.68 C 0 km/h
952 13-11-2010 19:00:00 14.94 C 8.51 g/m*3 14.94 C 0 km/h
953 13-11-2010 20:00:00 15 C 8.28 g/m*3 15 C 0 km/h
954 13-11-2010 21:00:00 14.52 C 8.39 g/m*3 14.52 C 0 km/h
955 13-11-2010 22:00:00 14.86 C 8.11 g/m*3 14.86 C 0 km/h
956 13-11-2010 23:00:00 14.74 C 8.05 g/m*3 14.74 C 0 km/h
957 14-11-2010 00:00:00 15.08 C 8.07 g/m*3 15.08 C 0 km/h
958 14-11-2010 01:00:00 14.24 C 8.27 g/m*3 14.24 C 0 km/h
959 14-11-2010 02:00:00 13.58 C 8.7 g/m*3 13.58 C 0 km/h
960 14-11-2010 03:00:00 14.36 C 8.39 g/m*3 14.36 C 0 km/h
961 14-11-2010 04:00:00 14.02 C 8.38 g/m*3 14.02 C 0 km/h
962 14-11-2010 05:00:00 13.9 C 8.46 g/m*3 13.9 C 0 km/h
963 14-11-2010 06:00:00 13.42 C 8.36 g/m*3 13.42 C 0 km/h
964 14-11-2010 07:00:00 11.92 C 8 g/m*3 11.92 C 0 km/h
965 14-11-2010 08:00:00 12.66 C 7.53 g/m*3 12.66 C 0 km/h
966 14-11-2010 09:00:00 14.28 C 7.24 g/m*3 14.28 C 0 km/h
967 14-11-2010 10:00:00 15.02 C 7.22 g/m*3 15.02 C 0 km/h
968 14-11-2010 11:00:00 15.44 C 7.22 g/m*3 15.44 C 0 km/h
969 14-11-2010 12:00:00 16.16 C 7.4 g/m*3 16.16 C 0 km/h
970 14-11-2010 13:00:00 17.46 C 7.44 g/m*3 17.46 C 0 km/h
971 14-11-2010 14:00:00 17.64 C 7.25 g/m*3 17.64 C 0 km/h
972 14-11-2010 15:00:00 17.7 C 7.12 g/m*3 17.7 C 0 km/h
973 14-11-2010 16:00:00 15.72 C 7.64 g/m*3 15.72 C 0 km/h
974 14-11-2010 17:00:00 14.74 C 8.13 g/m*3 14.74 C 0 km/h
975 14-11-2010 18:00:00 14.16 C 8.02 g/m*3 14.16 C 0 km/h
Sensor: Nr:Datum:Temp:Abs-Feuchte:Windchill:Wind:
Aussen-T/F 976 14-11-2010 19:00:00 13.96 C 7.89 g/m*3 13.96 C 0 km/h
977 14-11-2010 20:00:00 14.02 C 7.68 g/m*3 14.02 C 0 km/h
978 14-11-2010 21:00:00 13.92 C 7.27 g/m*3 13.92 C 0 km/h
979 14-11-2010 22:00:00 13.78 C 7.09 g/m*3 13.78 C 0 km/h
980 14-11-2010 23:00:00 13.42 C 6.94 g/m*3 13.42 C 0 km/h
981 15-11-2010 00:00:00 12.88 C 6.98 g/m*3 12.88 C 0 km/h
982 15-11-2010 01:00:00 12.22 C 6.91 g/m*3 12.22 C 0 km/h
983 15-11-2010 02:00:00 11.78 C 6.92 g/m*3 11.78 C 0 km/h
984 15-11-2010 03:00:00 10.9 C 7.02 g/m*3 10.9 C 0 km/h
985 15-11-2010 04:00:00 10.24 C 6.95 g/m*3 10.24 C 0 km/h
986 15-11-2010 05:00:00 9.92 C 6.53 g/m*3 9.92 C 0 km/h
987 15-11-2010 06:00:00 9.34 C 6.27 g/m*3 9.34 C 0 km/h
988 15-11-2010 07:00:00 8.96 C 6.42 g/m*3 8.96 C 0 km/h
989 15-11-2010 08:00:00 9.1 C 6.28 g/m*3 9.1 C 0 km/h
990 15-11-2010 09:00:00 9.16 C 6.07 g/m*3 9.16 C 0 km/h
991 15-11-2010 10:00:00 9.82 C 5.87 g/m*3 9.82 C 0 km/h
992 15-11-2010 11:00:00 10.3 C 5.75 g/m*3 10.3 C 0 km/h
993 15-11-2010 12:00:00 10.84 C 5.57 g/m*3 10.84 C 0 km/h
994 15-11-2010 13:00:00 10.48 C 5.62 g/m*3 10.48 C 0 km/h
995 15-11-2010 14:00:00 10.24 C 5.5 g/m*3 10.24 C 0 km/h
996 15-11-2010 15:00:00 9.68 C 5.54 g/m*3 9.68 C 0 km/h
997 15-11-2010 16:00:00 8.96 C 5.7 g/m*3 8.96 C 0 km/h
998 15-11-2010 17:00:00 8.16 C 5.81 g/m*3 8.16 C 0 km/h
999 15-11-2010 18:00:00 8.14 C 5.89 g/m*3 8.14 C 0 km/h
1000 15-11-2010 19:00:00 7.98 C 5.88 g/m*3 7.98 C 0 km/h
Sensor: Nr:Datum:Temp:Abs-Feuchte:Windchill:Wind:
Aussen-T/F 1001 15-11-2010 20:00:00 7.6 C 5.95 g/m*3 7.6 C 0 km/h
1002 15-11-2010 21:00:00 7.16 C 5.93 g/m*3 7.16 C 0 km/h
1003 15-11-2010 22:00:00 6.94 C 5.97 g/m*3 6.94 C 0 km/h
1004 15-11-2010 23:00:00 6.68 C 5.99 g/m*3 6.68 C 0 km/h
1005 16-11-2010 00:00:00 5.88 C 5.95 g/m*3 5.88 C 0 km/h
1006 16-11-2010 01:00:00 5.2 C 5.87 g/m*3 5.2 C 0 km/h
1007 16-11-2010 02:00:00 5.48 C 6.1 g/m*3 5.48 C 0 km/h
1008 16-11-2010 03:00:00 5.86 C 6.21 g/m*3 5.86 C 0 km/h
1009 16-11-2010 04:00:00 5.22 C 5.97 g/m*3 5.22 C 0 km/h
1010 16-11-2010 05:00:00 5.5 C 6.07 g/m*3 5.5 C 0 km/h
1011 16-11-2010 06:00:00 5.22 C 5.83 g/m*3 5.22 C 0 km/h
1012 16-11-2010 07:00:00 5.18 C 5.79 g/m*3 5.18 C 0 km/h
1013 16-11-2010 08:00:00 5.42 C 5.83 g/m*3 5.42 C 0 km/h
1014 16-11-2010 09:00:00 5.88 C 5.82 g/m*3 5.88 C 0 km/h
1015 16-11-2010 10:00:00 6.26 C 5.74 g/m*3 6.26 C 0 km/h
1016 16-11-2010 11:00:00 6.56 C 5.65 g/m*3 6.56 C 0 km/h
1017 16-11-2010 12:00:00 7.34 C 5.53 g/m*3 7.34 C 0 km/h
1018 16-11-2010 13:00:00 7.54 C 5.59 g/m*3 7.54 C 0 km/h
1019 16-11-2010 14:00:00 7.68 C 5.52 g/m*3 7.68 C 0 km/h
1020 16-11-2010 15:00:00 7.24 C 5.51 g/m*3 7.24 C 0 km/h
1021 16-11-2010 16:00:00 7.08 C 5.53 g/m*3 7.08 C 0 km/h
1022 16-11-2010 17:00:00 6.8 C 5.64 g/m*3 6.8 C 0 km/h
1023 16-11-2010 18:00:00 6.22 C 5.67 g/m*3 6.22 C 0 km/h
1024 16-11-2010 19:00:00 5.92 C 5.75 g/m*3 5.92 C 0 km/h
1025 16-11-2010 20:00:00 5.56 C 5.71 g/m*3 5.56 C 0 km/h
Sensor: Nr:Datum:Temp:Abs-Feuchte:Windchill:Wind:
Aussen-T/F 1026 16-11-2010 21:00:00 5.42 C 5.66 g/m*3 5.42 C 0 km/h
1027 16-11-2010 22:00:00 5.24 C 5.61 g/m*3 5.24 C 0 km/h
1028 16-11-2010 23:00:00 4.6 C 5.58 g/m*3 4.6 C 0 km/h
1029 17-11-2010 00:00:00 4.78 C 5.72 g/m*3 4.78 C 0 km/h
1030 17-11-2010 01:00:00 5.08 C 5.62 g/m*3 5.08 C 0 km/h
1031 17-11-2010 02:00:00 5 C 5.59 g/m*3 5 C 0 km/h
1032 17-11-2010 03:00:00 4.92 C 5.66 g/m*3 4.92 C 0 km/h
1033 17-11-2010 04:00:00 4.8 C 5.65 g/m*3 4.8 C 0 km/h
1034 17-11-2010 05:00:00 4.74 C 5.72 g/m*3 4.74 C 0 km/h
1035 17-11-2010 06:00:00 4.7 C 5.73 g/m*3 4.7 C 0 km/h
1036 17-11-2010 07:00:00 4.72 C 5.67 g/m*3 4.72 C 0 km/h
1037 17-11-2010 08:00:00 5.1 C 4.98 g/m*3 5.1 C 0 km/h
1038 17-11-2010 09:00:00 5.56 C 4.64 g/m*3 5.56 C 0 km/h
1039 17-11-2010 10:00:00 5.78 C 4.66 g/m*3 5.78 C 0 km/h
1040 17-11-2010 11:00:00 6.04 C 4.6 g/m*3 6.04 C 0 km/h
1041 17-11-2010 12:00:00 6.28 C 4.6 g/m*3 6.28 C 0 km/h
1042 17-11-2010 13:00:00 6.54 C 4.63 g/m*3 6.54 C 0 km/h
1043 17-11-2010 14:00:00 6.18 C 4.55 g/m*3 6.18 C 0 km/h
1044 17-11-2010 15:00:00 5.86 C 4.67 g/m*3 5.86 C 0 km/h
1045 17-11-2010 16:00:00 5.54 C 4.8 g/m*3 5.54 C 0 km/h
1046 17-11-2010 17:00:00 5.26 C 4.91 g/m*3 5.26 C 0 km/h
1047 17-11-2010 18:00:00 5.2 C 4.97 g/m*3 5.2 C 0 km/h
1048 17-11-2010 19:00:00 5.3 C 4.99 g/m*3 5.3 C 0 km/h
1049 17-11-2010 20:00:00 5.3 C 5.12 g/m*3 5.3 C 0 km/h
1050 17-11-2010 21:00:00 5.26 C 5.21 g/m*3 5.26 C 0 km/h
Sensor: Nr:Datum:Temp:Abs-Feuchte:Windchill:Wind:
Aussen-T/F 1051 17-11-2010 22:00:00 5.04 C 5.34 g/m*3 5.04 C 0 km/h
1052 17-11-2010 23:00:00 4.52 C 5.58 g/m*3 4.52 C 0 km/h
1053 18-11-2010 00:00:00 4.56 C 5.74 g/m*3 4.56 C 0 km/h
1054 18-11-2010 01:00:00 4.28 C 5.71 g/m*3 4.28 C 0 km/h
1055 18-11-2010 02:00:00 4.28 C 5.77 g/m*3 4.28 C 0 km/h
1056 18-11-2010 03:00:00 4.06 C 5.75 g/m*3 4.06 C 0 km/h
1057 18-11-2010 04:00:00 4.28 C 5.88 g/m*3 4.28 C 0 km/h
1058 18-11-2010 05:00:00 4.28 C 5.89 g/m*3 4.28 C 0 km/h
1059 18-11-2010 06:00:00 3.92 C 5.81 g/m*3 3.92 C 0 km/h
1060 18-11-2010 07:00:00 3.98 C 5.84 g/m*3 3.98 C 0 km/h
1061 18-11-2010 08:00:00 4.22 C 5.94 g/m*3 4.22 C 0 km/h
1062 18-11-2010 09:00:00 4.94 C 6.2 g/m*3 4.94 C 0 km/h
1063 18-11-2010 10:00:00 5.96 C 6.24 g/m*3 5.96 C 0 km/h
1064 18-11-2010 11:00:00 6.9 C 6.02 g/m*3 6.9 C 0 km/h
1065 18-11-2010 12:00:00 7.54 C 5.92 g/m*3 7.54 C 0 km/h
1066 18-11-2010 13:00:00 8.36 C 5.7 g/m*3 8.36 C 0 km/h
1067 18-11-2010 14:00:00 8.14 C 5.32 g/m*3 8.14 C 0 km/h
1068 18-11-2010 15:00:00 7.76 C 5.39 g/m*3 7.76 C 0 km/h
1069 18-11-2010 16:00:00 6.9 C 5.77 g/m*3 6.9 C 0 km/h
1070 18-11-2010 17:00:00 6.12 C 5.87 g/m*3 6.12 C 0 km/h
1071 18-11-2010 18:00:00 6.2 C 6.02 g/m*3 6.2 C 0 km/h
1072 18-11-2010 19:00:00 5.94 C 6.01 g/m*3 5.94 C 0 km/h
1073 18-11-2010 20:00:00 5.58 C 6.23 g/m*3 5.58 C 0 km/h
1074 18-11-2010 21:00:00 5.52 C 6.27 g/m*3 5.52 C 0 km/h
1075 18-11-2010 22:00:00 5.5 C 6.32 g/m*3 5.5 C 0 km/h
Sensor: Nr:Datum:Temp:Abs-Feuchte:Windchill:Wind:
Aussen-T/F 1076 18-11-2010 23:00:00 5.64 C 6.42 g/m*3 5.64 C 0 km/h
1077 19-11-2010 00:00:00 5.66 C 6.26 g/m*3 5.66 C 0 km/h
1078 19-11-2010 01:00:00 5.58 C 6.11 g/m*3 5.58 C 0 km/h
1079 19-11-2010 02:00:00 5.34 C 6.17 g/m*3 5.34 C 0 km/h
1080 19-11-2010 03:00:00 5.12 C 6.08 g/m*3 5.12 C 0 km/h
1081 19-11-2010 04:00:00 5.04 C 6.05 g/m*3 5.04 C 0 km/h
1082 19-11-2010 05:00:00 4.94 C 6.04 g/m*3 4.94 C 0 km/h
1083 19-11-2010 06:00:00 4.9 C 6.02 g/m*3 4.9 C 0 km/h
1084 19-11-2010 07:00:00 5.14 C 6.1 g/m*3 5.14 C 0 km/h
1085 19-11-2010 08:00:00 5.44 C 6.23 g/m*3 5.44 C 0 km/h
1086 19-11-2010 09:00:00 6.32 C 6.26 g/m*3 6.32 C 0 km/h
1087 19-11-2010 10:00:00 7.62 C 6.28 g/m*3 7.62 C 0 km/h
1088 19-11-2010 11:00:00 8.84 C 6.06 g/m*3 8.84 C 0 km/h
1089 19-11-2010 12:00:00 9.52 C 5.85 g/m*3 9.52 C 0 km/h
1090 19-11-2010 13:00:00 9.74 C 5.82 g/m*3 9.74 C 0 km/h
1091 19-11-2010 14:00:00 9.94 C 5.69 g/m*3 9.94 C 0 km/h
1092 19-11-2010 15:00:00 8.5 C 5.93 g/m*3 8.5 C 0 km/h
1093 19-11-2010 16:00:00 7.04 C 6.23 g/m*3 7.04 C 0 km/h
1094 19-11-2010 17:00:00 7.58 C 6.31 g/m*3 7.58 C 0 km/h
1095 19-11-2010 18:00:00 7.62 C 6.32 g/m*3 7.62 C 0 km/h
1096 19-11-2010 19:00:00 6.96 C 6.23 g/m*3 6.96 C 0 km/h
1097 19-11-2010 20:00:00 5.1 C 5.91 g/m*3 5.1 C 0 km/h
1098 19-11-2010 21:00:00 3.86 C 5.62 g/m*3 3.86 C 0 km/h
1099 19-11-2010 22:00:00 3.92 C 5.74 g/m*3 3.92 C 0 km/h
1100 19-11-2010 23:00:00 4.54 C 6.02 g/m*3 4.54 C 0 km/h
Sensor: Nr:Datum:Temp:Abs-Feuchte:Windchill:Wind:
Aussen-T/F 1101 20-11-2010 00:00:00 4.04 C 5.86 g/m*3 4.04 C 0 km/h
1102 20-11-2010 01:00:00 4.18 C 5.92 g/m*3 4.18 C 0 km/h
1103 20-11-2010 02:00:00 1.94 C 5.11 g/m*3 1.94 C 0 km/h
1104 20-11-2010 03:00:00 1.34 C 4.91 g/m*3 1.34 C 0 km/h
1105 20-11-2010 04:00:00 2.64 C 5.37 g/m*3 2.64 C 0 km/h
1106 20-11-2010 05:00:00 3.34 C 5.65 g/m*3 3.34 C 0 km/h
1107 20-11-2010 06:00:00 3.76 C 5.82 g/m*3 3.76 C 0 km/h
1108 20-11-2010 07:00:00 4.06 C 5.94 g/m*3 4.06 C 0 km/h
1109 20-11-2010 08:00:00 4.4 C 6.07 g/m*3 4.4 C 0 km/h
1110 20-11-2010 09:00:00 5.04 C 6.32 g/m*3 5.04 C 0 km/h
1111 20-11-2010 10:00:00 6.02 C 6.63 g/m*3 6.02 C 0 km/h
1112 20-11-2010 11:00:00 7.46 C 6.75 g/m*3 7.46 C 0 km/h
1113 20-11-2010 12:00:00 9.1 C 6.67 g/m*3 9.1 C 0 km/h
1114 20-11-2010 13:00:00 8.88 C 6.37 g/m*3 8.88 C 0 km/h
1115 20-11-2010 14:00:00 8.78 C 6.29 g/m*3 8.78 C 0 km/h
1116 20-11-2010 15:00:00 7.76 C 6.19 g/m*3 7.76 C 0 km/h
1117 20-11-2010 16:00:00 5.34 C 5.87 g/m*3 5.34 C 0 km/h
1118 20-11-2010 17:00:00 4.6 C 5.9 g/m*3 4.6 C 0 km/h
1119 20-11-2010 18:00:00 4.4 C 5.9 g/m*3 4.4 C 0 km/h
1120 20-11-2010 19:00:00 3.92 C 5.75 g/m*3 3.92 C 0 km/h
1121 20-11-2010 20:00:00 3.28 C 5.55 g/m*3 3.28 C 0 km/h
1122 20-11-2010 21:00:00 3.26 C 5.57 g/m*3 3.26 C 0 km/h
1123 20-11-2010 22:00:00 4.32 C 5.98 g/m*3 4.32 C 0 km/h
1124 20-11-2010 23:00:00 4.12 C 5.92 g/m*3 4.12 C 0 km/h
1125 21-11-2010 00:00:00 4.32 C 5.96 g/m*3 4.32 C 0 km/h
Sensor: Nr:Datum:Temp:Abs-Feuchte:Windchill:Wind:
Aussen-T/F 1126 21-11-2010 01:00:00 4.48 C 5.75 g/m*3 4.48 C 0 km/h
1127 21-11-2010 02:00:00 4.44 C 5.43 g/m*3 4.44 C 0 km/h
1128 21-11-2010 03:00:00 4.5 C 5.28 g/m*3 4.5 C 0 km/h
1129 21-11-2010 04:00:00 4.56 C 5.06 g/m*3 4.56 C 0 km/h
1130 21-11-2010 05:00:00 4.5 C 4.94 g/m*3 4.5 C 0 km/h
1131 21-11-2010 06:00:00 4.4 C 4.92 g/m*3 4.4 C 0 km/h
1132 21-11-2010 07:00:00 4.38 C 5.05 g/m*3 4.38 C 0 km/h
1133 21-11-2010 08:00:00 4.7 C 5.14 g/m*3 4.7 C 0 km/h
1134 21-11-2010 09:00:00 5 C 4.92 g/m*3 5 C 0 km/h
1135 21-11-2010 10:00:00 5.36 C 4.82 g/m*3 5.36 C 0 km/h
1136 21-11-2010 11:00:00 5.3 C 4.63 g/m*3 5.3 C 0 km/h
1137 21-11-2010 12:00:00 5.1 C 4.53 g/m*3 5.1 C 0 km/h
1138 21-11-2010 13:00:00 5.12 C 4.45 g/m*3 5.12 C 0 km/h
1139 21-11-2010 14:00:00 4.88 C 4.42 g/m*3 4.88 C 0 km/h
1140 21-11-2010 15:00:00 4.44 C 4.28 g/m*3 4.44 C 0 km/h
1141 21-11-2010 16:00:00 4.16 C 4.38 g/m*3 4.16 C 0 km/h
1142 21-11-2010 17:00:00 3.96 C 4.5 g/m*3 3.96 C 0 km/h
1143 21-11-2010 18:00:00 3.96 C 4.57 g/m*3 3.96 C 0 km/h
1144 21-11-2010 19:00:00 4.06 C 4.61 g/m*3 4.06 C 0 km/h
1145 21-11-2010 20:00:00 4.3 C 4.55 g/m*3 4.3 C 0 km/h
1146 21-11-2010 21:00:00 4.16 C 4.5 g/m*3 4.16 C 0 km/h
1147 21-11-2010 22:00:00 3.76 C 4.66 g/m*3 3.76 C 0 km/h
1148 21-11-2010 23:00:00 3.76 C 4.81 g/m*3 3.76 C 0 km/h
1149 22-11-2010 00:00:00 4.06 C 4.93 g/m*3 4.06 C 0 km/h
1150 22-11-2010 01:00:00 4.08 C 4.92 g/m*3 4.08 C 0 km/h
Sensor: Nr:Datum:Temp:Abs-Feuchte:Windchill:Wind:
Aussen-T/F 1151 22-11-2010 02:00:00 4.16 C 4.97 g/m*3 4.16 C 0 km/h
1152 22-11-2010 03:00:00 4.46 C 5.06 g/m*3 4.46 C 0 km/h
1153 22-11-2010 04:00:00 4.86 C 5.01 g/m*3 4.86 C 0 km/h
1154 22-11-2010 05:00:00 4.88 C 4.95 g/m*3 4.88 C 0 km/h
1155 22-11-2010 06:00:00 4.7 C 4.86 g/m*3 4.7 C 0 km/h
1156 22-11-2010 07:00:00 4.64 C 4.79 g/m*3 4.64 C 0 km/h
1157 22-11-2010 08:00:00 4.64 C 4.8 g/m*3 4.64 C 0 km/h
1158 22-11-2010 09:00:00 4.74 C 4.81 g/m*3 4.74 C 0 km/h
1159 22-11-2010 10:00:00 4.82 C 4.86 g/m*3 4.82 C 0 km/h
1160 22-11-2010 11:00:00 4.48 C 4.95 g/m*3 4.48 C 0 km/h
1161 22-11-2010 12:00:00 4.2 C 5.21 g/m*3 4.2 C 0 km/h
1162 22-11-2010 13:00:00 4.24 C 5.38 g/m*3 4.24 C 0 km/h
1163 22-11-2010 14:00:00 4.78 C 5.25 g/m*3 4.78 C 0 km/h
1164 22-11-2010 15:00:00 4.9 C 5.02 g/m*3 4.9 C 0 km/h
1165 22-11-2010 16:00:00 4.32 C 4.91 g/m*3 4.32 C 0 km/h
1166 22-11-2010 17:00:00 4.04 C 4.99 g/m*3 4.04 C 0 km/h
1167 22-11-2010 18:00:00 4.28 C 4.95 g/m*3 4.28 C 0 km/h
1168 22-11-2010 19:00:00 4.38 C 4.88 g/m*3 4.38 C 0 km/h
1169 22-11-2010 20:00:00 4.42 C 4.8 g/m*3 4.42 C 0 km/h
1170 22-11-2010 21:00:00 4.4 C 4.82 g/m*3 4.4 C 0 km/h
1171 22-11-2010 22:00:00 4.5 C 4.89 g/m*3 4.5 C 0 km/h
1172 22-11-2010 23:00:00 4.4 C 4.94 g/m*3 4.4 C 0 km/h
1173 23-11-2010 00:00:00 4.44 C 4.94 g/m*3 4.44 C 0 km/h
1174 23-11-2010 01:00:00 4.46 C 4.85 g/m*3 4.46 C 0 km/h
1175 23-11-2010 02:00:00 4.26 C 4.62 g/m*3 4.26 C 0 km/h
Sensor: Nr:Datum:Temp:Abs-Feuchte:Windchill:Wind:
Aussen-T/F 1176 23-11-2010 03:00:00 4.08 C 4.42 g/m*3 4.08 C 0 km/h
1177 23-11-2010 04:00:00 3.68 C 4.52 g/m*3 3.68 C 0 km/h
1178 23-11-2010 05:00:00 3.2 C 4.65 g/m*3 3.2 C 0 km/h
1179 23-11-2010 06:00:00 2.66 C 5.01 g/m*3 2.66 C 0 km/h
1180 23-11-2010 07:00:00 2.96 C 5.08 g/m*3 2.96 C 0 km/h
1181 23-11-2010 08:00:00 3.18 C 4.89 g/m*3 3.18 C 0 km/h
1182 23-11-2010 09:00:00 3.68 C 4.75 g/m*3 3.68 C 0 km/h
1183 23-11-2010 10:00:00 4.26 C 4.58 g/m*3 4.26 C 0 km/h
1184 23-11-2010 11:00:00 4.72 C 4.66 g/m*3 4.72 C 0 km/h
1185 23-11-2010 12:00:00 5.28 C 4.47 g/m*3 5.28 C 0 km/h
1186 23-11-2010 13:00:00 6.04 C 4.37 g/m*3 6.04 C 0 km/h
1187 23-11-2010 14:00:00 5.74 C 4.25 g/m*3 5.74 C 0 km/h
1188 23-11-2010 15:00:00 5.54 C 4.25 g/m*3 5.54 C 0 km/h
1189 23-11-2010 16:00:00 5.38 C 4.47 g/m*3 5.38 C 0 km/h
1190 23-11-2010 17:00:00 5.32 C 4.46 g/m*3 5.32 C 0 km/h
1191 23-11-2010 18:00:00 5.28 C 4.42 g/m*3 5.28 C 0 km/h
1192 23-11-2010 19:00:00 5.2 C 4.5 g/m*3 5.2 C 0 km/h
1193 23-11-2010 20:00:00 5.14 C 4.46 g/m*3 5.14 C 0 km/h
1194 23-11-2010 21:00:00 4.98 C 4.33 g/m*3 4.98 C 0 km/h
1195 23-11-2010 22:00:00 4.95 C 4.33 g/m*3 4.95 C 0 km/h
1196 23-11-2010 23:00:00 4.64 C 4.39 g/m*3 4.64 C 0 km/h
1197 24-11-2010 00:00:00 4.32 C 4.44 g/m*3 4.32 C 0 km/h
1198 24-11-2010 01:00:00 3.96 C 4.46 g/m*3 3.96 C 0 km/h
1199 24-11-2010 02:00:00 3.42 C 4.5 g/m*3 3.42 C 0 km/h
1200 24-11-2010 03:00:00 3.52 C 4.62 g/m*3 3.52 C 0 km/h
Sensor: Nr:Datum:Temp:Abs-Feuchte:Windchill:Wind:
Aussen-T/F 1201 24-11-2010 04:00:00 3.46 C 4.72 g/m*3 3.46 C 0 km/h
1202 24-11-2010 05:00:00 2.92 C 5 g/m*3 2.92 C 0 km/h
1203 24-11-2010 06:00:00 3.2 C 5.07 g/m*3 3.2 C 0 km/h
1204 24-11-2010 07:00:00 3.34 C 5.01 g/m*3 3.34 C 0 km/h
1205 24-11-2010 08:00:00 3.42 C 5.08 g/m*3 3.42 C 0 km/h
1206 24-11-2010 09:00:00 4.22 C 4.99 g/m*3 4.22 C 0 km/h
1207 24-11-2010 10:00:00 5.22 C 4.7 g/m*3 5.22 C 0 km/h
1208 24-11-2010 11:00:00 5.22 C 4.78 g/m*3 5.22 C 0 km/h
1209 24-11-2010 12:00:00 5.8 C 4.57 g/m*3 5.8 C 0 km/h
1210 24-11-2010 13:00:00 5.36 C 4.61 g/m*3 5.36 C 0 km/h
1211 24-11-2010 14:00:00 4.48 C 5.08 g/m*3 4.48 C 0 km/h
1212 24-11-2010 15:00:00 3.48 C 5.24 g/m*3 3.48 C 0 km/h
1213 24-11-2010 16:00:00 3.3 C 5.22 g/m*3 3.3 C 0 km/h
1214 24-11-2010 17:00:00 2.28 C 4.88 g/m*3 2.28 C 0 km/h
1215 24-11-2010 18:00:00 1.64 C 4.9 g/m*3 1.64 C 0 km/h
1216 24-11-2010 19:00:00 2.02 C 5.09 g/m*3 2.02 C 0 km/h
1217 24-11-2010 20:00:00 1.42 C 4.91 g/m*3 1.42 C 0 km/h
1218 24-11-2010 21:00:00 1.42 C 4.91 g/m*3 1.42 C 0 km/h
1219 24-11-2010 22:00:00 2.14 C 5.13 g/m*3 2.14 C 0 km/h
1220 24-11-2010 23:00:00 2.4 C 5.06 g/m*3 2.4 C 0 km/h
1221 25-11-2010 00:00:00 2.5 C 4.93 g/m*3 2.5 C 0 km/h
1222 25-11-2010 01:00:00 2.94 C 4.82 g/m*3 2.94 C 0 km/h
1223 25-11-2010 02:00:00 2.76 C 4.55 g/m*3 2.76 C 0 km/h
1224 25-11-2010 03:00:00 2.82 C 4.43 g/m*3 2.82 C 0 km/h
1225 25-11-2010 04:00:00 2.02 C 4.2 g/m*3 2.02 C 0 km/h
Sensor: Nr:Datum:Temp:Abs-Feuchte:Windchill:Wind:
Aussen-T/F 1226 25-11-2010 05:00:00 1.3 C 4.08 g/m*3 1.3 C 0 km/h
1227 25-11-2010 06:00:00 0.66 C 4.12 g/m*3 0.66 C 0 km/h
1228 25-11-2010 07:00:00 0.06 C 4.24 g/m*3 0.06 C 0 km/h
1229 25-11-2010 08:00:00 -0.28 C 4.23 g/m*3 -0.28 C 0 km/h
1230 25-11-2010 09:00:00 0.58 C 4.45 g/m*3 0.58 C 0 km/h
1231 25-11-2010 10:00:00 0.8 C 4.42 g/m*3 0.8 C 0 km/h
1232 25-11-2010 11:00:00 1.76 C 4.53 g/m*3 1.76 C 0 km/h
1233 25-11-2010 12:00:00 2 C 4.51 g/m*3 2 C 0 km/h
1234 25-11-2010 13:00:00 3.48 C 4.22 g/m*3 3.48 C 0 km/h
1235 25-11-2010 14:00:00 3.66 C 4.03 g/m*3 3.66 C 0 km/h
1236 25-11-2010 15:00:00 3.28 C 3.96 g/m*3 3.28 C 0 km/h
1237 25-11-2010 16:00:00 2.04 C 4.21 g/m*3 2.04 C 0 km/h
1238 25-11-2010 17:00:00 2.04 C 4.35 g/m*3 2.04 C 0 km/h
1239 25-11-2010 18:00:00 1.74 C 4.42 g/m*3 1.74 C 0 km/h
1240 25-11-2010 19:00:00 0.98 C 4.38 g/m*3 0.98 C 0 km/h
1241 25-11-2010 20:00:00 0.7 C 4.4 g/m*3 0.7 C 0 km/h
1242 25-11-2010 21:00:00 1.24 C 4.5 g/m*3 1.24 C 0 km/h
1243 25-11-2010 22:00:00 1.34 C 4.49 g/m*3 1.34 C 0 km/h
1244 25-11-2010 23:00:00 1.36 C 4.52 g/m*3 1.36 C 0 km/h
1245 26-11-2010 00:00:00 1.4 C 4.51 g/m*3 1.4 C 0 km/h
1246 26-11-2010 01:00:00 1.06 C 4.49 g/m*3 1.06 C 0 km/h
1247 26-11-2010 02:00:00 1.06 C 4.47 g/m*3 1.06 C 0 km/h
1248 26-11-2010 03:00:00 0.74 C 4.37 g/m*3 0.74 C 0 km/h
1249 26-11-2010 04:00:00 0.32 C 4.4 g/m*3 0.32 C 0 km/h
1250 26-11-2010 05:00:00 0.26 C 4.47 g/m*3 0.26 C 0 km/h
Sensor: Nr:Datum:Temp:Abs-Feuchte:Windchill:Wind:
Aussen-T/F 1251 26-11-2010 06:00:00 0.22 C 4.49 g/m*3 0.22 C 0 km/h
1252 26-11-2010 07:00:00 0 C 4.46 g/m*3 0 C 0 km/h
1253 26-11-2010 08:00:00 0.04 C 4.49 g/m*3 0.04 C 0 km/h
1254 26-11-2010 09:00:00 0.14 C 4.55 g/m*3 0.14 C 0 km/h
1255 26-11-2010 10:00:00 0.58 C 4.66 g/m*3 0.58 C 0 km/h
1256 26-11-2010 11:00:00 1.12 C 4.61 g/m*3 1.12 C 0 km/h
1257 26-11-2010 12:00:00 0.84 C 4.41 g/m*3 0.84 C 0 km/h
1258 26-11-2010 13:00:00 0.9 C 4.37 g/m*3 0.9 C 0 km/h
1259 26-11-2010 14:00:00 1.6 C 4.17 g/m*3 1.6 C 0 km/h
1260 26-11-2010 15:00:00 0.8 C 3.8 g/m*3 0.8 C 0 km/h
1261 26-11-2010 16:00:00 -1.48 C 3.69 g/m*3 -1.48 C 0 km/h
1262 26-11-2010 17:00:00 -2.36 C 3.65 g/m*3 -2.36 C 0 km/h
1263 26-11-2010 18:00:00 -1.38 C 4 g/m*3 -1.38 C 0 km/h
1264 26-11-2010 19:00:00 -1.54 C 3.96 g/m*3 -1.54 C 0 km/h
1265 26-11-2010 20:00:00 -1.96 C 3.85 g/m*3 -1.96 C 0 km/h
1266 26-11-2010 21:00:00 -2.34 C 3.75 g/m*3 -2.34 C 0 km/h
1267 26-11-2010 22:00:00 -3.24 C 3.5 g/m*3 -3.24 C 0 km/h
1268 26-11-2010 23:00:00 -3.76 C 3.35 g/m*3 -3.76 C 0 km/h
1269 27-11-2010 00:00:00 -4.08 C 3.27 g/m*3 -4.08 C 0 km/h
1270 27-11-2010 01:00:00 -3.54 C 3.39 g/m*3 -3.54 C 0 km/h
1271 27-11-2010 02:00:00 -3.94 C 3.25 g/m*3 -3.94 C 0 km/h
1272 27-11-2010 03:00:00 -3.16 C 3.46 g/m*3 -3.16 C 0 km/h
1273 27-11-2010 04:00:00 -4.12 C 3.19 g/m*3 -4.12 C 0 km/h
1274 27-11-2010 05:00:00 -4.28 C 3.15 g/m*3 -4.28 C 0 km/h
1275 27-11-2010 06:00:00 -3.52 C 3.35 g/m*3 -3.52 C 0 km/h
Sensor: Nr:Datum:Temp:Abs-Feuchte:Windchill:Wind:
Aussen-T/F 1276 27-11-2010 07:00:00 -3.54 C 3.33 g/m*3 -3.54 C 0 km/h
1277 27-11-2010 08:00:00 -3 C 3.48 g/m*3 -3 C 0 km/h
1278 27-11-2010 09:00:00 -1.8 C 3.8 g/m*3 -1.8 C 0 km/h
1279 27-11-2010 10:00:00 -0.84 C 4.06 g/m*3 -0.84 C 0 km/h
1280 27-11-2010 11:00:00 -0.2 C 4.19 g/m*3 -0.2 C 0 km/h
1281 27-11-2010 12:00:00 0.38 C 4 g/m*3 0.38 C 0 km/h
1282 27-11-2010 13:00:00 0.86 C 3.91 g/m*3 0.86 C 0 km/h
1283 27-11-2010 14:00:00 1.48 C 3.79 g/m*3 1.48 C 0 km/h
1284 27-11-2010 15:00:00 0.76 C 3.8 g/m*3 0.76 C 0 km/h
1285 27-11-2010 16:00:00 -0.72 C 3.59 g/m*3 -0.72 C 0 km/h
1286 27-11-2010 17:00:00 -0.86 C 3.65 g/m*3 -0.86 C 0 km/h
1287 27-11-2010 18:00:00 -1.58 C 3.59 g/m*3 -1.58 C 0 km/h
1288 27-11-2010 19:00:00 -0.92 C 3.75 g/m*3 -0.92 C 0 km/h
1289 27-11-2010 20:00:00 -1.5 C 3.52 g/m*3 -1.5 C 0 km/h
1290 27-11-2010 21:00:00 -3.1 C 3.27 g/m*3 -3.1 C 0 km/h
1291 27-11-2010 22:00:00 -3.36 C 3.3 g/m*3 -3.36 C 0 km/h
1292 27-11-2010 23:00:00 -3.22 C 3.31 g/m*3 -3.22 C 0 km/h
1293 28-11-2010 00:00:00 -3.76 C 3.2 g/m*3 -3.76 C 0 km/h
1294 28-11-2010 01:00:00 -2.76 C 3.5 g/m*3 -2.76 C 0 km/h
1295 28-11-2010 02:00:00 -2.18 C 3.6 g/m*3 -2.18 C 0 km/h
1296 28-11-2010 03:00:00 -3.4 C 3.22 g/m*3 -3.4 C 0 km/h
1297 28-11-2010 04:00:00 -2.64 C 3.47 g/m*3 -2.64 C 0 km/h
1298 28-11-2010 05:00:00 -2.72 C 3.42 g/m*3 -2.72 C 0 km/h
1299 28-11-2010 06:00:00 -2.18 C 3.56 g/m*3 -2.18 C 0 km/h
1300 28-11-2010 07:00:00 -1.88 C 3.58 g/m*3 -1.88 C 0 km/h
Sensor: Nr:Datum:Temp:Abs-Feuchte:Windchill:Wind:
Aussen-T/F 1301 28-11-2010 08:00:00 -1.66 C 3.6 g/m*3 -1.66 C 0 km/h
1302 28-11-2010 09:00:00 -1.18 C 3.62 g/m*3 -1.18 C 0 km/h
1303 28-11-2010 10:00:00 -0.38 C 3.63 g/m*3 -0.38 C 0 km/h
1304 28-11-2010 11:00:00 -0.18 C 3.55 g/m*3 -0.18 C 0 km/h
1305 28-11-2010 12:00:00 0.02 C 3.59 g/m*3 0.02 C 0 km/h
1306 28-11-2010 13:00:00 0.14 C 3.63 g/m*3 0.14 C 0 km/h
1307 28-11-2010 14:00:00 0.5 C 3.69 g/m*3 0.5 C 0 km/h
1308 28-11-2010 15:00:00 0.54 C 3.71 g/m*3 0.54 C 0 km/h
1309 28-11-2010 16:00:00 -0.34 C 3.68 g/m*3 -0.34 C 0 km/h
1310 28-11-2010 17:00:00 -0.64 C 3.67 g/m*3 -0.64 C 0 km/h
1311 28-11-2010 18:00:00 -1.1 C 3.71 g/m*3 -1.1 C 0 km/h
1312 28-11-2010 19:00:00 -0.7 C 3.7 g/m*3 -0.7 C 0 km/h
1313 28-11-2010 20:00:00 -0.8 C 3.55 g/m*3 -0.8 C 0 km/h
1314 28-11-2010 21:00:00 -0.86 C 3.46 g/m*3 -0.86 C 0 km/h
1315 28-11-2010 22:00:00 -1.6 C 3.36 g/m*3 -1.6 C 0 km/h
1316 28-11-2010 23:00:00 -2.04 C 3.42 g/m*3 -2.04 C 0 km/h
1317 29-11-2010 00:00:00 -1.48 C 3.37 g/m*3 -1.48 C 0 km/h
1318 29-11-2010 01:00:00 -1.8 C 3.31 g/m*3 -1.8 C 0 km/h
1319 29-11-2010 02:00:00 -1.88 C 3.26 g/m*3 -1.88 C 0 km/h
1320 29-11-2010 03:00:00 -2 C 3.21 g/m*3 -2 C 0 km/h
1321 29-11-2010 04:00:00 -2 C 3.22 g/m*3 -2 C 0 km/h
1322 29-11-2010 05:00:00 -1.82 C 3.27 g/m*3 -1.82 C 0 km/h
1323 29-11-2010 06:00:00 -1.68 C 3.31 g/m*3 -1.68 C 0 km/h
1324 29-11-2010 07:00:00 -1.66 C 3.29 g/m*3 -1.66 C 0 km/h
1325 29-11-2010 08:00:00 -1.6 C 3.33 g/m*3 -1.6 C 0 km/h
Sensor: Nr:Datum:Temp:Abs-Feuchte:Windchill:Wind:
Aussen-T/F 1326 29-11-2010 09:00:00 -1.38 C 3.3 g/m*3 -1.38 C 0 km/h
1327 29-11-2010 10:00:00 -1.3 C 3.37 g/m*3 -1.3 C 0 km/h
1328 29-11-2010 11:00:00 -1.22 C 3.45 g/m*3 -1.22 C 0 km/h
1329 29-11-2010 12:00:00 -1.14 C 3.52 g/m*3 -1.14 C 0 km/h
1330 29-11-2010 13:00:00 -0.84 C 3.57 g/m*3 -0.84 C 0 km/h
1331 29-11-2010 14:00:00 -1.02 C 3.67 g/m*3 -1.02 C 0 km/h
1332 29-11-2010 15:00:00 -1.3 C 3.72 g/m*3 -1.3 C 0 km/h
1333 29-11-2010 16:00:00 -1.46 C 3.73 g/m*3 -1.46 C 0 km/h
1334 29-11-2010 17:00:00 -1.68 C 3.71 g/m*3 -1.68 C 0 km/h
1335 29-11-2010 18:00:00 -1.68 C 3.75 g/m*3 -1.68 C 0 km/h
1336 29-11-2010 19:00:00 -1.7 C 3.75 g/m*3 -1.7 C 0 km/h
1337 29-11-2010 20:00:00 -1.64 C 3.8 g/m*3 -1.64 C 0 km/h
1338 29-11-2010 21:00:00 -1.66 C 3.8 g/m*3 -1.66 C 0 km/h
1339 29-11-2010 22:00:00 -1.78 C 3.77 g/m*3 -1.78 C 0 km/h
1340 29-11-2010 23:00:00 -1.68 C 3.83 g/m*3 -1.68 C 0 km/h
1341 30-11-2010 00:00:00 -1.78 C 3.81 g/m*3 -1.78 C 0 km/h
1342 30-11-2010 01:00:00 -1.96 C 3.76 g/m*3 -1.96 C 0 km/h
1343 30-11-2010 02:00:00 -1.68 C 3.84 g/m*3 -1.68 C 0 km/h
1344 30-11-2010 03:00:00 -1.7 C 3.82 g/m*3 -1.7 C 0 km/h
1345 30-11-2010 04:00:00 -2.36 C 3.62 g/m*3 -2.36 C 0 km/h
1346 30-11-2010 05:00:00 -2.4 C 3.62 g/m*3 -2.4 C 0 km/h
1347 30-11-2010 06:00:00 -2.26 C 3.66 g/m*3 -2.26 C 0 km/h
1348 30-11-2010 07:00:00 -2.28 C 3.66 g/m*3 -2.28 C 0 km/h
1349 30-11-2010 08:00:00 -2.08 C 3.66 g/m*3 -2.08 C 0 km/h
1350 30-11-2010 09:00:00 -2 C 3.58 g/m*3 -2 C 0 km/h
Sensor: Nr:Datum:Temp:Abs-Feuchte:Windchill:Wind:
Aussen-T/F 1351 30-11-2010 10:00:00 -1.82 C 3.51 g/m*3 -1.82 C 0 km/h
1352 30-11-2010 11:00:00 -1.5 C 3.44 g/m*3 -1.5 C 0 km/h
1353 30-11-2010 12:00:00 -1.3 C 3.28 g/m*3 -1.3 C 0 km/h
1354 30-11-2010 13:00:00 -1.08 C 3.25 g/m*3 -1.08 C 0 km/h
1355 30-11-2010 14:00:00 -1.32 C 3.2 g/m*3 -1.32 C 0 km/h
1356 30-11-2010 15:00:00 -1.48 C 3.23 g/m*3 -1.48 C 0 km/h
1357 30-11-2010 16:00:00 -1.5 C 3.23 g/m*3 -1.5 C 0 km/h
1358 30-11-2010 17:00:00 -1.92 C 3.21 g/m*3 -1.92 C 0 km/h
1359 30-11-2010 18:00:00 -2.1 C 3.18 g/m*3 -2.1 C 0 km/h
1360 30-11-2010 19:00:00 -2.1 C 3.17 g/m*3 -2.1 C 0 km/h
1361 30-11-2010 20:00:00 -2.26 C 3.11 g/m*3 -2.26 C 0 km/h
1362 30-11-2010 21:00:00 -2.4 C 3.05 g/m*3 -2.4 C 0 km/h
1363 30-11-2010 22:00:00 -2.58 C 2.94 g/m*3 -2.58 C 0 km/h
1364 30-11-2010 23:00:00 -2.76 C 2.83 g/m*3 -2.76 C 0 km/h
1365 01-12-2010 00:00:00 -3 C 2.76 g/m*3 -3 C 0 km/h
1366 01-12-2010 01:00:00 -3.3 C 2.67 g/m*3 -3.3 C 0 km/h
1367 01-12-2010 02:00:00 -3.88 C 2.51 g/m*3 -3.88 C 0 km/h
1368 01-12-2010 03:00:00 -4.34 C 2.36 g/m*3 -4.34 C 0 km/h
1369 01-12-2010 04:00:00 -5 C 2.23 g/m*3 -5 C 0 km/h
1370 01-12-2010 05:00:00 -5.4 C 2.18 g/m*3 -5.4 C 0 km/h
1371 01-12-2010 06:00:00 -5.56 C 2.14 g/m*3 -5.56 C 0 km/h
1372 01-12-2010 07:00:00 -5.9 C 2.05 g/m*3 -5.9 C 0 km/h
1373 01-12-2010 08:00:00 -6.26 C 1.95 g/m*3 -6.26 C 0 km/h
1374 01-12-2010 09:00:00 -5.96 C 1.92 g/m*3 -5.96 C 0 km/h
1375 01-12-2010 10:00:00 -5.54 C 1.95 g/m*3 -5.54 C 0 km/h
Sensor: Nr:Datum:Temp:Abs-Feuchte:Windchill:Wind:
Aussen-T/F 1376 01-12-2010 11:00:00 -5.48 C 1.97 g/m*3 -5.48 C 0 km/h
1377 01-12-2010 12:00:00 -5.82 C 1.93 g/m*3 -5.82 C 0 km/h
1378 01-12-2010 13:00:00 -6.1 C 1.85 g/m*3 -6.1 C 0 km/h
1379 01-12-2010 14:00:00 -6.18 C 1.79 g/m*3 -6.18 C 0 km/h
1380 01-12-2010 15:00:00 -6.28 C 1.78 g/m*3 -6.28 C 0 km/h
1381 01-12-2010 16:00:00 -6.58 C 1.75 g/m*3 -6.58 C 0 km/h
1382 01-12-2010 17:00:00 -6.58 C 1.8 g/m*3 -6.58 C 0 km/h
1383 01-12-2010 18:00:00 -6.54 C 1.82 g/m*3 -6.54 C 0 km/h
1384 01-12-2010 19:00:00 -6.58 C 1.81 g/m*3 -6.58 C 0 km/h
1385 01-12-2010 20:00:00 -6.64 C 1.77 g/m*3 -6.64 C 0 km/h
1386 01-12-2010 21:00:00 -6.74 C 1.74 g/m*3 -6.74 C 0 km/h
1387 01-12-2010 22:00:00 -6.86 C 1.73 g/m*3 -6.86 C 0 km/h
1388 01-12-2010 23:00:00 -7.06 C 1.77 g/m*3 -7.06 C 0 km/h
1389 02-12-2010 00:00:00 -7.14 C 1.81 g/m*3 -7.14 C 0 km/h
1390 02-12-2010 01:00:00 -7.12 C 1.79 g/m*3 -7.12 C 0 km/h
1391 02-12-2010 02:00:00 -7.28 C 1.71 g/m*3 -7.28 C 0 km/h
1392 02-12-2010 03:00:00 -7.32 C 1.74 g/m*3 -7.32 C 0 km/h
1393 02-12-2010 04:00:00 -7.5 C 1.78 g/m*3 -7.5 C 0 km/h
1394 02-12-2010 05:00:00 -7.64 C 1.79 g/m*3 -7.64 C 0 km/h
1395 02-12-2010 06:00:00 -7.76 C 1.84 g/m*3 -7.76 C 0 km/h
1396 02-12-2010 07:00:00 -7.72 C 1.89 g/m*3 -7.72 C 0 km/h
1397 02-12-2010 08:00:00 -7.7 C 1.87 g/m*3 -7.7 C 0 km/h
1398 02-12-2010 09:00:00 -7.1 C 1.96 g/m*3 -7.1 C 0 km/h
1399 02-12-2010 10:00:00 -6.14 C 1.99 g/m*3 -6.14 C 0 km/h
1400 02-12-2010 11:00:00 -5.62 C 2.03 g/m*3 -5.62 C 0 km/h
Sensor: Nr:Datum:Temp:Abs-Feuchte:Windchill:Wind:
Aussen-T/F 1401 02-12-2010 12:00:00 -6.08 C 2.05 g/m*3 -6.08 C 0 km/h
1402 02-12-2010 13:00:00 -5.3 C 2.15 g/m*3 -5.3 C 0 km/h
1403 02-12-2010 14:00:00 -5.6 C 2.16 g/m*3 -5.6 C 0 km/h
1404 02-12-2010 15:00:00 -4.74 C 2.28 g/m*3 -4.74 C 0 km/h
1405 02-12-2010 16:00:00 -5.12 C 2.3 g/m*3 -5.12 C 0 km/h
1406 02-12-2010 17:00:00 -7.36 C 2.12 g/m*3 -7.36 C 0 km/h
1407 02-12-2010 18:00:00 -8.02 C 2.2 g/m*3 -8.02 C 0 km/h
1408 02-12-2010 19:00:00 -8.42 C 2.16 g/m*3 -8.42 C 0 km/h
1409 02-12-2010 20:00:00 -8.04 C 2.25 g/m*3 -8.04 C 0 km/h
1410 02-12-2010 21:00:00 -7.54 C 2.33 g/m*3 -7.54 C 0 km/h
1411 02-12-2010 22:00:00 -8.54 C 2.13 g/m*3 -8.54 C 0 km/h
1412 02-12-2010 23:00:00 -7.96 C 2.23 g/m*3 -7.96 C 0 km/h
1413 03-12-2010 00:00:00 -9.88 C 1.86 g/m*3 -9.88 C 0 km/h
1414 03-12-2010 01:00:00 -9.66 C 1.91 g/m*3 -9.66 C 0 km/h
1415 03-12-2010 02:00:00 -9.12 C 2 g/m*3 -9.12 C 0 km/h
1416 03-12-2010 03:00:00 -8.78 C 2.04 g/m*3 -8.78 C 0 km/h
1417 03-12-2010 04:00:00 -8.06 C 2.15 g/m*3 -8.06 C 0 km/h
1418 03-12-2010 05:00:00 -8.68 C 2.03 g/m*3 -8.68 C 0 km/h
1419 03-12-2010 06:00:00 -9.48 C 1.91 g/m*3 -9.48 C 0 km/h
1420 03-12-2010 07:00:00 -8.92 C 2.03 g/m*3 -8.92 C 0 km/h
1421 03-12-2010 08:00:00 -9.92 C 1.85 g/m*3 -9.92 C 0 km/h
1422 03-12-2010 09:00:00 -9.8 C 1.85 g/m*3 -9.8 C 0 km/h
1423 03-12-2010 10:00:00 -8.1 C 2.05 g/m*3 -8.1 C 0 km/h
1424 03-12-2010 11:00:00 -6.32 C 2.23 g/m*3 -6.32 C 0 km/h
1425 03-12-2010 12:00:00 -5.16 C 2.28 g/m*3 -5.16 C 0 km/h
Sensor: Nr:Datum:Temp:Abs-Feuchte:Windchill:Wind:
Aussen-T/F 1426 03-12-2010 13:00:00 -4.74 C 2.32 g/m*3 -4.74 C 0 km/h
1427 03-12-2010 14:00:00 -4.26 C 2.38 g/m*3 -4.26 C 0 km/h
1428 03-12-2010 15:00:00 -4.68 C 2.4 g/m*3 -4.68 C 0 km/h
1429 03-12-2010 16:00:00 -6.18 C 2.37 g/m*3 -6.18 C 0 km/h
1430 03-12-2010 17:00:00 -6.98 C 2.34 g/m*3 -6.98 C 0 km/h
1431 03-12-2010 18:00:00 -7.02 C 2.36 g/m*3 -7.02 C 0 km/h
1432 03-12-2010 19:00:00 -5.74 C 2.63 g/m*3 -5.74 C 0 km/h
1433 03-12-2010 20:00:00 -5.36 C 2.64 g/m*3 -5.36 C 0 km/h
1434 03-12-2010 21:00:00 -5.72 C 2.55 g/m*3 -5.72 C 0 km/h
1435 03-12-2010 22:00:00 -6.78 C 2.39 g/m*3 -6.78 C 0 km/h
1436 03-12-2010 23:00:00 -7.92 C 2.24 g/m*3 -7.92 C 0 km/h
1437 04-12-2010 00:00:00 -8.5 C 2.17 g/m*3 -8.5 C 0 km/h
1438 04-12-2010 01:00:00 -9.1 C 2.06 g/m*3 -9.1 C 0 km/h
1439 04-12-2010 02:00:00 -9.26 C 2.02 g/m*3 -9.26 C 0 km/h
1440 04-12-2010 03:00:00 -9.94 C 1.9 g/m*3 -9.94 C 0 km/h
1441 04-12-2010 04:00:00 -7.96 C 2.24 g/m*3 -7.96 C 0 km/h
1442 04-12-2010 05:00:00 -5.52 C 2.67 g/m*3 -5.52 C 0 km/h
1443 04-12-2010 06:00:00 -4.94 C 2.59 g/m*3 -4.94 C 0 km/h
1444 04-12-2010 07:00:00 -5.14 C 2.58 g/m*3 -5.14 C 0 km/h
1445 04-12-2010 08:00:00 -3.94 C 2.67 g/m*3 -3.94 C 0 km/h
1446 04-12-2010 09:00:00 -3.1 C 2.58 g/m*3 -3.1 C 0 km/h
1447 04-12-2010 10:00:00 -2.12 C 2.68 g/m*3 -2.12 C 0 km/h
1448 04-12-2010 11:00:00 -1.38 C 2.45 g/m*3 -1.38 C 0 km/h
1449 04-12-2010 12:00:00 -0.86 C 2.46 g/m*3 -0.86 C 0 km/h
1450 04-12-2010 13:00:00 -1.4 C 2.41 g/m*3 -1.4 C 0 km/h
Sensor: Nr:Datum:Temp:Abs-Feuchte:Windchill:Wind:
Aussen-T/F 1451 04-12-2010 14:00:00 -1 C 2.47 g/m*3 -1 C 0 km/h
1452 04-12-2010 15:00:00 -0.92 C 2.52 g/m*3 -0.92 C 0 km/h
1453 04-12-2010 16:00:00 -1.22 C 2.64 g/m*3 -1.22 C 0 km/h
1454 04-12-2010 17:00:00 -1.08 C 2.76 g/m*3 -1.08 C 0 km/h
1455 04-12-2010 18:00:00 -0.9 C 2.79 g/m*3 -0.9 C 0 km/h
1456 04-12-2010 19:00:00 -0.92 C 2.79 g/m*3 -0.92 C 0 km/h
1457 04-12-2010 20:00:00 -0.96 C 2.87 g/m*3 -0.96 C 0 km/h
1458 04-12-2010 21:00:00 -1.1 C 3.13 g/m*3 -1.1 C 0 km/h
1459 04-12-2010 22:00:00 -1.18 C 3.46 g/m*3 -1.18 C 0 km/h
1460 04-12-2010 23:00:00 -1.12 C 3.51 g/m*3 -1.12 C 0 km/h
1461 05-12-2010 00:00:00 -0.5 C 3.48 g/m*3 -0.5 C 0 km/h
1462 05-12-2010 01:00:00 0.12 C 3.31 g/m*3 0.12 C 0 km/h
1463 05-12-2010 02:00:00 0.02 C 3.49 g/m*3 0.02 C 0 km/h
1464 05-12-2010 03:00:00 0.12 C 3.53 g/m*3 0.12 C 0 km/h
1465 05-12-2010 04:00:00 0.12 C 3.58 g/m*3 0.12 C 0 km/h
1466 05-12-2010 05:00:00 0.22 C 3.25 g/m*3 0.22 C 0 km/h
1467 05-12-2010 06:00:00 0.22 C 3.02 g/m*3 0.22 C 0 km/h
1468 05-12-2010 07:00:00 -0.08 C 2.91 g/m*3 -0.08 C 0 km/h
1469 05-12-2010 08:00:00 -0.32 C 2.9 g/m*3 -0.32 C 0 km/h
1470 05-12-2010 09:00:00 0.02 C 2.96 g/m*3 0.02 C 0 km/h
1471 05-12-2010 10:00:00 1.68 C 2.83 g/m*3 1.68 C 0 km/h
1472 05-12-2010 11:00:00 2.54 C 2.77 g/m*3 2.54 C 0 km/h
1473 05-12-2010 12:00:00 3.1 C 2.67 g/m*3 3.1 C 0 km/h
1474 05-12-2010 13:00:00 3.4 C 2.63 g/m*3 3.4 C 0 km/h
1475 05-12-2010 14:00:00 3.24 C 2.6 g/m*3 3.24 C 0 km/h
Sensor: Nr:Datum:Temp:Abs-Feuchte:Windchill:Wind:
Aussen-T/F 1476 05-12-2010 15:00:00 2.22 C 3.05 g/m*3 2.22 C 0 km/h
1477 05-12-2010 16:00:00 1.24 C 3.28 g/m*3 1.24 C 0 km/h
1478 05-12-2010 17:00:00 1.38 C 3.4 g/m*3 1.38 C 0 km/h
1479 05-12-2010 18:00:00 0.88 C 3.81 g/m*3 0.88 C 0 km/h
1480 05-12-2010 19:00:00 0.86 C 3.97 g/m*3 0.86 C 0 km/h
1481 05-12-2010 20:00:00 0.62 C 4.08 g/m*3 0.62 C 0 km/h
1482 05-12-2010 21:00:00 0.34 C 4.27 g/m*3 0.34 C 0 km/h
1483 05-12-2010 22:00:00 0.36 C 4.35 g/m*3 0.36 C 0 km/h
1484 05-12-2010 23:00:00 0.2 C 4.33 g/m*3 0.2 C 0 km/h
1485 06-12-2010 00:00:00 0.12 C 4.35 g/m*3 0.12 C 0 km/h
1486 06-12-2010 01:00:00 0.12 C 4.38 g/m*3 0.12 C 0 km/h
1487 06-12-2010 02:00:00 0.1 C 4.39 g/m*3 0.1 C 0 km/h
1488 06-12-2010 03:00:00 0.1 C 4.35 g/m*3 0.1 C 0 km/h
1489 06-12-2010 04:00:00 0.14 C 4.38 g/m*3 0.14 C 0 km/h
1490 06-12-2010 05:00:00 0.04 C 4.33 g/m*3 0.04 C 0 km/h
1491 06-12-2010 06:00:00 0.02 C 4.37 g/m*3 0.02 C 0 km/h
1492 06-12-2010 07:00:00 0 C 4.34 g/m*3 0 C 0 km/h
1493 06-12-2010 08:00:00 0.06 C 4.31 g/m*3 0.06 C 0 km/h
1494 06-12-2010 09:00:00 0.84 C 4.37 g/m*3 0.84 C 0 km/h
1495 06-12-2010 10:00:00 1.38 C 4.04 g/m*3 1.38 C 0 km/h
1496 06-12-2010 11:00:00 1.88 C 3.94 g/m*3 1.88 C 0 km/h
1497 06-12-2010 12:00:00 2.4 C 3.76 g/m*3 2.4 C 0 km/h
1498 06-12-2010 13:00:00 2.54 C 3.68 g/m*3 2.54 C 0 km/h
1499 06-12-2010 14:00:00 1.9 C 3.59 g/m*3 1.9 C 0 km/h
1500 06-12-2010 15:00:00 0.96 C 3.65 g/m*3 0.96 C 0 km/h
Sensor: Nr:Datum:Temp:Abs-Feuchte:Windchill:Wind:
Aussen-T/F 1501 06-12-2010 16:00:00 -0.26 C 3.69 g/m*3 -0.26 C 0 km/h
1502 06-12-2010 17:00:00 -0.68 C 3.73 g/m*3 -0.68 C 0 km/h
1503 06-12-2010 18:00:00 -0.9 C 3.76 g/m*3 -0.9 C 0 km/h
1504 06-12-2010 19:00:00 -0.84 C 3.75 g/m*3 -0.84 C 0 km/h
1505 06-12-2010 20:00:00 -1.14 C 3.67 g/m*3 -1.14 C 0 km/h
1506 06-12-2010 21:00:00 -1.275 C 3.64 g/m*3 -1.27 C 0 km/h
1507 06-12-2010 22:00:00 -1.24 C 3.68 g/m*3 -1.24 C 0 km/h
1508 06-12-2010 23:00:00 -0.68 C 3.74 g/m*3 -0.68 C 0 km/h
1509 07-12-2010 00:00:00 -1.06 C 3.6 g/m*3 -1.06 C 0 km/h
1510 07-12-2010 01:00:00 -1.16 C 3.68 g/m*3 -1.16 C 0 km/h
1511 07-12-2010 02:00:00 -0.56 C 3.77 g/m*3 -0.56 C 0 km/h
1512 07-12-2010 03:00:00 -0.56 C 3.73 g/m*3 -0.56 C 0 km/h
1513 07-12-2010 04:00:00 -0.74 C 3.7 g/m*3 -0.74 C 0 km/h
1514 07-12-2010 05:00:00 -0.94 C 3.68 g/m*3 -0.94 C 0 km/h
1515 07-12-2010 06:00:00 -0.78 C 3.68 g/m*3 -0.78 C 0 km/h
1516 07-12-2010 07:00:00 -1 C 3.57 g/m*3 -1 C 0 km/h
1517 07-12-2010 08:00:00 -0.84 C 3.6 g/m*3 -0.84 C 0 km/h
1518 07-12-2010 09:00:00 -0.4 C 3.61 g/m*3 -0.4 C 0 km/h
1519 07-12-2010 10:00:00 0.18 C 3.6 g/m*3 0.18 C 0 km/h
1520 07-12-2010 11:00:00 0.56 C 3.61 g/m*3 0.56 C 0 km/h
1521 07-12-2010 12:00:00 1.12 C 3.63 g/m*3 1.12 C 0 km/h
1522 07-12-2010 13:00:00 1.44 C 3.61 g/m*3 1.44 C 0 km/h
1523 07-12-2010 14:00:00 1.06 C 3.67 g/m*3 1.06 C 0 km/h
1524 07-12-2010 15:00:00 0.4 C 3.81 g/m*3 0.4 C 0 km/h
1525 07-12-2010 16:00:00 -0.22 C 4.06 g/m*3 -0.22 C 0 km/h
Sensor: Nr:Datum:Temp:Abs-Feuchte:Windchill:Wind:
Aussen-T/F 1526 07-12-2010 17:00:00 -0.3 C 4.2 g/m*3 -0.3 C 0 km/h
1527 07-12-2010 18:00:00 -0.26 C 4.26 g/m*3 -0.26 C 0 km/h
1528 07-12-2010 19:00:00 -0.2 C 4.31 g/m*3 -0.2 C 0 km/h
1529 07-12-2010 20:00:00 -0.16 C 4.36 g/m*3 -0.16 C 0 km/h
1530 07-12-2010 21:00:00 -0.2 C 4.36 g/m*3 -0.2 C 0 km/h
1531 07-12-2010 22:00:00 -0.18 C 4.4 g/m*3 -0.18 C 0 km/h
1532 07-12-2010 23:00:00 -0.2 C 4.4 g/m*3 -0.2 C 0 km/h
1533 08-12-2010 00:00:00 -0.2 C 4.4 g/m*3 -0.2 C 0 km/h
1534 08-12-2010 01:00:00 -0.2 C 4.4 g/m*3 -0.2 C 0 km/h
1535 08-12-2010 02:00:00 -0.16 C 4.41 g/m*3 -0.16 C 0 km/h
1536 08-12-2010 03:00:00 -0.18 C 4.4 g/m*3 -0.18 C 0 km/h
1537 08-12-2010 04:00:00 -0.08 C 4.43 g/m*3 -0.08 C 0 km/h
1538 08-12-2010 05:00:00 -0.08 C 4.46 g/m*3 -0.08 C 0 km/h
1539 08-12-2010 06:00:00 -0.06 C 4.49 g/m*3 -0.06 C 0 km/h
1540 08-12-2010 07:00:00 -0.02 C 4.5 g/m*3 -0.02 C 0 km/h
1541 08-12-2010 08:00:00 0 C 4.51 g/m*3 0 C 0 km/h
1542 08-12-2010 09:00:00 0.08 C 4.53 g/m*3 0.08 C 0 km/h
1543 08-12-2010 10:00:00 0.18 C 4.56 g/m*3 0.18 C 0 km/h
1544 08-12-2010 11:00:00 0.34 C 4.63 g/m*3 0.34 C 0 km/h
1545 08-12-2010 12:00:00 0.56 C 4.67 g/m*3 0.56 C 0 km/h
1546 08-12-2010 13:00:00 0.62 C 4.58 g/m*3 0.62 C 0 km/h
1547 08-12-2010 14:00:00 0.42 C 4.44 g/m*3 0.42 C 0 km/h
1548 08-12-2010 15:00:00 -0.08 C 4.29 g/m*3 -0.08 C 0 km/h
1549 08-12-2010 16:00:00 -0.3 C 4.26 g/m*3 -0.3 C 0 km/h
1550 08-12-2010 17:00:00 -0.36 C 4.24 g/m*3 -0.36 C 0 km/h
Sensor: Nr:Datum:Temp:Abs-Feuchte:Windchill:Wind:
Aussen-T/F 1551 08-12-2010 18:00:00 -0.74 C 4.1 g/m*3 -0.74 C 0 km/h
1552 08-12-2010 19:00:00 -0.92 C 4.05 g/m*3 -0.92 C 0 km/h
1553 08-12-2010 20:00:00 -1.06 C 4.02 g/m*3 -1.06 C 0 km/h
1554 08-12-2010 21:00:00 -1.24 C 3.94 g/m*3 -1.24 C 0 km/h
1555 08-12-2010 22:00:00 -1.44 C 3.82 g/m*3 -1.44 C 0 km/h
1556 08-12-2010 23:00:00 -1.3 C 3.74 g/m*3 -1.3 C 0 km/h
1557 09-12-2010 00:00:00 -1.32 C 3.64 g/m*3 -1.32 C 0 km/h
1558 09-12-2010 01:00:00 -1.52 C 3.56 g/m*3 -1.52 C 0 km/h
1559 09-12-2010 02:00:00 -1.74 C 3.55 g/m*3 -1.74 C 0 km/h
1560 09-12-2010 03:00:00 -1.7 C 3.69 g/m*3 -1.7 C 0 km/h
1561 09-12-2010 04:00:00 -1.62 C 3.72 g/m*3 -1.62 C 0 km/h
1562 09-12-2010 05:00:00 -1.04 C 3.84 g/m*3 -1.04 C 0 km/h
1563 09-12-2010 06:00:00 -0.42 C 3.9 g/m*3 -0.42 C 0 km/h
1564 09-12-2010 07:00:00 -0.28 C 3.95 g/m*3 -0.28 C 0 km/h
1565 09-12-2010 08:00:00 -0.38 C 3.91 g/m*3 -0.38 C 0 km/h
1566 09-12-2010 09:00:00 -0.08 C 3.93 g/m*3 -0.08 C 0 km/h
1567 09-12-2010 10:00:00 0.32 C 4 g/m*3 0.32 C 0 km/h
1568 09-12-2010 11:00:00 0.8 C 4.06 g/m*3 0.8 C 0 km/h
1569 09-12-2010 12:00:00 2.18 C 4.07 g/m*3 2.18 C 0 km/h
1570 09-12-2010 13:00:00 1.74 C 4.11 g/m*3 1.74 C 0 km/h
1571 09-12-2010 14:00:00 2.12 C 3.92 g/m*3 2.12 C 0 km/h
1572 09-12-2010 15:00:00 1.84 C 3.75 g/m*3 1.84 C 0 km/h
1573 09-12-2010 16:00:00 1.52 C 3.66 g/m*3 1.52 C 0 km/h
1574 09-12-2010 17:00:00 1.5 C 3.89 g/m*3 1.5 C 0 km/h
1575 09-12-2010 18:00:00 1.68 C 4.03 g/m*3 1.68 C 0 km/h
Sensor: Nr:Datum:Temp:Abs-Feuchte:Windchill:Wind:
Aussen-T/F 1576 09-12-2010 19:00:00 2.16 C 3.9 g/m*3 2.16 C 0 km/h
1577 09-12-2010 20:00:00 2.44 C 4 g/m*3 2.44 C 0 km/h
1578 09-12-2010 21:00:00 2.58 C 4.06 g/m*3 2.58 C 0 km/h
1579 09-12-2010 22:00:00 2.44 C 4.16 g/m*3 2.44 C 0 km/h
1580 09-12-2010 23:00:00 1.5 C 4.43 g/m*3 1.5 C 0 km/h
1581 10-12-2010 00:00:00 1.9 C 4.42 g/m*3 1.9 C 0 km/h
1582 10-12-2010 01:00:00 2.04 C 4.36 g/m*3 2.04 C 0 km/h
1583 10-12-2010 02:00:00 1.7 C 4.26 g/m*3 1.7 C 0 km/h
1584 10-12-2010 03:00:00 1.24 C 4.52 g/m*3 1.24 C 0 km/h
1585 10-12-2010 04:00:00 1.7 C 4.79 g/m*3 1.7 C 0 km/h
1586 10-12-2010 05:00:00 2.52 C 4.87 g/m*3 2.52 C 0 km/h
1587 10-12-2010 06:00:00 1.84 C 4.73 g/m*3 1.84 C 0 km/h
1588 10-12-2010 07:00:00 0.76 C 4.53 g/m*3 0.76 C 0 km/h
1589 10-12-2010 08:00:00 -0.32 C 4.28 g/m*3 -0.32 C 0 km/h
1590 10-12-2010 09:00:00 -0.4 C 4.3 g/m*3 -0.4 C 0 km/h
1591 10-12-2010 10:00:00 0.06 C 4.45 g/m*3 0.06 C 0 km/h
1592 10-12-2010 11:00:00 1.38 C 4.82 g/m*3 1.38 C 0 km/h
1593 10-12-2010 12:00:00 2.24 C 4.95 g/m*3 2.24 C 0 km/h
1594 10-12-2010 13:00:00 2.96 C 4.9 g/m*3 2.96 C 0 km/h
1595 10-12-2010 14:00:00 2.82 C 4.65 g/m*3 2.82 C 0 km/h
1596 10-12-2010 15:00:00 1.78 C 4.64 g/m*3 1.78 C 0 km/h
1597 10-12-2010 16:00:00 1.54 C 4.8 g/m*3 1.54 C 0 km/h
1598 10-12-2010 17:00:00 1.84 C 4.95 g/m*3 1.84 C 0 km/h
1599 10-12-2010 18:00:00 1.86 C 4.93 g/m*3 1.86 C 0 km/h
1600 10-12-2010 19:00:00 2.28 C 4.97 g/m*3 2.28 C 0 km/h
Sensor: Nr:Datum:Temp:Abs-Feuchte:Windchill:Wind:
Aussen-T/F 1601 10-12-2010 20:00:00 2.6 C 4.93 g/m*3 2.6 C 0 km/h
1602 10-12-2010 21:00:00 2.5 C 4.85 g/m*3 2.5 C 0 km/h
1603 10-12-2010 22:00:00 2.52 C 4.87 g/m*3 2.52 C 0 km/h
1604 10-12-2010 23:00:00 2.24 C 4.86 g/m*3 2.24 C 0 km/h
1605 11-12-2010 00:00:00 2.18 C 4.97 g/m*3 2.18 C 0 km/h
1606 11-12-2010 01:00:00 2.46 C 5.08 g/m*3 2.46 C 0 km/h
1607 11-12-2010 02:00:00 2.72 C 5.13 g/m*3 2.72 C 0 km/h
1608 11-12-2010 03:00:00 2.54 C 5.1 g/m*3 2.54 C 0 km/h
1609 11-12-2010 04:00:00 3.26 C 5.24 g/m*3 3.26 C 0 km/h
1610 11-12-2010 05:00:00 3.86 C 5.19 g/m*3 3.86 C 0 km/h
1611 11-12-2010 06:00:00 3.36 C 5.15 g/m*3 3.36 C 0 km/h
1612 11-12-2010 07:00:00 4.14 C 5.21 g/m*3 4.14 C 0 km/h
1613 11-12-2010 08:00:00 4.86 C 5.01 g/m*3 4.86 C 0 km/h
1614 11-12-2010 09:00:00 4.16 C 5.04 g/m*3 4.16 C 0 km/h
1615 11-12-2010 10:00:00 3.9 C 5.38 g/m*3 3.9 C 0 km/h
1616 11-12-2010 11:00:00 4.3 C 5.37 g/m*3 4.3 C 0 km/h
1617 11-12-2010 12:00:00 4.54 C 5.56 g/m*3 4.54 C 0 km/h
1618 11-12-2010 13:00:00 4.86 C 5.39 g/m*3 4.86 C 0 km/h
1619 11-12-2010 14:00:00 4.9 C 5.31 g/m*3 4.9 C 0 km/h
1620 11-12-2010 15:00:00 5.06 C 5.18 g/m*3 5.06 C 0 km/h
1621 11-12-2010 16:00:00 4.9 C 5.24 g/m*3 4.9 C 0 km/h
1622 11-12-2010 17:00:00 5.16 C 5.22 g/m*3 5.16 C 0 km/h
1623 11-12-2010 18:00:00 4.22 C 5.21 g/m*3 4.22 C 0 km/h
1624 11-12-2010 19:00:00 4.26 C 5.2 g/m*3 4.26 C 0 km/h
1625 11-12-2010 20:00:00 4.82 C 5.01 g/m*3 4.82 C 0 km/h
Sensor: Nr:Datum:Temp:Abs-Feuchte:Windchill:Wind:
Aussen-T/F 1626 11-12-2010 21:00:00 4.4 C 5.04 g/m*3 4.4 C 0 km/h
1627 11-12-2010 22:00:00 4.3 C 5.03 g/m*3 4.3 C 0 km/h
1628 11-12-2010 23:00:00 4.66 C 4.89 g/m*3 4.66 C 0 km/h
1629 12-12-2010 00:00:00 4.26 C 4.97 g/m*3 4.26 C 0 km/h
1630 12-12-2010 01:00:00 4.84 C 4.84 g/m*3 4.84 C 0 km/h
1631 12-12-2010 02:00:00 4.82 C 4.58 g/m*3 4.82 C 0 km/h
1632 12-12-2010 03:00:00 4.2 C 4.66 g/m*3 4.2 C 0 km/h
1633 12-12-2010 04:00:00 3.68 C 5.18 g/m*3 3.68 C 0 km/h
1634 12-12-2010 05:00:00 3.44 C 5.11 g/m*3 3.44 C 0 km/h
1635 12-12-2010 06:00:00 3.04 C 5.07 g/m*3 3.04 C 0 km/h
1636 12-12-2010 07:00:00 3.86 C 4.93 g/m*3 3.86 C 0 km/h
1637 12-12-2010 08:00:00 3.62 C 4.87 g/m*3 3.62 C 0 km/h
1638 12-12-2010 09:00:00 3.7 C 4.96 g/m*3 3.7 C 0 km/h
1639 12-12-2010 10:00:00 3.86 C 5.03 g/m*3 3.86 C 0 km/h
1640 12-12-2010 11:00:00 4.12 C 5.14 g/m*3 4.12 C 0 km/h
1641 12-12-2010 12:00:00 4.5 C 5.34 g/m*3 4.5 C 0 km/h
1642 12-12-2010 13:00:00 4.82 C 5.17 g/m*3 4.82 C 0 km/h
1643 12-12-2010 14:00:00 3.46 C 4.95 g/m*3 3.46 C 0 km/h
1644 12-12-2010 15:00:00 3.1 C 5.21 g/m*3 3.1 C 0 km/h
1645 12-12-2010 16:00:00 2.7 C 5.12 g/m*3 2.7 C 0 km/h
1646 12-12-2010 17:00:00 2.48 C 4.62 g/m*3 2.48 C 0 km/h
1647 12-12-2010 18:00:00 1.86 C 4.15 g/m*3 1.86 C 0 km/h
1648 12-12-2010 19:00:00 1.38 C 3.91 g/m*3 1.38 C 0 km/h
1649 12-12-2010 20:00:00 1.18 C 3.56 g/m*3 1.18 C 0 km/h
1650 12-12-2010 21:00:00 0.76 C 3.35 g/m*3 0.76 C 0 km/h
Sensor: Nr:Datum:Temp:Abs-Feuchte:Windchill:Wind:
Aussen-T/F 1651 12-12-2010 22:00:00 0.4 C 3.18 g/m*3 0.4 C 0 km/h
1652 12-12-2010 23:00:00 -0.04 C 2.73 g/m*3 -0.04 C 0 km/h
1653 13-12-2010 00:00:00 -0.52 C 2.5 g/m*3 -0.52 C 0 km/h
1654 13-12-2010 01:00:00 -0.84 C 2.45 g/m*3 -0.84 C 0 km/h
1655 13-12-2010 02:00:00 -2.28 C 2.3 g/m*3 -2.28 C 0 km/h
1656 13-12-2010 03:00:00 -3.5 C 2.27 g/m*3 -3.5 C 0 km/h
1657 13-12-2010 04:00:00 -4.2 C 2.29 g/m*3 -4.2 C 0 km/h
1658 13-12-2010 05:00:00 -5.8 C 2.22 g/m*3 -5.8 C 0 km/h
1659 13-12-2010 06:00:00 -6.94 C 2.21 g/m*3 -6.94 C 0 km/h
1660 13-12-2010 07:00:00 -7.2 C 2.22 g/m*3 -7.2 C 0 km/h
1661 13-12-2010 08:00:00 -7.18 C 2.27 g/m*3 -7.18 C 0 km/h
1662 13-12-2010 09:00:00 -7.12 C 2.29 g/m*3 -7.12 C 0 km/h
1663 13-12-2010 10:00:00 -6.62 C 2.4 g/m*3 -6.62 C 0 km/h
1664 13-12-2010 11:00:00 -4 C 2.63 g/m*3 -4 C 0 km/h
1665 13-12-2010 12:00:00 -2.78 C 2.52 g/m*3 -2.78 C 0 km/h
1666 13-12-2010 13:00:00 -2.32 C 2.5 g/m*3 -2.32 C 0 km/h
1667 13-12-2010 14:00:00 -2.2 C 2.39 g/m*3 -2.2 C 0 km/h
1668 13-12-2010 15:00:00 -3.66 C 2.47 g/m*3 -3.66 C 0 km/h
1669 13-12-2010 16:00:00 -4.98 C 2.58 g/m*3 -4.98 C 0 km/h
1670 13-12-2010 17:00:00 -5.88 C 2.5 g/m*3 -5.88 C 0 km/h
1671 13-12-2010 18:00:00 -6.2 C 2.48 g/m*3 -6.2 C 0 km/h
1672 13-12-2010 19:00:00 -5.44 C 2.72 g/m*3 -5.44 C 0 km/h
1673 13-12-2010 20:00:00 -4.86 C 2.8 g/m*3 -4.86 C 0 km/h
1674 13-12-2010 21:00:00 -4.22 C 2.82 g/m*3 -4.22 C 0 km/h
1675 13-12-2010 22:00:00 -3.92 C 2.86 g/m*3 -3.92 C 0 km/h
Sensor: Nr:Datum:Temp:Abs-Feuchte:Windchill:Wind:
Aussen-T/F 1676 13-12-2010 23:00:00 -4.1 C 3 g/m*3 -4.1 C 0 km/h
1677 14-12-2010 00:00:00 -4.1 C 3.02 g/m*3 -4.1 C 0 km/h
1678 14-12-2010 01:00:00 -4.06 C 3.03 g/m*3 -4.06 C 0 km/h
1679 14-12-2010 02:00:00 -3.84 C 3.07 g/m*3 -3.84 C 0 km/h
1680 14-12-2010 03:00:00 -3.66 C 3.11 g/m*3 -3.66 C 0 km/h
1681 14-12-2010 04:00:00 -3.62 C 3.09 g/m*3 -3.62 C 0 km/h
1682 14-12-2010 05:00:00 -3.8 C 3.04 g/m*3 -3.8 C 0 km/h
1683 14-12-2010 06:00:00 -4.7 C 2.87 g/m*3 -4.7 C 0 km/h
1684 14-12-2010 07:00:00 -6.22 C 2.59 g/m*3 -6.22 C 0 km/h
1685 14-12-2010 08:00:00 -6.38 C 2.62 g/m*3 -6.38 C 0 km/h
1686 14-12-2010 09:00:00 -6 C 2.69 g/m*3 -6 C 0 km/h
1687 14-12-2010 10:00:00 -4.06 C 3 g/m*3 -4.06 C 0 km/h
1688 14-12-2010 11:00:00 -3.24 C 2.75 g/m*3 -3.24 C 0 km/h
1689 14-12-2010 12:00:00 -2.42 C 2.66 g/m*3 -2.42 C 0 km/h
1690 14-12-2010 13:00:00 -2.2 C 2.64 g/m*3 -2.2 C 0 km/h
1691 14-12-2010 14:00:00 -2.44 C 2.66 g/m*3 -2.44 C 0 km/h
1692 14-12-2010 15:00:00 -2.76 C 2.7 g/m*3 -2.76 C 0 km/h
1693 14-12-2010 16:00:00 -2.9 C 2.8 g/m*3 -2.9 C 0 km/h
1694 14-12-2010 17:00:00 -2.98 C 2.91 g/m*3 -2.98 C 0 km/h
1695 14-12-2010 18:00:00 -3.06 C 2.78 g/m*3 -3.06 C 0 km/h
1696 14-12-2010 19:00:00 -2.82 C 2.84 g/m*3 -2.82 C 0 km/h
1697 14-12-2010 20:00:00 -3.04 C 2.74 g/m*3 -3.04 C 0 km/h
1698 14-12-2010 21:00:00 -3.12 C 2.64 g/m*3 -3.12 C 0 km/h
1699 14-12-2010 22:00:00 -3.16 C 2.58 g/m*3 -3.16 C 0 km/h
1700 14-12-2010 23:00:00 -3.22 C 2.51 g/m*3 -3.22 C 0 km/h
Sensor: Nr:Datum:Temp:Abs-Feuchte:Windchill:Wind:
Aussen-T/F 1701 15-12-2010 00:00:00 -3.3 C 2.5 g/m*3 -3.3 C 0 km/h
1702 15-12-2010 01:00:00 -3.26 C 2.57 g/m*3 -3.26 C 0 km/h
1703 15-12-2010 02:00:00 -4.16 C 2.54 g/m*3 -4.16 C 0 km/h
1704 15-12-2010 03:00:00 -4.9 C 2.5 g/m*3 -4.9 C 0 km/h
1705 15-12-2010 04:00:00 -4.86 C 2.54 g/m*3 -4.86 C 0 km/h
1706 15-12-2010 05:00:00 -4.72 C 2.63 g/m*3 -4.72 C 0 km/h
1707 15-12-2010 06:00:00 -3.78 C 2.71 g/m*3 -3.78 C 0 km/h
1708 15-12-2010 07:00:00 -3.42 C 2.81 g/m*3 -3.42 C 0 km/h
1709 15-12-2010 08:00:00 -3.3 C 2.88 g/m*3 -3.3 C 0 km/h
1710 15-12-2010 09:00:00 -2.56 C 3.02 g/m*3 -2.56 C 0 km/h
1711 15-12-2010 10:00:00 -1.76 C 3.22 g/m*3 -1.76 C 0 km/h
1712 15-12-2010 11:00:00 -0.68 C 3.51 g/m*3 -0.68 C 0 km/h
1713 15-12-2010 12:00:00 -0.48 C 3.47 g/m*3 -0.48 C 0 km/h
1714 15-12-2010 13:00:00 -0.38 C 3.56 g/m*3 -0.38 C 0 km/h
1715 15-12-2010 14:00:00 -0.12 C 3.36 g/m*3 -0.12 C 0 km/h
1716 15-12-2010 15:00:00 -1.44 C 2.8 g/m*3 -1.44 C 0 km/h
1717 15-12-2010 16:00:00 -3.2 C 2.7 g/m*3 -3.2 C 0 km/h
1718 15-12-2010 17:00:00 -4.34 C 2.74 g/m*3 -4.34 C 0 km/h
1719 15-12-2010 18:00:00 -4.86 C 2.77 g/m*3 -4.86 C 0 km/h
1720 15-12-2010 19:00:00 -4.42 C 2.86 g/m*3 -4.42 C 0 km/h
1721 15-12-2010 20:00:00 -3.62 C 2.83 g/m*3 -3.62 C 0 km/h
1722 15-12-2010 21:00:00 -3.18 C 2.77 g/m*3 -3.18 C 0 km/h
1723 15-12-2010 22:00:00 -3.78 C 2.76 g/m*3 -3.78 C 0 km/h
1724 15-12-2010 23:00:00 -4.54 C 2.76 g/m*3 -4.54 C 0 km/h
1725 16-12-2010 00:00:00 -4.68 C 2.85 g/m*3 -4.68 C 0 km/h
Sensor: Nr:Datum:Temp:Abs-Feuchte:Windchill:Wind:
Aussen-T/F 1726 16-12-2010 01:00:00 -4.84 C 2.87 g/m*3 -4.84 C 0 km/h
1727 16-12-2010 02:00:00 -5.3 C 2.73 g/m*3 -5.3 C 0 km/h
1728 16-12-2010 03:00:00 -5.36 C 2.75 g/m*3 -5.36 C 0 km/h
1729 16-12-2010 04:00:00 -5.58 C 2.66 g/m*3 -5.58 C 0 km/h
1730 16-12-2010 05:00:00 -6.4 C 2.41 g/m*3 -6.4 C 0 km/h
1731 16-12-2010 06:00:00 -7.54 C 2.25 g/m*3 -7.54 C 0 km/h
1732 16-12-2010 07:00:00 -8.28 C 2.11 g/m*3 -8.28 C 0 km/h
1733 16-12-2010 08:00:00 -7.86 C 2.18 g/m*3 -7.86 C 0 km/h
1734 16-12-2010 09:00:00 -6.6 C 2.26 g/m*3 -6.6 C 0 km/h
1735 16-12-2010 10:00:00 -4.84 C 2.47 g/m*3 -4.84 C 0 km/h
1736 16-12-2010 11:00:00 -3.42 C 2.65 g/m*3 -3.42 C 0 km/h
1737 16-12-2010 12:00:00 -2.84 C 2.8 g/m*3 -2.84 C 0 km/h
1738 16-12-2010 13:00:00 -2.12 C 2.99 g/m*3 -2.12 C 0 km/h
1739 16-12-2010 14:00:00 -1.72 C 3.2 g/m*3 -1.72 C 0 km/h
1740 16-12-2010 15:00:00 -1.4 C 3.45 g/m*3 -1.4 C 0 km/h
1741 16-12-2010 16:00:00 -1.3 C 3.43 g/m*3 -1.3 C 0 km/h
1742 16-12-2010 17:00:00 -1.26 C 3.47 g/m*3 -1.26 C 0 km/h
1743 16-12-2010 18:00:00 -0.7 C 3.61 g/m*3 -0.7 C 0 km/h
1744 16-12-2010 19:00:00 -0.28 C 3.67 g/m*3 -0.28 C 0 km/h
1745 16-12-2010 20:00:00 0.02 C 3.69 g/m*3 0.02 C 0 km/h
1746 16-12-2010 21:00:00 -0.12 C 3.79 g/m*3 -0.12 C 0 km/h
1747 16-12-2010 22:00:00 -0.34 C 3.88 g/m*3 -0.34 C 0 km/h
1748 16-12-2010 23:00:00 -0.46 C 3.84 g/m*3 -0.46 C 0 km/h
1749 17-12-2010 00:00:00 -0.28 C 3.85 g/m*3 -0.28 C 0 km/h
1750 17-12-2010 01:00:00 -0.34 C 3.88 g/m*3 -0.34 C 0 km/h
Sensor: Nr:Datum:Temp:Abs-Feuchte:Windchill:Wind:
Aussen-T/F 1751 17-12-2010 02:00:00 -0.58 C 3.62 g/m*3 -0.58 C 0 km/h
1752 17-12-2010 03:00:00 -1.2 C 3.36 g/m*3 -1.2 C 0 km/h
1753 17-12-2010 04:00:00 -1.28 C 3.16 g/m*3 -1.28 C 0 km/h
1754 17-12-2010 05:00:00 -1.62 C 3.26 g/m*3 -1.62 C 0 km/h
1755 17-12-2010 06:00:00 -2.24 C 2.97 g/m*3 -2.24 C 0 km/h
1756 17-12-2010 07:00:00 -2.28 C 2.65 g/m*3 -2.28 C 0 km/h
1757 17-12-2010 08:00:00 -2.22 C 3 g/m*3 -2.22 C 0 km/h
1758 17-12-2010 09:00:00 -1.92 C 3.01 g/m*3 -1.92 C 0 km/h
1759 17-12-2010 10:00:00 -1.66 C 2.95 g/m*3 -1.66 C 0 km/h
1760 17-12-2010 11:00:00 -1.2 C 2.74 g/m*3 -1.2 C 0 km/h
1761 17-12-2010 12:00:00 -1.14 C 2.52 g/m*3 -1.14 C 0 km/h
1762 17-12-2010 13:00:00 -1.22 C 2.43 g/m*3 -1.22 C 0 km/h
1763 17-12-2010 14:00:00 -1.4 C 2.66 g/m*3 -1.4 C 0 km/h
1764 17-12-2010 15:00:00 -1.82 C 2.98 g/m*3 -1.82 C 0 km/h
1765 17-12-2010 16:00:00 -2.08 C 3 g/m*3 -2.08 C 0 km/h
1766 17-12-2010 17:00:00 -4.06 C 2.8 g/m*3 -4.06 C 0 km/h
1767 17-12-2010 18:00:00 -5.22 C 2.69 g/m*3 -5.22 C 0 km/h
1768 17-12-2010 19:00:00 -6.48 C 2.51 g/m*3 -6.48 C 0 km/h
1769 17-12-2010 20:00:00 -6.58 C 2.52 g/m*3 -6.58 C 0 km/h
1770 17-12-2010 21:00:00 -6.94 C 2.44 g/m*3 -6.94 C 0 km/h
1771 17-12-2010 22:00:00 -6.92 C 2.44 g/m*3 -6.92 C 0 km/h
1772 17-12-2010 23:00:00 -5.9 C 2.66 g/m*3 -5.9 C 0 km/h
1773 18-12-2010 00:00:00 -4.74 C 2.93 g/m*3 -4.74 C 0 km/h
1774 18-12-2010 01:00:00 -4.44 C 2.9 g/m*3 -4.44 C 0 km/h
1775 18-12-2010 02:00:00 -5.28 C 2.7 g/m*3 -5.28 C 0 km/h
Sensor: Nr:Datum:Temp:Abs-Feuchte:Windchill:Wind:
Aussen-T/F 1776 18-12-2010 03:00:00 -4.36 C 2.87 g/m*3 -4.36 C 0 km/h
1777 18-12-2010 04:00:00 -4.36 C 2.94 g/m*3 -4.36 C 0 km/h
1778 18-12-2010 05:00:00 -4.44 C 2.98 g/m*3 -4.44 C 0 km/h
1779 18-12-2010 06:00:00 -4.34 C 3.01 g/m*3 -4.34 C 0 km/h
1780 18-12-2010 07:00:00 -5.26 C 2.81 g/m*3 -5.26 C 0 km/h
1781 18-12-2010 08:00:00 -5.34 C 2.8 g/m*3 -5.34 C 0 km/h
1782 18-12-2010 09:00:00 -4.84 C 2.73 g/m*3 -4.84 C 0 km/h
1783 18-12-2010 10:00:00 -3.82 C 2.68 g/m*3 -3.82 C 0 km/h
1784 18-12-2010 11:00:00 -3.48 C 2.59 g/m*3 -3.48 C 0 km/h
1785 18-12-2010 12:00:00 -3.28 C 2.46 g/m*3 -3.28 C 0 km/h
1786 18-12-2010 13:00:00 -2.96 C 2.36 g/m*3 -2.96 C 0 km/h
1787 18-12-2010 14:00:00 -3.84 C 2.29 g/m*3 -3.84 C 0 km/h
1788 18-12-2010 15:00:00 -5.48 C 2.31 g/m*3 -5.48 C 0 km/h
1789 18-12-2010 16:00:00 -7.06 C 2.27 g/m*3 -7.06 C 0 km/h
1790 18-12-2010 17:00:00 -7.56 C 2.29 g/m*3 -7.56 C 0 km/h
1791 18-12-2010 18:00:00 -6.74 C 2.48 g/m*3 -6.74 C 0 km/h
1792 18-12-2010 19:00:00 -5.34 C 2.79 g/m*3 -5.34 C 0 km/h
1793 18-12-2010 20:00:00 -4.36 C 2.97 g/m*3 -4.36 C 0 km/h
1794 18-12-2010 21:00:00 -3.98 C 3.05 g/m*3 -3.98 C 0 km/h
1795 18-12-2010 22:00:00 -3.42 C 3.2 g/m*3 -3.42 C 0 km/h
1796 18-12-2010 23:00:00 -3.08 C 3.28 g/m*3 -3.08 C 0 km/h
1797 19-12-2010 00:00:00 -2.56 C 3.41 g/m*3 -2.56 C 0 km/h
1798 19-12-2010 01:00:00 -2.44 C 3.53 g/m*3 -2.44 C 0 km/h
1799 19-12-2010 02:00:00 -2.5 C 3.54 g/m*3 -2.5 C 0 km/h
1800 19-12-2010 03:00:00 -2.7 C 3.49 g/m*3 -2.7 C 0 km/h
Sensor: Nr:Datum:Temp:Abs-Feuchte:Windchill:Wind:
Aussen-T/F 1801 19-12-2010 04:00:00 -2.46 C 3.55 g/m*3 -2.46 C 0 km/h
1802 19-12-2010 05:00:00 -1.02 C 3.67 g/m*3 -1.02 C 0 km/h
1803 19-12-2010 06:00:00 -1.64 C 3.24 g/m*3 -1.64 C 0 km/h
1804 19-12-2010 07:00:00 -2.58 C 3.19 g/m*3 -2.58 C 0 km/h
1805 19-12-2010 08:00:00 -2.5 C 3.2 g/m*3 -2.5 C 0 km/h
1806 19-12-2010 09:00:00 -2.04 C 3.37 g/m*3 -2.04 C 0 km/h
1807 19-12-2010 10:00:00 -0.94 C 3.41 g/m*3 -0.94 C 0 km/h
1808 19-12-2010 11:00:00 -0.38 C 3.56 g/m*3 -0.38 C 0 km/h
1809 19-12-2010 12:00:00 0.3 C 3.6 g/m*3 0.3 C 0 km/h
1810 19-12-2010 13:00:00 0.14 C 3.71 g/m*3 0.14 C 0 km/h
1811 19-12-2010 14:00:00 -0.18 C 3.94 g/m*3 -0.18 C 0 km/h
1812 19-12-2010 15:00:00 -0.4 C 4.08 g/m*3 -0.4 C 0 km/h
1813 19-12-2010 16:00:00 -0.3 C 4.23 g/m*3 -0.3 C 0 km/h
1814 19-12-2010 17:00:00 -0.2 C 4.33 g/m*3 -0.2 C 0 km/h
1815 19-12-2010 18:00:00 -0.18 C 4.36 g/m*3 -0.18 C 0 km/h
1816 19-12-2010 19:00:00 -0.04 C 4.45 g/m*3 -0.04 C 0 km/h
1817 19-12-2010 20:00:00 0.08 C 4.49 g/m*3 0.08 C 0 km/h
1818 19-12-2010 21:00:00 1.1 C 4.84 g/m*3 1.1 C 0 km/h
1819 19-12-2010 22:00:00 1.92 C 5.06 g/m*3 1.92 C 0 km/h
1820 19-12-2010 23:00:00 4.42 C 5.05 g/m*3 4.42 C 0 km/h
1821 20-12-2010 00:00:00 4.02 C 4.62 g/m*3 4.02 C 0 km/h
1822 20-12-2010 01:00:00 1.68 C 4.43 g/m*3 1.68 C 0 km/h
1823 20-12-2010 02:00:00 0.42 C 3.7 g/m*3 0.42 C 0 km/h
1824 20-12-2010 03:00:00 -0.08 C 3.63 g/m*3 -0.08 C 0 km/h
1825 20-12-2010 04:00:00 -0.44 C 3.67 g/m*3 -0.44 C 0 km/h
Sensor: Nr:Datum:Temp:Abs-Feuchte:Windchill:Wind:
Aussen-T/F 1826 20-12-2010 05:00:00 -1.02 C 3.56 g/m*3 -1.02 C 0 km/h
1827 20-12-2010 06:00:00 -1.66 C 3.46 g/m*3 -1.66 C 0 km/h
1828 20-12-2010 07:00:00 -2.6 C 3.38 g/m*3 -2.6 C 0 km/h
1829 20-12-2010 08:00:00 -2.42 C 3.54 g/m*3 -2.42 C 0 km/h
1830 20-12-2010 09:00:00 -1.8 C 3.59 g/m*3 -1.8 C 0 km/h
1831 20-12-2010 10:00:00 -1.22 C 3.33 g/m*3 -1.22 C 0 km/h
1832 20-12-2010 11:00:00 -0.8 C 3.28 g/m*3 -0.8 C 0 km/h
1833 20-12-2010 12:00:00 -1.06 C 3.27 g/m*3 -1.06 C 0 km/h
1834 20-12-2010 13:00:00 -0.92 C 3.28 g/m*3 -0.92 C 0 km/h
1835 20-12-2010 14:00:00 -0.98 C 3.26 g/m*3 -0.98 C 0 km/h
1836 20-12-2010 15:00:00 -1.08 C 3.26 g/m*3 -1.08 C 0 km/h
1837 20-12-2010 16:00:00 -3.04 C 3.05 g/m*3 -3.04 C 0 km/h
1838 20-12-2010 17:00:00 -3.52 C 3.23 g/m*3 -3.52 C 0 km/h
1839 20-12-2010 18:00:00 -3.04 C 3.42 g/m*3 -3.04 C 0 km/h
1840 20-12-2010 19:00:00 -3 C 3.45 g/m*3 -3 C 0 km/h
1841 20-12-2010 20:00:00 -2.92 C 3.48 g/m*3 -2.92 C 0 km/h
1842 20-12-2010 21:00:00 -3.64 C 3.26 g/m*3 -3.64 C 0 km/h
1843 20-12-2010 22:00:00 -4.3 C 3.11 g/m*3 -4.3 C 0 km/h
1844 20-12-2010 23:00:00 -3.46 C 3.37 g/m*3 -3.46 C 0 km/h
1845 21-12-2010 00:00:00 -3.62 C 3.33 g/m*3 -3.62 C 0 km/h
1846 21-12-2010 01:00:00 -2.88 C 3.53 g/m*3 -2.88 C 0 km/h
1847 21-12-2010 02:00:00 -2.6 C 3.6 g/m*3 -2.6 C 0 km/h
1848 21-12-2010 03:00:00 -2.54 C 3.57 g/m*3 -2.54 C 0 km/h
1849 21-12-2010 04:00:00 -2.14 C 3.67 g/m*3 -2.14 C 0 km/h
1850 21-12-2010 05:00:00 -1.88 C 3.76 g/m*3 -1.88 C 0 km/h
Sensor: Nr:Datum:Temp:Abs-Feuchte:Windchill:Wind:
Aussen-T/F 1851 21-12-2010 06:00:00 -1.78 C 3.81 g/m*3 -1.78 C 0 km/h
1852 21-12-2010 07:00:00 -1.7 C 3.83 g/m*3 -1.7 C 0 km/h
1853 21-12-2010 08:00:00 -1.64 C 3.85 g/m*3 -1.64 C 0 km/h
1854 21-12-2010 09:00:00 -1.24 C 3.91 g/m*3 -1.24 C 0 km/h
1855 21-12-2010 10:00:00 -0.6 C 3.91 g/m*3 -0.6 C 0 km/h
1856 21-12-2010 11:00:00 0.5 C 3.98 g/m*3 0.5 C 0 km/h
1857 21-12-2010 12:00:00 1.14 C 3.97 g/m*3 1.14 C 0 km/h
1858 21-12-2010 13:00:00 1.44 C 4.12 g/m*3 1.44 C 0 km/h
1859 21-12-2010 14:00:00 1.24 C 4.06 g/m*3 1.24 C 0 km/h
1860 21-12-2010 15:00:00 1.18 C 4.18 g/m*3 1.18 C 0 km/h
1861 21-12-2010 16:00:00 0.58 C 4.2 g/m*3 0.58 C 0 km/h
1862 21-12-2010 17:00:00 0.16 C 4.28 g/m*3 0.16 C 0 km/h
1863 21-12-2010 18:00:00 0.18 C 4.38 g/m*3 0.18 C 0 km/h
1864 21-12-2010 19:00:00 0.12 C 4.4 g/m*3 0.12 C 0 km/h
1865 21-12-2010 20:00:00 0.12 C 4.4 g/m*3 0.12 C 0 km/h
1866 21-12-2010 21:00:00 0.12 C 4.45 g/m*3 0.12 C 0 km/h
1867 21-12-2010 22:00:00 0.15 C 4.45 g/m*3 0.15 C 0 km/h
1868 21-12-2010 23:00:00 0.12 C 4.45 g/m*3 0.12 C 0 km/h
1869 22-12-2010 00:00:00 0.1 C 4.48 g/m*3 0.1 C 0 km/h
1870 22-12-2010 01:00:00 0.16 C 4.51 g/m*3 0.16 C 0 km/h
1871 22-12-2010 02:00:00 0.2 C 4.52 g/m*3 0.2 C 0 km/h
1872 22-12-2010 03:00:00 0.16 C 4.51 g/m*3 0.16 C 0 km/h
1873 22-12-2010 04:00:00 0.28 C 4.54 g/m*3 0.28 C 0 km/h
1874 22-12-2010 05:00:00 0.3 C 4.55 g/m*3 0.3 C 0 km/h
1875 22-12-2010 06:00:00 0.3 C 4.55 g/m*3 0.3 C 0 km/h
Sensor: Nr:Datum:Temp:Abs-Feuchte:Windchill:Wind:
Aussen-T/F 1876 22-12-2010 07:00:00 0.3 C 4.57 g/m*3 0.3 C 0 km/h
1877 22-12-2010 08:00:00 0.34 C 4.61 g/m*3 0.34 C 0 km/h
1878 22-12-2010 09:00:00 0.7 C 4.73 g/m*3 0.7 C 0 km/h
1879 22-12-2010 10:00:00 1.38 C 4.9 g/m*3 1.38 C 0 km/h
1880 22-12-2010 11:00:00 2.3 C 5.02 g/m*3 2.3 C 0 km/h
1881 22-12-2010 12:00:00 2.76 C 4.89 g/m*3 2.76 C 0 km/h
1882 22-12-2010 13:00:00 2.38 C 4.73 g/m*3 2.38 C 0 km/h
1883 22-12-2010 14:00:00 2.4 C 4.76 g/m*3 2.4 C 0 km/h
1884 22-12-2010 15:00:00 1.66 C 4.59 g/m*3 1.66 C 0 km/h
1885 22-12-2010 16:00:00 1.16 C 4.6 g/m*3 1.16 C 0 km/h
1886 22-12-2010 17:00:00 0.8 C 4.6 g/m*3 0.8 C 0 km/h
1887 22-12-2010 18:00:00 0.7 C 4.63 g/m*3 0.7 C 0 km/h
1888 22-12-2010 19:00:00 0.78 C 4.7 g/m*3 0.78 C 0 km/h
1889 22-12-2010 20:00:00 0.78 C 4.7 g/m*3 0.78 C 0 km/h
1890 22-12-2010 21:00:00 0.8 C 4.71 g/m*3 0.8 C 0 km/h
1891 22-12-2010 22:00:00 0.7 C 4.68 g/m*3 0.7 C 0 km/h
1892 22-12-2010 23:00:00 0.7 C 4.68 g/m*3 0.7 C 0 km/h
1893 23-12-2010 00:00:00 0.76 C 4.74 g/m*3 0.76 C 0 km/h
1894 23-12-2010 01:00:00 0.7 C 4.73 g/m*3 0.7 C 0 km/h
1895 23-12-2010 02:00:00 0.7 C 4.73 g/m*3 0.7 C 0 km/h
1896 23-12-2010 03:00:00 0.7 C 4.73 g/m*3 0.7 C 0 km/h
1897 23-12-2010 04:00:00 0.66 C 4.72 g/m*3 0.66 C 0 km/h
1898 23-12-2010 05:00:00 0.48 C 4.66 g/m*3 0.48 C 0 km/h
1899 23-12-2010 06:00:00 0.34 C 4.61 g/m*3 0.34 C 0 km/h
1900 23-12-2010 07:00:00 0 C 4.51 g/m*3 0 C 0 km/h
Sensor: Nr:Datum:Temp:Abs-Feuchte:Windchill:Wind:
Aussen-T/F 1901 23-12-2010 08:00:00 -0.32 C 4.39 g/m*3 -0.32 C 0 km/h
1902 23-12-2010 09:00:00 -0.5 C 4.31 g/m*3 -0.5 C 0 km/h
1903 23-12-2010 10:00:00 -0.54 C 4.27 g/m*3 -0.54 C 0 km/h
1904 23-12-2010 11:00:00 -0.58 C 4.19 g/m*3 -0.58 C 0 km/h
1905 23-12-2010 12:00:00 -0.68 C 4.06 g/m*3 -0.68 C 0 km/h
1906 23-12-2010 13:00:00 -0.66 C 4 g/m*3 -0.66 C 0 km/h
1907 23-12-2010 14:00:00 -0.62 C 3.99 g/m*3 -0.62 C 0 km/h
1908 23-12-2010 15:00:00 -0.86 C 3.93 g/m*3 -0.86 C 0 km/h
1909 23-12-2010 16:00:00 -0.9 C 3.96 g/m*3 -0.9 C 0 km/h
1910 23-12-2010 17:00:00 -1.02 C 3.93 g/m*3 -1.02 C 0 km/h
1911 23-12-2010 18:00:00 -1.14 C 3.89 g/m*3 -1.14 C 0 km/h
1912 23-12-2010 19:00:00 -1.26 C 3.84 g/m*3 -1.26 C 0 km/h
1913 23-12-2010 20:00:00 -1.26 C 3.84 g/m*3 -1.26 C 0 km/h
1914 23-12-2010 21:00:00 -1.1 C 3.86 g/m*3 -1.1 C 0 km/h
1915 23-12-2010 22:00:00 -0.94 C 3.92 g/m*3 -0.94 C 0 km/h
1916 23-12-2010 23:00:00 -0.8 C 3.98 g/m*3 -0.8 C 0 km/h
1917 24-12-2010 00:00:00 -0.9 C 3.91 g/m*3 -0.9 C 0 km/h
1918 24-12-2010 01:00:00 -0.74 C 3.98 g/m*3 -0.74 C 0 km/h
1919 24-12-2010 02:00:00 -0.5 C 4.03 g/m*3 -0.5 C 0 km/h
1920 24-12-2010 03:00:00 -0.48 C 4.03 g/m*3 -0.48 C 0 km/h
1921 24-12-2010 04:00:00 -0.5 C 4.03 g/m*3 -0.5 C 0 km/h
1922 24-12-2010 05:00:00 -0.74 C 3.91 g/m*3 -0.74 C 0 km/h
1923 24-12-2010 06:00:00 -0.96 C 3.79 g/m*3 -0.96 C 0 km/h
1924 24-12-2010 07:00:00 -1.2 C 3.64 g/m*3 -1.2 C 0 km/h
1925 24-12-2010 08:00:00 -1.48 C 3.64 g/m*3 -1.48 C 0 km/h
Sensor: Nr:Datum:Temp:Abs-Feuchte:Windchill:Wind:
Aussen-T/F 1926 24-12-2010 09:00:00 -1.7 C 3.66 g/m*3 -1.7 C 0 km/h
1927 24-12-2010 10:00:00 -1.54 C 3.68 g/m*3 -1.54 C 0 km/h
1928 24-12-2010 11:00:00 -1.32 C 3.67 g/m*3 -1.32 C 0 km/h
1929 24-12-2010 12:00:00 -1.34 C 3.58 g/m*3 -1.34 C 0 km/h
1930 24-12-2010 13:00:00 -1.38 C 3.52 g/m*3 -1.38 C 0 km/h
1931 24-12-2010 14:00:00 -1.4 C 3.52 g/m*3 -1.4 C 0 km/h
1932 24-12-2010 15:00:00 -1.84 C 3.46 g/m*3 -1.84 C 0 km/h
1933 24-12-2010 16:00:00 -2.42 C 3.35 g/m*3 -2.42 C 0 km/h
1934 24-12-2010 17:00:00 -2.56 C 3.22 g/m*3 -2.56 C 0 km/h
1935 24-12-2010 18:00:00 -2.8 C 3.23 g/m*3 -2.8 C 0 km/h
1936 24-12-2010 19:00:00 -2.94 C 3.13 g/m*3 -2.94 C 0 km/h
1937 24-12-2010 20:00:00 -3.02 C 3.11 g/m*3 -3.02 C 0 km/h
1938 24-12-2010 21:00:00 -3.23333 C 3.06 g/m*3 -3.23 C 0 km/h
1939 24-12-2010 22:00:00 -3.56 C 3.02 g/m*3 -3.56 C 0 km/h
1940 24-12-2010 23:00:00 -3.74 C 2.98 g/m*3 -3.74 C 0 km/h
1941 25-12-2010 00:00:00 -3.82 C 2.94 g/m*3 -3.82 C 0 km/h
1942 25-12-2010 01:00:00 -3.92 C 2.88 g/m*3 -3.92 C 0 km/h
1943 25-12-2010 02:00:00 -4.08 C 2.87 g/m*3 -4.08 C 0 km/h
1944 25-12-2010 03:00:00 -4.16 C 2.81 g/m*3 -4.16 C 0 km/h
1945 25-12-2010 04:00:00 -4.26 C 2.68 g/m*3 -4.26 C 0 km/h
1946 25-12-2010 05:00:00 -4.46 C 2.58 g/m*3 -4.46 C 0 km/h
1947 25-12-2010 06:00:00 -4.62 C 2.51 g/m*3 -4.62 C 0 km/h
1948 25-12-2010 07:00:00 -4.72 C 2.45 g/m*3 -4.72 C 0 km/h
1949 25-12-2010 08:00:00 -4.8 C 2.47 g/m*3 -4.8 C 0 km/h
1950 25-12-2010 09:00:00 -4.82 C 2.44 g/m*3 -4.82 C 0 km/h
Sensor: Nr:Datum:Temp:Abs-Feuchte:Windchill:Wind:
Aussen-T/F 1951 25-12-2010 10:00:00 -4.58 C 2.36 g/m*3 -4.58 C 0 km/h
1952 25-12-2010 11:00:00 -4.5 C 2.18 g/m*3 -4.5 C 0 km/h
1953 25-12-2010 12:00:00 -4.98 C 2.07 g/m*3 -4.98 C 0 km/h
1954 25-12-2010 13:00:00 -4.72 C 2.18 g/m*3 -4.72 C 0 km/h
1955 25-12-2010 14:00:00 -4.92 C 2.1 g/m*3 -4.92 C 0 km/h
1956 25-12-2010 15:00:00 -5.54 C 2.09 g/m*3 -5.54 C 0 km/h
1957 25-12-2010 16:00:00 -6.82 C 2.12 g/m*3 -6.82 C 0 km/h
1958 25-12-2010 17:00:00 -7.52 C 2.13 g/m*3 -7.52 C 0 km/h
1959 25-12-2010 18:00:00 -7.46 C 2.17 g/m*3 -7.46 C 0 km/h
1960 25-12-2010 19:00:00 -7.4 C 2.17 g/m*3 -7.4 C 0 km/h
1961 25-12-2010 20:00:00 -8.34 C 2.11 g/m*3 -8.34 C 0 km/h
1962 25-12-2010 21:00:00 -7.4 C 2.32 g/m*3 -7.4 C 0 km/h
1963 25-12-2010 22:00:00 -6.8 C 2.31 g/m*3 -6.8 C 0 km/h
1964 25-12-2010 23:00:00 -6.82 C 2.18 g/m*3 -6.82 C 0 km/h
1965 26-12-2010 00:00:00 -7.08 C 2.12 g/m*3 -7.08 C 0 km/h
1966 26-12-2010 01:00:00 -8 C 1.99 g/m*3 -8 C 0 km/h
1967 26-12-2010 02:00:00 -8.78 C 1.88 g/m*3 -8.78 C 0 km/h
1968 26-12-2010 03:00:00 -9.04 C 1.82 g/m*3 -9.04 C 0 km/h
1969 26-12-2010 04:00:00 -9.04 C 1.85 g/m*3 -9.04 C 0 km/h
1970 26-12-2010 05:00:00 -8.44 C 1.94 g/m*3 -8.44 C 0 km/h
1971 26-12-2010 06:00:00 -7.24 C 2.11 g/m*3 -7.24 C 0 km/h
1972 26-12-2010 07:00:00 -6.34 C 2.24 g/m*3 -6.34 C 0 km/h
1973 26-12-2010 08:00:00 -5.84 C 2.36 g/m*3 -5.84 C 0 km/h
1974 26-12-2010 09:00:00 -4.88 C 2.6 g/m*3 -4.88 C 0 km/h
1975 26-12-2010 10:00:00 -4.24 C 2.68 g/m*3 -4.24 C 0 km/h
Sensor: Nr:Datum:Temp:Abs-Feuchte:Windchill:Wind:
Aussen-T/F 1976 26-12-2010 11:00:00 -3.52 C 2.69 g/m*3 -3.52 C 0 km/h
1977 26-12-2010 12:00:00 -3.14 C 2.78 g/m*3 -3.14 C 0 km/h
1978 26-12-2010 13:00:00 -2.72 C 2.85 g/m*3 -2.72 C 0 km/h
1979 26-12-2010 14:00:00 -2.66 C 3 g/m*3 -2.66 C 0 km/h
1980 26-12-2010 15:00:00 -2.72 C 3.13 g/m*3 -2.72 C 0 km/h
1981 26-12-2010 16:00:00 -2.86 C 3.16 g/m*3 -2.86 C 0 km/h
1982 26-12-2010 17:00:00 -2.82 C 3.17 g/m*3 -2.82 C 0 km/h
1983 26-12-2010 18:00:00 -2.9 C 3.17 g/m*3 -2.9 C 0 km/h
1984 26-12-2010 19:00:00 -2.72 C 3.18 g/m*3 -2.72 C 0 km/h
1985 26-12-2010 20:00:00 -3.04 C 3.16 g/m*3 -3.04 C 0 km/h
1986 26-12-2010 21:00:00 -3.3 C 3.08 g/m*3 -3.3 C 0 km/h
1987 26-12-2010 22:00:00 -3.04 C 3.13 g/m*3 -3.04 C 0 km/h
1988 26-12-2010 23:00:00 -2.72 C 3.18 g/m*3 -2.72 C 0 km/h
1989 27-12-2010 00:00:00 -2.64 C 3.22 g/m*3 -2.64 C 0 km/h
1990 27-12-2010 01:00:00 -1.92 C 3.31 g/m*3 -1.92 C 0 km/h
1991 27-12-2010 02:00:00 -1.6 C 3.35 g/m*3 -1.6 C 0 km/h
1992 27-12-2010 03:00:00 -1.38 C 3.41 g/m*3 -1.38 C 0 km/h
1993 27-12-2010 04:00:00 -1.3 C 3.36 g/m*3 -1.3 C 0 km/h
1994 27-12-2010 05:00:00 -1.32 C 3.37 g/m*3 -1.32 C 0 km/h
1995 27-12-2010 06:00:00 -1.44 C 3.38 g/m*3 -1.44 C 0 km/h
1996 27-12-2010 07:00:00 -1.62 C 3.33 g/m*3 -1.62 C 0 km/h
1997 27-12-2010 08:00:00 -1.86 C 3.29 g/m*3 -1.86 C 0 km/h
1998 27-12-2010 09:00:00 -1.78 C 3.24 g/m*3 -1.78 C 0 km/h
1999 27-12-2010 10:00:00 -1.42 C 3.27 g/m*3 -1.42 C 0 km/h
2000 27-12-2010 11:00:00 -1.16 C 3.26 g/m*3 -1.16 C 0 km/h
Sensor: Nr:Datum:Temp:Abs-Feuchte:Windchill:Wind:
Aussen-T/F 2001 27-12-2010 12:00:00 -1.02 C 3.22 g/m*3 -1.02 C 0 km/h
2002 27-12-2010 13:00:00 -0.88 C 3.29 g/m*3 -0.88 C 0 km/h
2003 27-12-2010 14:00:00 -1.04 C 3.27 g/m*3 -1.04 C 0 km/h
2004 27-12-2010 15:00:00 -1.3 C 3.33 g/m*3 -1.3 C 0 km/h
2005 27-12-2010 16:00:00 -2.3 C 3.25 g/m*3 -2.3 C 0 km/h
2006 27-12-2010 17:00:00 -3.16 C 3.25 g/m*3 -3.16 C 0 km/h
2007 27-12-2010 18:00:00 -3.18 C 3.34 g/m*3 -3.18 C 0 km/h
2008 27-12-2010 19:00:00 -3.74 C 3.21 g/m*3 -3.74 C 0 km/h
2009 27-12-2010 20:00:00 -4.3 C 3.12 g/m*3 -4.3 C 0 km/h
2010 27-12-2010 21:00:00 -4.4 C 3.1 g/m*3 -4.4 C 0 km/h
2011 27-12-2010 22:00:00 -4.14 C 3.16 g/m*3 -4.14 C 0 km/h
2012 27-12-2010 23:00:00 -4.34 C 3.11 g/m*3 -4.34 C 0 km/h
2013 28-12-2010 00:00:00 -4.46 C 3.08 g/m*3 -4.46 C 0 km/h
2014 28-12-2010 01:00:00 -4.3 C 3.12 g/m*3 -4.3 C 0 km/h
2015 28-12-2010 02:00:00 -4.16 C 3.15 g/m*3 -4.16 C 0 km/h
2016 28-12-2010 03:00:00 -4.36 C 3.08 g/m*3 -4.36 C 0 km/h
2017 28-12-2010 04:00:00 -4.16 C 3.15 g/m*3 -4.16 C 0 km/h
2018 28-12-2010 05:00:00 -3.78 C 3.23 g/m*3 -3.78 C 0 km/h
2019 28-12-2010 06:00:00 -3.74 C 3.24 g/m*3 -3.74 C 0 km/h
2020 28-12-2010 07:00:00 -3.72 C 3.22 g/m*3 -3.72 C 0 km/h
2021 28-12-2010 08:00:00 -3.56 C 3.25 g/m*3 -3.56 C 0 km/h
2022 28-12-2010 09:00:00 -2.68 C 3.44 g/m*3 -2.68 C 0 km/h
2023 28-12-2010 10:00:00 -1.12 C 3.61 g/m*3 -1.12 C 0 km/h
2024 28-12-2010 11:00:00 -0.54 C 3.46 g/m*3 -0.54 C 0 km/h
2025 28-12-2010 12:00:00 0.3 C 3.31 g/m*3 0.3 C 0 km/h
Sensor: Nr:Datum:Temp:Abs-Feuchte:Windchill:Wind:
Aussen-T/F 2026 28-12-2010 13:00:00 0.36 C 3.32 g/m*3 0.36 C 0 km/h
2027 28-12-2010 14:00:00 0 C 3.33 g/m*3 0 C 0 km/h
2028 28-12-2010 15:00:00 -0.54 C 3.42 g/m*3 -0.54 C 0 km/h
2029 28-12-2010 16:00:00 -0.68 C 3.39 g/m*3 -0.68 C 0 km/h
2030 28-12-2010 17:00:00 -0.7 C 3.42 g/m*3 -0.7 C 0 km/h
2031 28-12-2010 18:00:00 -0.88 C 3.38 g/m*3 -0.88 C 0 km/h
2032 28-12-2010 19:00:00 -1.2 C 3.45 g/m*3 -1.2 C 0 km/h
2033 28-12-2010 20:00:00 -1.4 C 3.43 g/m*3 -1.4 C 0 km/h
2034 28-12-2010 21:00:00 -1.86 C 3.4 g/m*3 -1.86 C 0 km/h
2035 28-12-2010 22:00:00 -1.275 C 3.59 g/m*3 -1.27 C 0 km/h
2036 28-12-2010 23:00:00 -1.28 C 3.58 g/m*3 -1.28 C 0 km/h
2037 29-12-2010 00:00:00 -1.32 C 3.56 g/m*3 -1.32 C 0 km/h
2038 29-12-2010 01:00:00 -1.3 C 3.62 g/m*3 -1.3 C 0 km/h
2039 29-12-2010 02:00:00 -1.3 C 3.64 g/m*3 -1.3 C 0 km/h
2040 29-12-2010 03:00:00 -1.22 C 3.68 g/m*3 -1.22 C 0 km/h
2041 29-12-2010 04:00:00 -1.28 C 3.66 g/m*3 -1.28 C 0 km/h
2042 29-12-2010 05:00:00 -1.3 C 3.67 g/m*3 -1.3 C 0 km/h
2043 29-12-2010 06:00:00 -1.2 C 3.73 g/m*3 -1.2 C 0 km/h
2044 29-12-2010 07:00:00 -1.1 C 3.79 g/m*3 -1.1 C 0 km/h
2045 29-12-2010 08:00:00 -1.1 C 3.83 g/m*3 -1.1 C 0 km/h
2046 29-12-2010 09:00:00 -0.74 C 3.88 g/m*3 -0.74 C 0 km/h
2047 29-12-2010 10:00:00 0.14 C 3.75 g/m*3 0.14 C 0 km/h
2048 29-12-2010 11:00:00 0.58 C 3.6 g/m*3 0.58 C 0 km/h
2049 29-12-2010 12:00:00 0.88 C 3.58 g/m*3 0.88 C 0 km/h
2050 29-12-2010 13:00:00 1.34 C 3.61 g/m*3 1.34 C 0 km/h
Sensor: Nr:Datum:Temp:Abs-Feuchte:Windchill:Wind:
Aussen-T/F 2051 29-12-2010 14:00:00 1.76 C 3.66 g/m*3 1.76 C 0 km/h
2052 29-12-2010 15:00:00 1.18 C 3.73 g/m*3 1.18 C 0 km/h
2053 29-12-2010 16:00:00 0.62 C 3.85 g/m*3 0.62 C 0 km/h
2054 29-12-2010 17:00:00 0.28 C 3.85 g/m*3 0.28 C 0 km/h
2055 29-12-2010 18:00:00 0.14 C 3.89 g/m*3 0.14 C 0 km/h
2056 29-12-2010 19:00:00 0.06 C 3.97 g/m*3 0.06 C 0 km/h
2057 29-12-2010 20:00:00 -0.04 C 3.96 g/m*3 -0.04 C 0 km/h
2058 29-12-2010 21:00:00 -0.18 C 3.92 g/m*3 -0.18 C 0 km/h
2059 29-12-2010 22:00:00 -0.32 C 3.84 g/m*3 -0.32 C 0 km/h
2060 29-12-2010 23:00:00 -0.7 C 3.79 g/m*3 -0.7 C 0 km/h
2061 30-12-2010 00:00:00 -0.925 C 3.79 g/m*3 -0.93 C 0 km/h
2062 30-12-2010 01:00:00 -1.32 C 3.7 g/m*3 -1.32 C 0 km/h
2063 30-12-2010 02:00:00 -1.46 C 3.75 g/m*3 -1.46 C 0 km/h
2064 30-12-2010 03:00:00 -1.14 C 3.85 g/m*3 -1.14 C 0 km/h
2065 30-12-2010 04:00:00 -1.14 C 3.76 g/m*3 -1.14 C 0 km/h
2066 30-12-2010 05:00:00 -2.82 C 3.25 g/m*3 -2.82 C 0 km/h
2067 30-12-2010 06:00:00 -1.24 C 3.53 g/m*3 -1.24 C 0 km/h
2068 30-12-2010 07:00:00 -1.34 C 3.44 g/m*3 -1.34 C 0 km/h
2069 30-12-2010 08:00:00 -1.4 C 3.45 g/m*3 -1.4 C 0 km/h
2070 30-12-2010 09:00:00 -1.1 C 3.47 g/m*3 -1.1 C 0 km/h
2071 30-12-2010 10:00:00 -0.45 C 3.46 g/m*3 -0.45 C 0 km/h
2072 30-12-2010 11:00:00 0.08 C 3.53 g/m*3 0.08 C 0 km/h
2073 30-12-2010 12:00:00 0.6 C 3.59 g/m*3 0.6 C 0 km/h
2074 30-12-2010 13:00:00 1.2 C 3.59 g/m*3 1.2 C 0 km/h
2075 30-12-2010 14:00:00 1.32 C 3.61 g/m*3 1.32 C 0 km/h
Sensor: Nr:Datum:Temp:Abs-Feuchte:Windchill:Wind:
Aussen-T/F 2076 30-12-2010 15:00:00 0.98 C 3.67 g/m*3 0.98 C 0 km/h
2077 30-12-2010 16:00:00 0.3 C 3.73 g/m*3 0.3 C 0 km/h
2078 30-12-2010 17:00:00 0.04 C 3.74 g/m*3 0.04 C 0 km/h
2079 30-12-2010 18:00:00 -0.3 C 3.68 g/m*3 -0.3 C 0 km/h
2080 30-12-2010 19:00:00 -0.44 C 3.75 g/m*3 -0.44 C 0 km/h
2081 30-12-2010 20:00:00 -0.48 C 3.71 g/m*3 -0.48 C 0 km/h
2082 30-12-2010 21:00:00 -0.6 C 3.63 g/m*3 -0.6 C 0 km/h
2083 30-12-2010 22:00:00 -0.78 C 3.59 g/m*3 -0.78 C 0 km/h
2084 30-12-2010 23:00:00 -0.96 C 3.51 g/m*3 -0.96 C 0 km/h
2085 31-12-2010 00:00:00 -1.1 C 3.49 g/m*3 -1.1 C 0 km/h
2086 31-12-2010 01:00:00 -1.14 C 3.54 g/m*3 -1.14 C 0 km/h
2087 31-12-2010 02:00:00 -1.34 C 3.49 g/m*3 -1.34 C 0 km/h
2088 31-12-2010 03:00:00 -1.76 C 3.4 g/m*3 -1.76 C 0 km/h
2089 31-12-2010 04:00:00 -1.98 C 3.38 g/m*3 -1.98 C 0 km/h
2090 31-12-2010 05:00:00 -2.12 C 3.34 g/m*3 -2.12 C 0 km/h
2091 31-12-2010 06:00:00 -2.26 C 3.29 g/m*3 -2.26 C 0 km/h
2092 31-12-2010 07:00:00 -2.12 C 3.36 g/m*3 -2.12 C 0 km/h
2093 31-12-2010 08:00:00 -2.12 C 3.39 g/m*3 -2.12 C 0 km/h
2094 31-12-2010 09:00:00 -2.18 C 3.35 g/m*3 -2.18 C 0 km/h
2095 31-12-2010 10:00:00 -1.9 C 3.35 g/m*3 -1.9 C 0 km/h
2096 31-12-2010 11:00:00 -1.22 C 3.38 g/m*3 -1.22 C 0 km/h
2097 31-12-2010 12:00:00 -0.92 C 3.41 g/m*3 -0.92 C 0 km/h
2098 31-12-2010 13:00:00 -0.18 C 3.46 g/m*3 -0.18 C 0 km/h
2099 31-12-2010 14:00:00 0.24 C 3.37 g/m*3 0.24 C 0 km/h
2100 31-12-2010 15:00:00 -0.34 C 3.43 g/m*3 -0.34 C 0 km/h
Sensor: Nr:Datum:Temp:Abs-Feuchte:Windchill:Wind:
Aussen-T/F 2101 31-12-2010 16:00:00 -0.56 C 3.52 g/m*3 -0.56 C 0 km/h
2102 31-12-2010 17:00:00 -0.6 C 3.63 g/m*3 -0.6 C 0 km/h
2103 31-12-2010 18:00:00 -0.54 C 3.76 g/m*3 -0.54 C 0 km/h
2104 31-12-2010 19:00:00 -0.6 C 3.82 g/m*3 -0.6 C 0 km/h
2105 31-12-2010 20:00:00 -0.64 C 3.94 g/m*3 -0.64 C 0 km/h
2106 31-12-2010 21:00:00 -0.58 C 4.02 g/m*3 -0.58 C 0 km/h
2107 31-12-2010 22:00:00 -0.38 C 4.11 g/m*3 -0.38 C 0 km/h
2108 31-12-2010 23:00:00 -0.325 C 4.12 g/m*3 -0.33 C 0 km/h
2109 01-01-2011 00:00:00 -0.32 C 4.12 g/m*3 -0.32 C 0 km/h
2110 01-01-2011 01:00:00 -0.28 C 4.18 g/m*3 -0.28 C 0 km/h
2111 01-01-2011 02:00:00 -0.14 C 4.22 g/m*3 -0.14 C 0 km/h
2112 01-01-2011 03:00:00 -0.13333 C 4.22 g/m*3 -0.13 C 0 km/h
2113 01-01-2011 04:00:00 -0.2 C 4.21 g/m*3 -0.2 C 0 km/h
2114 01-01-2011 05:00:00 -0.02 C 4.3 g/m*3 -0.02 C 0 km/h
2115 01-01-2011 06:00:00 0.36 C 4.29 g/m*3 0.36 C 0 km/h
2116 01-01-2011 07:00:00 0.5 C 4.25 g/m*3 0.5 C 0 km/h
2117 01-01-2011 08:00:00 0.82 C 4.3 g/m*3 0.82 C 0 km/h
2118 01-01-2011 09:00:00 1.08 C 4.38 g/m*3 1.08 C 0 km/h
2119 01-01-2011 10:00:00 1.36 C 4.59 g/m*3 1.36 C 0 km/h
2120 01-01-2011 11:00:00 1.94 C 4.68 g/m*3 1.94 C 0 km/h
2121 01-01-2011 12:00:00 2.44 C 4.63 g/m*3 2.44 C 0 km/h
2122 01-01-2011 13:00:00 2.92 C 4.62 g/m*3 2.92 C 0 km/h
2123 01-01-2011 14:00:00 2.54 C 4.63 g/m*3 2.54 C 0 km/h
2124 01-01-2011 15:00:00 2.02 C 4.64 g/m*3 2.02 C 0 km/h
2125 01-01-2011 16:00:00 1.58 C 4.73 g/m*3 1.58 C 0 km/h
Sensor: Nr:Datum:Temp:Abs-Feuchte:Windchill:Wind:
Aussen-T/F 2126 01-01-2011 17:00:00 1.34 C 4.75 g/m*3 1.34 C 0 km/h
2127 01-01-2011 18:00:00 1.46 C 4.87 g/m*3 1.46 C 0 km/h
2128 01-01-2011 19:00:00 1.96 C 5.05 g/m*3 1.96 C 0 km/h
2129 01-01-2011 20:00:00 1.72 C 4.93 g/m*3 1.72 C 0 km/h
2130 01-01-2011 21:00:00 1.18 C 4.73 g/m*3 1.18 C 0 km/h
2131 01-01-2011 22:00:00 1.06 C 4.73 g/m*3 1.06 C 0 km/h
2132 01-01-2011 23:00:00 0.3 C 4.5 g/m*3 0.3 C 0 km/h
2133 02-01-2011 00:00:00 0.18 C 4.5 g/m*3 0.18 C 0 km/h
2134 02-01-2011 01:00:00 0.32 C 4.57 g/m*3 0.32 C 0 km/h
2135 02-01-2011 02:00:00 0.36 C 4.61 g/m*3 0.36 C 0 km/h
2136 02-01-2011 03:00:00 0.44 C 4.64 g/m*3 0.44 C 0 km/h
2137 02-01-2011 04:00:00 0.5 C 4.65 g/m*3 0.5 C 0 km/h
2138 02-01-2011 05:00:00 0.28 C 4.54 g/m*3 0.28 C 0 km/h
2139 02-01-2011 06:00:00 0.3 C 4.54 g/m*3 0.3 C 0 km/h
2140 02-01-2011 07:00:00 0.3 C 4.47 g/m*3 0.3 C 0 km/h
2141 02-01-2011 08:00:00 0.12 C 4.34 g/m*3 0.12 C 0 km/h
2142 02-01-2011 09:00:00 0.54 C 4.48 g/m*3 0.54 C 0 km/h
2143 02-01-2011 10:00:00 1.42 C 4.47 g/m*3 1.42 C 0 km/h
2144 02-01-2011 11:00:00 1.8 C 4.16 g/m*3 1.8 C 0 km/h
2145 02-01-2011 12:00:00 2.06 C 4.16 g/m*3 2.06 C 0 km/h
2146 02-01-2011 13:00:00 2.5 C 4.14 g/m*3 2.5 C 0 km/h
2147 02-01-2011 14:00:00 2.22 C 4.07 g/m*3 2.22 C 0 km/h
2148 02-01-2011 15:00:00 1.7 C 4.03 g/m*3 1.7 C 0 km/h
2149 02-01-2011 16:00:00 1.44 C 4.19 g/m*3 1.44 C 0 km/h
2150 02-01-2011 17:00:00 0.66 C 4.36 g/m*3 0.66 C 0 km/h
Sensor: Nr:Datum:Temp:Abs-Feuchte:Windchill:Wind:
Aussen-T/F 2151 02-01-2011 18:00:00 0.62 C 4.45 g/m*3 0.62 C 0 km/h
2152 02-01-2011 19:00:00 0.58 C 4.44 g/m*3 0.58 C 0 km/h
2153 02-01-2011 20:00:00 0.42 C 4.36 g/m*3 0.42 C 0 km/h
2154 02-01-2011 21:00:00 0.18 C 4.32 g/m*3 0.18 C 0 km/h
2155 02-01-2011 22:00:00 0.2 C 4.29 g/m*3 0.2 C 0 km/h
2156 02-01-2011 23:00:00 0.12 C 4.3 g/m*3 0.12 C 0 km/h
2157 03-01-2011 00:00:00 0.12 C 4.34 g/m*3 0.12 C 0 km/h
2158 03-01-2011 01:00:00 0.06 C 4.28 g/m*3 0.06 C 0 km/h
2159 03-01-2011 02:00:00 -0.16 C 4.22 g/m*3 -0.16 C 0 km/h
2160 03-01-2011 03:00:00 -0.3 C 4.12 g/m*3 -0.3 C 0 km/h
2161 03-01-2011 04:00:00 -0.88 C 3.85 g/m*3 -0.88 C 0 km/h
2162 03-01-2011 05:00:00 -1.04 C 3.84 g/m*3 -1.04 C 0 km/h
2163 03-01-2011 06:00:00 -1.12 C 3.88 g/m*3 -1.12 C 0 km/h
2164 03-01-2011 07:00:00 -1.08 C 3.99 g/m*3 -1.08 C 0 km/h
2165 03-01-2011 08:00:00 -1.3 C 3.9 g/m*3 -1.3 C 0 km/h
2166 03-01-2011 09:00:00 -1.22 C 3.93 g/m*3 -1.22 C 0 km/h
2167 03-01-2011 10:00:00 -1.02 C 3.86 g/m*3 -1.02 C 0 km/h
2168 03-01-2011 11:00:00 -0.3 C 3.73 g/m*3 -0.3 C 0 km/h
2169 03-01-2011 12:00:00 0.26 C 3.73 g/m*3 0.26 C 0 km/h
2170 03-01-2011 13:00:00 0.92 C 3.81 g/m*3 0.92 C 0 km/h
2171 03-01-2011 14:00:00 0.86 C 3.86 g/m*3 0.86 C 0 km/h
2172 03-01-2011 15:00:00 -0.08 C 3.74 g/m*3 -0.08 C 0 km/h
2173 03-01-2011 16:00:00 -1.54 C 3.65 g/m*3 -1.54 C 0 km/h
2174 03-01-2011 17:00:00 -2.46 C 3.53 g/m*3 -2.46 C 0 km/h
2175 03-01-2011 18:00:00 -1.3 C 3.93 g/m*3 -1.3 C 0 km/h
Sensor: Nr:Datum:Temp:Abs-Feuchte:Windchill:Wind:
Aussen-T/F 2176 03-01-2011 19:00:00 -1.22 C 3.98 g/m*3 -1.22 C 0 km/h
2177 03-01-2011 20:00:00 -2 C 3.76 g/m*3 -2 C 0 km/h
2178 03-01-2011 21:00:00 -2.5 C 3.63 g/m*3 -2.5 C 0 km/h
2179 03-01-2011 22:00:00 -1.6 C 3.9 g/m*3 -1.6 C 0 km/h
2180 03-01-2011 23:00:00 -3 C 3.53 g/m*3 -3 C 0 km/h
2181 04-01-2011 00:00:00 -3.64 C 3.38 g/m*3 -3.64 C 0 km/h
2182 04-01-2011 01:00:00 -3.94 C 3.29 g/m*3 -3.94 C 0 km/h
2183 04-01-2011 02:00:00 -3.3 C 3.46 g/m*3 -3.3 C 0 km/h
2184 04-01-2011 03:00:00 -3.18 C 3.47 g/m*3 -3.18 C 0 km/h
2185 04-01-2011 04:00:00 -3.44 C 3.4 g/m*3 -3.44 C 0 km/h
2186 04-01-2011 05:00:00 -3.74 C 3.3 g/m*3 -3.74 C 0 km/h
2187 04-01-2011 06:00:00 -3.84 C 3.27 g/m*3 -3.84 C 0 km/h
2188 04-01-2011 07:00:00 -2.72 C 3.57 g/m*3 -2.72 C 0 km/h
2189 04-01-2011 08:00:00 -2.14 C 3.76 g/m*3 -2.14 C 0 km/h
2190 04-01-2011 09:00:00 -1.88 C 3.83 g/m*3 -1.88 C 0 km/h
2191 04-01-2011 10:00:00 -1.02 C 4.06 g/m*3 -1.02 C 0 km/h
2192 04-01-2011 11:00:00 -0.42 C 4.05 g/m*3 -0.42 C 0 km/h
2193 04-01-2011 12:00:00 -0.26 C 3.46 g/m*3 -0.26 C 0 km/h
2194 04-01-2011 13:00:00 0.1 C 3.4 g/m*3 0.1 C 0 km/h
2195 04-01-2011 14:00:00 0.06 C 3.33 g/m*3 0.06 C 0 km/h
2196 04-01-2011 15:00:00 -0.92 C 3.25 g/m*3 -0.92 C 0 km/h
2197 04-01-2011 16:00:00 -1.18 C 3.26 g/m*3 -1.18 C 0 km/h
2198 04-01-2011 17:00:00 -2 C 3.21 g/m*3 -2 C 0 km/h
2199 04-01-2011 18:00:00 -2.22 C 3.18 g/m*3 -2.22 C 0 km/h
2200 04-01-2011 19:00:00 -3.56 C 2.94 g/m*3 -3.56 C 0 km/h
Sensor: Nr:Datum:Temp:Abs-Feuchte:Windchill:Wind:
Aussen-T/F 2201 04-01-2011 20:00:00 -4.2 C 2.89 g/m*3 -4.2 C 0 km/h
2202 04-01-2011 21:00:00 -3.72 C 2.98 g/m*3 -3.72 C 0 km/h
2203 04-01-2011 22:00:00 -2.82 C 2.86 g/m*3 -2.82 C 0 km/h
2204 04-01-2011 23:00:00 -2.82 C 2.83 g/m*3 -2.82 C 0 km/h
2205 05-01-2011 00:00:00 -2.88 C 2.88 g/m*3 -2.88 C 0 km/h
2206 05-01-2011 01:00:00 -2.98 C 2.74 g/m*3 -2.98 C 0 km/h
2207 05-01-2011 02:00:00 -2.92 C 2.75 g/m*3 -2.92 C 0 km/h
2208 05-01-2011 03:00:00 -2.96 C 2.76 g/m*3 -2.96 C 0 km/h
2209 05-01-2011 04:00:00 -3.56 C 2.54 g/m*3 -3.56 C 0 km/h
2210 05-01-2011 05:00:00 -4.06 C 2.5 g/m*3 -4.06 C 0 km/h
2211 05-01-2011 06:00:00 -4.88 C 2.36 g/m*3 -4.88 C 0 km/h
2212 05-01-2011 07:00:00 -6.04 C 2.24 g/m*3 -6.04 C 0 km/h
2213 05-01-2011 08:00:00 -7.46 C 2.16 g/m*3 -7.46 C 0 km/h
2214 05-01-2011 09:00:00 -6.64 C 2.35 g/m*3 -6.64 C 0 km/h
2215 05-01-2011 10:00:00 -4.26 C 2.44 g/m*3 -4.26 C 0 km/h
2216 05-01-2011 11:00:00 -3.2 C 2.38 g/m*3 -3.2 C 0 km/h
2217 05-01-2011 12:00:00 -3.68 C 2.34 g/m*3 -3.68 C 0 km/h
2218 05-01-2011 13:00:00 -3.76 C 2.43 g/m*3 -3.76 C 0 km/h
2219 05-01-2011 14:00:00 -3.38 C 2.52 g/m*3 -3.38 C 0 km/h
2220 05-01-2011 15:00:00 -3.74 C 2.56 g/m*3 -3.74 C 0 km/h
2221 05-01-2011 16:00:00 -4.44 C 2.56 g/m*3 -4.44 C 0 km/h
2222 05-01-2011 17:00:00 -5.7 C 2.52 g/m*3 -5.7 C 0 km/h
2223 05-01-2011 18:00:00 -5.7 C 2.6 g/m*3 -5.7 C 0 km/h
2224 05-01-2011 19:00:00 -3.86 C 2.93 g/m*3 -3.86 C 0 km/h
2225 05-01-2011 20:00:00 -2.66 C 3.07 g/m*3 -2.66 C 0 km/h
Sensor: Nr:Datum:Temp:Abs-Feuchte:Windchill:Wind:
Aussen-T/F 2226 05-01-2011 21:00:00 -1.68 C 3.21 g/m*3 -1.68 C 0 km/h
2227 05-01-2011 22:00:00 -1.06 C 3.5 g/m*3 -1.06 C 0 km/h
2228 05-01-2011 23:00:00 -0.56 C 3.76 g/m*3 -0.56 C 0 km/h
2229 06-01-2011 00:00:00 -0.58 C 3.83 g/m*3 -0.58 C 0 km/h
2230 06-01-2011 01:00:00 -0.22 C 3.97 g/m*3 -0.22 C 0 km/h
2231 06-01-2011 02:00:00 0.3 C 4.29 g/m*3 0.3 C 0 km/h
2232 06-01-2011 03:00:00 0.64 C 4.54 g/m*3 0.64 C 0 km/h
2233 06-01-2011 04:00:00 0.88 C 4.68 g/m*3 0.88 C 0 km/h
2234 06-01-2011 05:00:00 1.04 C 4.74 g/m*3 1.04 C 0 km/h
2235 06-01-2011 06:00:00 1.26 C 4.86 g/m*3 1.26 C 0 km/h
2236 06-01-2011 07:00:00 1.38 C 4.9 g/m*3 1.38 C 0 km/h
2237 06-01-2011 08:00:00 1.54 C 4.97 g/m*3 1.54 C 0 km/h
2238 06-01-2011 09:00:00 2.54 C 5.3 g/m*3 2.54 C 0 km/h
2239 06-01-2011 10:00:00 4.5 C 6.03 g/m*3 4.5 C 0 km/h
2240 06-01-2011 11:00:00 6.08 C 6.27 g/m*3 6.08 C 0 km/h
2241 06-01-2011 12:00:00 5.34 C 5.8 g/m*3 5.34 C 0 km/h
2242 06-01-2011 13:00:00 4.5 C 5.69 g/m*3 4.5 C 0 km/h
2243 06-01-2011 14:00:00 4.12 C 5.59 g/m*3 4.12 C 0 km/h
2244 06-01-2011 15:00:00 3.94 C 5.62 g/m*3 3.94 C 0 km/h
2245 06-01-2011 16:00:00 3.92 C 5.65 g/m*3 3.92 C 0 km/h
2246 06-01-2011 17:00:00 4.14 C 5.79 g/m*3 4.14 C 0 km/h
2247 06-01-2011 18:00:00 4.6 C 6.02 g/m*3 4.6 C 0 km/h
2248 06-01-2011 19:00:00 5.02 C 6.23 g/m*3 5.02 C 0 km/h
2249 06-01-2011 20:00:00 7.36 C 7.14 g/m*3 7.36 C 0 km/h
2250 06-01-2011 21:00:00 8.56 C 7.35 g/m*3 8.56 C 0 km/h
Sensor: Nr:Datum:Temp:Abs-Feuchte:Windchill:Wind:
Aussen-T/F 2251 06-01-2011 22:00:00 9.5 C 7.14 g/m*3 9.5 C 0 km/h
2252 06-01-2011 23:00:00 9.08 C 7 g/m*3 9.08 C 0 km/h
2253 07-01-2011 00:00:00 7.38 C 6.64 g/m*3 7.38 C 0 km/h
2254 07-01-2011 01:00:00 6.64 C 6.66 g/m*3 6.64 C 0 km/h
2255 07-01-2011 02:00:00 5.82 C 6.46 g/m*3 5.82 C 0 km/h
2256 07-01-2011 03:00:00 5.62 C 6.44 g/m*3 5.62 C 0 km/h
2257 07-01-2011 04:00:00 5.36 C 6.33 g/m*3 5.36 C 0 km/h
2258 07-01-2011 05:00:00 5.28 C 6.34 g/m*3 5.28 C 0 km/h
2259 07-01-2011 06:00:00 4.9 C 6.18 g/m*3 4.9 C 0 km/h
2260 07-01-2011 07:00:00 5.04 C 6.27 g/m*3 5.04 C 0 km/h
2261 07-01-2011 08:00:00 4.88 C 6.2 g/m*3 4.88 C 0 km/h
2262 07-01-2011 09:00:00 4.9 C 6.21 g/m*3 4.9 C 0 km/h
2263 07-01-2011 10:00:00 5.5 C 6.43 g/m*3 5.5 C 0 km/h
2264 07-01-2011 11:00:00 6.76 C 6.94 g/m*3 6.76 C 0 km/h
2265 07-01-2011 12:00:00 7.28 C 7.12 g/m*3 7.28 C 0 km/h
2266 07-01-2011 13:00:00 7.38 C 7.12 g/m*3 7.38 C 0 km/h
2267 07-01-2011 14:00:00 7.42 C 7.13 g/m*3 7.42 C 0 km/h
2268 07-01-2011 15:00:00 7.18 C 7.06 g/m*3 7.18 C 0 km/h
2269 07-01-2011 16:00:00 7.06 C 7.02 g/m*3 7.06 C 0 km/h
2270 07-01-2011 17:00:00 7.52 C 7.29 g/m*3 7.52 C 0 km/h
2271 07-01-2011 18:00:00 9.32 C 8.08 g/m*3 9.32 C 0 km/h
2272 07-01-2011 19:00:00 9.44 C 7.83 g/m*3 9.44 C 0 km/h
2273 07-01-2011 20:00:00 8.9 C 7.78 g/m*3 8.9 C 0 km/h
2274 07-01-2011 21:00:00 9 C 7.86 g/m*3 9 C 0 km/h
2275 07-01-2011 22:00:00 8.7 C 7.66 g/m*3 8.7 C 0 km/h
Sensor: Nr:Datum:Temp:Abs-Feuchte:Windchill:Wind:
Aussen-T/F 2276 07-01-2011 23:00:00 8.76 C 7.71 g/m*3 8.76 C 0 km/h
2277 08-01-2011 00:00:00 8.64 C 7.5 g/m*3 8.64 C 0 km/h
2278 08-01-2011 01:00:00 7.46 C 7.09 g/m*3 7.46 C 0 km/h
2279 08-01-2011 02:00:00 6.72 C 6.89 g/m*3 6.72 C 0 km/h
2280 08-01-2011 03:00:00 7.92 C 7.5 g/m*3 7.92 C 0 km/h
2281 08-01-2011 04:00:00 7.88 C 7.51 g/m*3 7.88 C 0 km/h
2282 08-01-2011 05:00:00 7.94 C 7.56 g/m*3 7.94 C 0 km/h
2283 08-01-2011 06:00:00 7.98 C 7.63 g/m*3 7.98 C 0 km/h
2284 08-01-2011 07:00:00 8.16 C 7.7 g/m*3 8.16 C 0 km/h
2285 08-01-2011 08:00:00 8.34 C 7.81 g/m*3 8.34 C 0 km/h
2286 08-01-2011 09:00:00 8.7 C 7.94 g/m*3 8.7 C 0 km/h
2287 08-01-2011 10:00:00 7.78 C 7.48 g/m*3 7.78 C 0 km/h
2288 08-01-2011 11:00:00 10.2 C 7.88 g/m*3 10.2 C 0 km/h
2289 08-01-2011 12:00:00 13.1 C 6.6 g/m*3 13.1 C 0 km/h
2290 08-01-2011 13:00:00 14.18 C 6.07 g/m*3 14.18 C 0 km/h
2291 08-01-2011 14:00:00 14.4 C 5.86 g/m*3 14.4 C 0 km/h
2292 08-01-2011 15:00:00 14.12 C 5.86 g/m*3 14.12 C 0 km/h
2293 08-01-2011 16:00:00 13.6 C 5.86 g/m*3 13.6 C 0 km/h
2294 08-01-2011 17:00:00 13.28 C 5.91 g/m*3 13.28 C 0 km/h
2295 08-01-2011 18:00:00 13.44 C 5.87 g/m*3 13.44 C 0 km/h
2296 08-01-2011 19:00:00 13.16 C 5.93 g/m*3 13.16 C 0 km/h
2297 08-01-2011 20:00:00 12.32 C 6.35 g/m*3 12.32 C 0 km/h
2298 08-01-2011 21:00:00 12.04 C 6.6 g/m*3 12.04 C 0 km/h
2299 08-01-2011 22:00:00 11.94 C 6.56 g/m*3 11.94 C 0 km/h
2300 08-01-2011 23:00:00 10.32 C 7.13 g/m*3 10.32 C 0 km/h
Sensor: Nr:Datum:Temp:Abs-Feuchte:Windchill:Wind:
Aussen-T/F 2301 09-01-2011 00:00:00 9.64 C 7.66 g/m*3 9.64 C 0 km/h
2302 09-01-2011 01:00:00 9.62 C 7.98 g/m*3 9.62 C 0 km/h
2303 09-01-2011 02:00:00 9.78 C 7.93 g/m*3 9.78 C 0 km/h
2304 09-01-2011 03:00:00 9.32 C 7.77 g/m*3 9.32 C 0 km/h
2305 09-01-2011 04:00:00 10.92 C 7.59 g/m*3 10.92 C 0 km/h
2306 09-01-2011 05:00:00 11.08 C 7.1 g/m*3 11.08 C 0 km/h
2307 09-01-2011 06:00:00 7.3 C 6.54 g/m*3 7.3 C 0 km/h
2308 09-01-2011 07:00:00 6.12 C 6.39 g/m*3 6.12 C 0 km/h
2309 09-01-2011 08:00:00 5.16 C 6.04 g/m*3 5.16 C 0 km/h
2310 09-01-2011 09:00:00 3.98 C 5.5 g/m*3 3.98 C 0 km/h
2311 09-01-2011 10:00:00 3.02 C 5.18 g/m*3 3.02 C 0 km/h
2312 09-01-2011 11:00:00 4.1 C 5.47 g/m*3 4.1 C 0 km/h
2313 09-01-2011 12:00:00 4.56 C 5.39 g/m*3 4.56 C 0 km/h
2314 09-01-2011 13:00:00 5.08 C 5.33 g/m*3 5.08 C 0 km/h
2315 09-01-2011 14:00:00 5.24 C 5.26 g/m*3 5.24 C 0 km/h
2316 09-01-2011 15:00:00 4.58 C 5.43 g/m*3 4.58 C 0 km/h
2317 09-01-2011 16:00:00 3.26 C 5.29 g/m*3 3.26 C 0 km/h
2318 09-01-2011 17:00:00 2.78 C 5.24 g/m*3 2.78 C 0 km/h
2319 09-01-2011 18:00:00 1.76 C 4.96 g/m*3 1.76 C 0 km/h
2320 09-01-2011 19:00:00 1.8 C 5.04 g/m*3 1.8 C 0 km/h
2321 09-01-2011 20:00:00 1.24 C 4.84 g/m*3 1.24 C 0 km/h
2322 09-01-2011 21:00:00 0.64 C 4.68 g/m*3 0.64 C 0 km/h
2323 09-01-2011 22:00:00 0.075 C 4.49 g/m*3 0.08 C 0 km/h
2324 09-01-2011 23:00:00 0.02 C 4.51 g/m*3 0.02 C 0 km/h
2325 10-01-2011 00:00:00 0.16 C 4.56 g/m*3 0.16 C 0 km/h
Sensor: Nr:Datum:Temp:Abs-Feuchte:Windchill:Wind:
Aussen-T/F 2326 10-01-2011 01:00:00 0.28 C 4.61 g/m*3 0.28 C 0 km/h
2327 10-01-2011 02:00:00 0.02 C 4.55 g/m*3 0.02 C 0 km/h
2328 10-01-2011 03:00:00 0.2 C 4.62 g/m*3 0.2 C 0 km/h
2329 10-01-2011 04:00:00 0.38 C 4.68 g/m*3 0.38 C 0 km/h
2330 10-01-2011 05:00:00 0.26 C 4.63 g/m*3 0.26 C 0 km/h
2331 10-01-2011 06:00:00 0.2 C 4.57 g/m*3 0.2 C 0 km/h
2332 10-01-2011 07:00:00 0.1 C 4.54 g/m*3 0.1 C 0 km/h
2333 10-01-2011 08:00:00 0.18 C 4.5 g/m*3 0.18 C 0 km/h
2334 10-01-2011 09:00:00 0.32 C 4.45 g/m*3 0.32 C 0 km/h
2335 10-01-2011 10:00:00 0.54 C 4.37 g/m*3 0.54 C 0 km/h
2336 10-01-2011 11:00:00 0.88 C 4.22 g/m*3 0.88 C 0 km/h
2337 10-01-2011 12:00:00 1.78 C 4.3 g/m*3 1.78 C 0 km/h
2338 10-01-2011 13:00:00 2.1 C 4.39 g/m*3 2.1 C 0 km/h
2339 10-01-2011 14:00:00 2.26 C 4.42 g/m*3 2.26 C 0 km/h
2340 10-01-2011 15:00:00 2.1 C 4.36 g/m*3 2.1 C 0 km/h
2341 10-01-2011 16:00:00 1.86 C 4.33 g/m*3 1.86 C 0 km/h
2342 10-01-2011 17:00:00 0.84 C 4.24 g/m*3 0.84 C 0 km/h
2343 10-01-2011 18:00:00 0.22 C 4.16 g/m*3 0.22 C 0 km/h
2344 10-01-2011 19:00:00 0.26 C 4.32 g/m*3 0.26 C 0 km/h
2345 10-01-2011 20:00:00 0.68 C 4.35 g/m*3 0.68 C 0 km/h
2346 10-01-2011 21:00:00 0.56 C 4.04 g/m*3 0.56 C 0 km/h
2347 10-01-2011 22:00:00 0.5 C 4.05 g/m*3 0.5 C 0 km/h
2348 10-01-2011 23:00:00 0.54 C 4.04 g/m*3 0.54 C 0 km/h
2349 11-01-2011 00:00:00 0.16 C 3.93 g/m*3 0.16 C 0 km/h
2350 11-01-2011 01:00:00 -0.12 C 4.08 g/m*3 -0.12 C 0 km/h
Sensor: Nr:Datum:Temp:Abs-Feuchte:Windchill:Wind:
Aussen-T/F 2351 11-01-2011 02:00:00 0.78 C 4.17 g/m*3 0.78 C 0 km/h
2352 11-01-2011 03:00:00 0.72 C 4.05 g/m*3 0.72 C 0 km/h
2353 11-01-2011 04:00:00 0.42 C 4.05 g/m*3 0.42 C 0 km/h
2354 11-01-2011 05:00:00 1.1 C 4.13 g/m*3 1.1 C 0 km/h
2355 11-01-2011 06:00:00 1.26 C 4.2 g/m*3 1.26 C 0 km/h
2356 11-01-2011 07:00:00 1.42 C 4.33 g/m*3 1.42 C 0 km/h
2357 11-01-2011 08:00:00 1.5 C 4.45 g/m*3 1.5 C 0 km/h
2358 11-01-2011 09:00:00 2.06 C 4.66 g/m*3 2.06 C 0 km/h
2359 11-01-2011 10:00:00 3.04 C 4.63 g/m*3 3.04 C 0 km/h
2360 11-01-2011 11:00:00 3.28 C 4.9 g/m*3 3.28 C 0 km/h
2361 11-01-2011 12:00:00 5.5 C 4.62 g/m*3 5.5 C 0 km/h
2362 11-01-2011 13:00:00 5.3 C 4.75 g/m*3 5.3 C 0 km/h
2363 11-01-2011 14:00:00 5.3 C 4.89 g/m*3 5.3 C 0 km/h
2364 11-01-2011 15:00:00 5.36 C 5.07 g/m*3 5.36 C 0 km/h
2365 11-01-2011 16:00:00 4.58 C 5.42 g/m*3 4.58 C 0 km/h
2366 11-01-2011 17:00:00 5.1 C 5.46 g/m*3 5.1 C 0 km/h
2367 11-01-2011 18:00:00 5.48 C 5.51 g/m*3 5.48 C 0 km/h
2368 11-01-2011 19:00:00 5.98 C 5.57 g/m*3 5.98 C 0 km/h
2369 11-01-2011 20:00:00 6.14 C 5.6 g/m*3 6.14 C 0 km/h
2370 11-01-2011 21:00:00 6.16 C 5.66 g/m*3 6.16 C 0 km/h
2371 11-01-2011 22:00:00 5.96 C 5.91 g/m*3 5.96 C 0 km/h
2372 11-01-2011 23:00:00 6 C 6.01 g/m*3 6 C 0 km/h
2373 12-01-2011 00:00:00 6.14 C 5.46 g/m*3 6.14 C 0 km/h
2374 12-01-2011 01:00:00 5.96 C 5.23 g/m*3 5.96 C 0 km/h
2375 12-01-2011 02:00:00 5.9 C 5.06 g/m*3 5.9 C 0 km/h
Sensor: Nr:Datum:Temp:Abs-Feuchte:Windchill:Wind:
Aussen-T/F 2376 12-01-2011 03:00:00 4.92 C 5.18 g/m*3 4.92 C 0 km/h
2377 12-01-2011 04:00:00 4.08 C 5.34 g/m*3 4.08 C 0 km/h
2378 12-01-2011 05:00:00 3.76 C 5.24 g/m*3 3.76 C 0 km/h
2379 12-01-2011 06:00:00 3.56 C 5.12 g/m*3 3.56 C 0 km/h
2380 12-01-2011 07:00:00 3.32 C 5.02 g/m*3 3.32 C 0 km/h
2381 12-01-2011 08:00:00 2.98 C 4.99 g/m*3 2.98 C 0 km/h
2382 12-01-2011 09:00:00 3.84 C 5.04 g/m*3 3.84 C 0 km/h
2383 12-01-2011 10:00:00 4.82 C 4.87 g/m*3 4.82 C 0 km/h
2384 12-01-2011 11:00:00 5.26 C 4.85 g/m*3 5.26 C 0 km/h
2385 12-01-2011 12:00:00 4.88 C 5.08 g/m*3 4.88 C 0 km/h
2386 12-01-2011 13:00:00 4.9 C 5.37 g/m*3 4.9 C 0 km/h
2387 12-01-2011 14:00:00 5.12 C 5.52 g/m*3 5.12 C 0 km/h
2388 12-01-2011 15:00:00 5.42 C 5.51 g/m*3 5.42 C 0 km/h
2389 12-01-2011 16:00:00 6.04 C 5.47 g/m*3 6.04 C 0 km/h
2390 12-01-2011 17:00:00 6.2 C 5.6 g/m*3 6.2 C 0 km/h
2391 12-01-2011 18:00:00 6.12 C 5.91 g/m*3 6.12 C 0 km/h
2392 12-01-2011 19:00:00 6.3 C 6.17 g/m*3 6.3 C 0 km/h
2393 12-01-2011 20:00:00 6.98 C 6.28 g/m*3 6.98 C 0 km/h
2394 12-01-2011 21:00:00 7.34 C 6.51 g/m*3 7.34 C 0 km/h
2395 12-01-2011 22:00:00 7.96 C 6.71 g/m*3 7.96 C 0 km/h
2396 12-01-2011 23:00:00 8.76 C 6.82 g/m*3 8.76 C 0 km/h
2397 13-01-2011 00:00:00 9.3 C 6.99 g/m*3 9.3 C 0 km/h
2398 13-01-2011 01:00:00 9.98 C 7.26 g/m*3 9.98 C 0 km/h
2399 13-01-2011 02:00:00 10.6 C 7.55 g/m*3 10.6 C 0 km/h
2400 13-01-2011 03:00:00 10.32 C 7.84 g/m*3 10.32 C 0 km/h
Sensor: Nr:Datum:Temp:Abs-Feuchte:Windchill:Wind:
Aussen-T/F 2401 13-01-2011 04:00:00 10.7 C 8.05 g/m*3 10.7 C 0 km/h
2402 13-01-2011 05:00:00 10.84 C 8.13 g/m*3 10.84 C 0 km/h
2403 13-01-2011 06:00:00 10.58 C 8.31 g/m*3 10.58 C 0 km/h
2404 13-01-2011 07:00:00 10.66 C 8.46 g/m*3 10.66 C 0 km/h
2405 13-01-2011 08:00:00 10.84 C 8.46 g/m*3 10.84 C 0 km/h
2406 13-01-2011 09:00:00 11.26 C 8.44 g/m*3 11.26 C 0 km/h
2407 13-01-2011 10:00:00 11.94 C 8.32 g/m*3 11.94 C 0 km/h
2408 13-01-2011 11:00:00 12.52 C 8.26 g/m*3 12.52 C 0 km/h
2409 13-01-2011 12:00:00 12.46 C 8.31 g/m*3 12.46 C 0 km/h
2410 13-01-2011 13:00:00 12.54 C 8.4 g/m*3 12.54 C 0 km/h
2411 13-01-2011 14:00:00 13.18 C 8.28 g/m*3 13.18 C 0 km/h
2412 13-01-2011 15:00:00 13.06 C 8.26 g/m*3 13.06 C 0 km/h
2413 13-01-2011 16:00:00 12.9 C 8.48 g/m*3 12.9 C 0 km/h
2414 13-01-2011 17:00:00 12.86 C 8.5 g/m*3 12.86 C 0 km/h
2415 13-01-2011 18:00:00 12.84 C 8.42 g/m*3 12.84 C 0 km/h
2416 13-01-2011 19:00:00 12.82 C 8.5 g/m*3 12.82 C 0 km/h
2417 13-01-2011 20:00:00 12.7 C 8.53 g/m*3 12.7 C 0 km/h
2418 13-01-2011 21:00:00 12.82 C 8.46 g/m*3 12.82 C 0 km/h
2419 13-01-2011 22:00:00 12.82 C 8.34 g/m*3 12.82 C 0 km/h
2420 13-01-2011 23:00:00 12.74 C 8.26 g/m*3 12.74 C 0 km/h
2421 14-01-2011 00:00:00 12.56 C 8.14 g/m*3 12.56 C 0 km/h
2422 14-01-2011 01:00:00 12.5 C 8.09 g/m*3 12.5 C 0 km/h
2423 14-01-2011 02:00:00 12.34 C 7.95 g/m*3 12.34 C 0 km/h
2424 14-01-2011 03:00:00 12.24 C 7.83 g/m*3 12.24 C 0 km/h
2425 14-01-2011 04:00:00 12.24 C 7.81 g/m*3 12.24 C 0 km/h
Sensor: Nr:Datum:Temp:Abs-Feuchte:Windchill:Wind:
Aussen-T/F 2426 14-01-2011 05:00:00 12.26 C 7.8 g/m*3 12.26 C 0 km/h
2427 14-01-2011 06:00:00 12.56 C 7.61 g/m*3 12.56 C 0 km/h
2428 14-01-2011 07:00:00 12.3 C 7.36 g/m*3 12.3 C 0 km/h
2429 14-01-2011 08:00:00 11.66 C 6.99 g/m*3 11.66 C 0 km/h
2430 14-01-2011 09:00:00 11.46 C 6.84 g/m*3 11.46 C 0 km/h
2431 14-01-2011 10:00:00 11.74 C 6.71 g/m*3 11.74 C 0 km/h
2432 14-01-2011 11:00:00 12.02 C 6.62 g/m*3 12.02 C 0 km/h
2433 14-01-2011 12:00:00 12.14 C 6.54 g/m*3 12.14 C 0 km/h
2434 14-01-2011 13:00:00 12 C 6.63 g/m*3 12 C 0 km/h
2435 14-01-2011 14:00:00 11.64 C 6.81 g/m*3 11.64 C 0 km/h
2436 14-01-2011 15:00:00 12.12 C 6.55 g/m*3 12.12 C 0 km/h
2437 14-01-2011 16:00:00 11.96 C 6.4 g/m*3 11.96 C 0 km/h
2438 14-01-2011 17:00:00 11.52 C 6.33 g/m*3 11.52 C 0 km/h
2439 14-01-2011 18:00:00 11.04 C 6.32 g/m*3 11.04 C 0 km/h
2440 14-01-2011 19:00:00 11.14 C 6.24 g/m*3 11.14 C 0 km/h
2441 14-01-2011 20:00:00 11.68 C 6.08 g/m*3 11.68 C 0 km/h
2442 14-01-2011 21:00:00 11.4 C 6.01 g/m*3 11.4 C 0 km/h
2443 14-01-2011 22:00:00 10.82 C 6.25 g/m*3 10.82 C 0 km/h
2444 14-01-2011 23:00:00 9.24 C 6.77 g/m*3 9.24 C 0 km/h
2445 15-01-2011 00:00:00 8.22 C 6.64 g/m*3 8.22 C 0 km/h
2446 15-01-2011 01:00:00 8.22 C 6.41 g/m*3 8.22 C 0 km/h
2447 15-01-2011 02:00:00 8.04 C 6.43 g/m*3 8.04 C 0 km/h
2448 15-01-2011 03:00:00 8.12 C 6.47 g/m*3 8.12 C 0 km/h
2449 15-01-2011 04:00:00 8.22 C 6.41 g/m*3 8.22 C 0 km/h
2450 15-01-2011 05:00:00 7.96 C 6.14 g/m*3 7.96 C 0 km/h
Sensor: Nr:Datum:Temp:Abs-Feuchte:Windchill:Wind:
Aussen-T/F 2451 15-01-2011 06:00:00 7.44 C 6.22 g/m*3 7.44 C 0 km/h
2452 15-01-2011 07:00:00 7.08 C 6.14 g/m*3 7.08 C 0 km/h
2453 15-01-2011 08:00:00 7.68 C 6.14 g/m*3 7.68 C 0 km/h
2454 15-01-2011 09:00:00 8.3 C 5.98 g/m*3 8.3 C 0 km/h
2455 15-01-2011 10:00:00 9.06 C 5.91 g/m*3 9.06 C 0 km/h
2456 15-01-2011 11:00:00 9.86 C 5.89 g/m*3 9.86 C 0 km/h
2457 15-01-2011 12:00:00 10.2 C 5.73 g/m*3 10.2 C 0 km/h
2458 15-01-2011 13:00:00 10.04 C 5.58 g/m*3 10.04 C 0 km/h
2459 15-01-2011 14:00:00 10.04 C 5.54 g/m*3 10.04 C 0 km/h
2460 15-01-2011 15:00:00 9.62 C 5.52 g/m*3 9.62 C 0 km/h
2461 15-01-2011 16:00:00 8.9 C 5.71 g/m*3 8.9 C 0 km/h
2462 15-01-2011 17:00:00 9.02 C 5.65 g/m*3 9.02 C 0 km/h
2463 15-01-2011 18:00:00 8.98 C 5.78 g/m*3 8.98 C 0 km/h
2464 15-01-2011 19:00:00 9.18 C 5.69 g/m*3 9.18 C 0 km/h
2465 15-01-2011 20:00:00 8.92 C 5.68 g/m*3 8.92 C 0 km/h
2466 15-01-2011 21:00:00 8.04 C 5.62 g/m*3 8.04 C 0 km/h
2467 15-01-2011 22:00:00 8.6 C 5.89 g/m*3 8.6 C 0 km/h
2468 15-01-2011 23:00:00 8.62 C 5.89 g/m*3 8.62 C 0 km/h
2469 16-01-2011 00:00:00 8.9 C 5.83 g/m*3 8.9 C 0 km/h
2470 16-01-2011 01:00:00 8.24 C 5.69 g/m*3 8.24 C 0 km/h
2471 16-01-2011 02:00:00 7.96 C 5.77 g/m*3 7.96 C 0 km/h
2472 16-01-2011 03:00:00 8.14 C 5.71 g/m*3 8.14 C 0 km/h
2473 16-01-2011 04:00:00 8.22 C 5.75 g/m*3 8.22 C 0 km/h
2474 16-01-2011 05:00:00 7.16 C 5.98 g/m*3 7.16 C 0 km/h
2475 16-01-2011 06:00:00 7.06 C 6.08 g/m*3 7.06 C 0 km/h
Sensor: Nr:Datum:Temp:Abs-Feuchte:Windchill:Wind:
Aussen-T/F 2476 16-01-2011 07:00:00 7.88 C 6.07 g/m*3 7.88 C 0 km/h
2477 16-01-2011 08:00:00 8.22 C 5.87 g/m*3 8.22 C 0 km/h
2478 16-01-2011 09:00:00 8.04 C 5.9 g/m*3 8.04 C 0 km/h
2479 16-01-2011 10:00:00 7.98 C 5.91 g/m*3 7.98 C 0 km/h
2480 16-01-2011 11:00:00 8.36 C 5.99 g/m*3 8.36 C 0 km/h
2481 16-01-2011 12:00:00 8.64 C 6.15 g/m*3 8.64 C 0 km/h
2482 16-01-2011 13:00:00 8.82 C 6.19 g/m*3 8.82 C 0 km/h
2483 16-01-2011 14:00:00 8.46 C 6.27 g/m*3 8.46 C 0 km/h
2484 16-01-2011 15:00:00 9.92 C 6.23 g/m*3 9.92 C 0 km/h
2485 16-01-2011 16:00:00 8.04 C 6.35 g/m*3 8.04 C 0 km/h
2486 16-01-2011 17:00:00 5.92 C 6.14 g/m*3 5.92 C 0 km/h
2487 16-01-2011 18:00:00 4.84 C 5.92 g/m*3 4.84 C 0 km/h
2488 16-01-2011 19:00:00 4.22 C 5.77 g/m*3 4.22 C 0 km/h
2489 16-01-2011 20:00:00 3.26 C 5.47 g/m*3 3.26 C 0 km/h
2490 16-01-2011 21:00:00 2.4 C 5.2 g/m*3 2.4 C 0 km/h
2491 16-01-2011 22:00:00 2.16 C 5.16 g/m*3 2.16 C 0 km/h
2492 16-01-2011 23:00:00 1.36 C 4.89 g/m*3 1.36 C 0 km/h
2493 17-01-2011 00:00:00 1.4 C 4.93 g/m*3 1.4 C 0 km/h
2494 17-01-2011 01:00:00 1.18 C 4.88 g/m*3 1.18 C 0 km/h
2495 17-01-2011 02:00:00 1.12 C 4.87 g/m*3 1.12 C 0 km/h
2496 17-01-2011 03:00:00 1.04 C 4.87 g/m*3 1.04 C 0 km/h
2497 17-01-2011 04:00:00 -0.04 C 4.49 g/m*3 -0.04 C 0 km/h
2498 17-01-2011 05:00:00 0.08 C 4.55 g/m*3 0.08 C 0 km/h
2499 17-01-2011 06:00:00 -0.62 C 4.32 g/m*3 -0.62 C 0 km/h
2500 17-01-2011 07:00:00 -0.4 C 4.4 g/m*3 -0.4 C 0 km/h
Sensor: Nr:Datum:Temp:Abs-Feuchte:Windchill:Wind:
Aussen-T/F 2501 17-01-2011 08:00:00 -0.66 C 4.32 g/m*3 -0.66 C 0 km/h
2502 17-01-2011 09:00:00 0.72 C 4.79 g/m*3 0.72 C 0 km/h
2503 17-01-2011 10:00:00 0.68 C 4.77 g/m*3 0.68 C 0 km/h
2504 17-01-2011 11:00:00 2.14 C 5.26 g/m*3 2.14 C 0 km/h
2505 17-01-2011 12:00:00 5.42 C 6.5 g/m*3 5.42 C 0 km/h
2506 17-01-2011 13:00:00 6.06 C 6.54 g/m*3 6.06 C 0 km/h
2507 17-01-2011 14:00:00 6.4 C 6.08 g/m*3 6.4 C 0 km/h
2508 17-01-2011 15:00:00 6.18 C 5.9 g/m*3 6.18 C 0 km/h
2509 17-01-2011 16:00:00 6.18 C 5.96 g/m*3 6.18 C 0 km/h
2510 17-01-2011 17:00:00 6.2 C 5.82 g/m*3 6.2 C 0 km/h
2511 17-01-2011 18:00:00 5.98 C 6.05 g/m*3 5.98 C 0 km/h
2512 17-01-2011 19:00:00 6.22 C 6.1 g/m*3 6.22 C 0 km/h
2513 17-01-2011 20:00:00 6.94 C 6.19 g/m*3 6.94 C 0 km/h
2514 17-01-2011 21:00:00 8.04 C 6.23 g/m*3 8.04 C 0 km/h
2515 17-01-2011 22:00:00 8.28 C 6.13 g/m*3 8.28 C 0 km/h
2516 17-01-2011 23:00:00 8.56 C 6.24 g/m*3 8.56 C 0 km/h
2517 18-01-2011 00:00:00 7.64 C 6.14 g/m*3 7.64 C 0 km/h
2518 18-01-2011 01:00:00 6.84 C 6.13 g/m*3 6.84 C 0 km/h
2519 18-01-2011 02:00:00 5.24 C 5.94 g/m*3 5.24 C 0 km/h
2520 18-01-2011 03:00:00 7.1 C 6.1 g/m*3 7.1 C 0 km/h
2521 18-01-2011 04:00:00 7.06 C 5.96 g/m*3 7.06 C 0 km/h
2522 18-01-2011 05:00:00 7.68 C 5.94 g/m*3 7.68 C 0 km/h
2523 18-01-2011 06:00:00 7.26 C 5.97 g/m*3 7.26 C 0 km/h
2524 18-01-2011 07:00:00 7.14 C 6.04 g/m*3 7.14 C 0 km/h
2525 18-01-2011 08:00:00 7.3 C 5.97 g/m*3 7.3 C 0 km/h
Sensor: Nr:Datum:Temp:Abs-Feuchte:Windchill:Wind:
Aussen-T/F 2526 18-01-2011 09:00:00 8.44 C 6.04 g/m*3 8.44 C 0 km/h
2527 18-01-2011 10:00:00 8.84 C 6.09 g/m*3 8.84 C 0 km/h
2528 18-01-2011 11:00:00 8.74 C 6.05 g/m*3 8.74 C 0 km/h
2529 18-01-2011 12:00:00 9.7 C 6.07 g/m*3 9.7 C 0 km/h
2530 18-01-2011 13:00:00 9.7 C 6.05 g/m*3 9.7 C 0 km/h
2531 18-01-2011 14:00:00 9.72 C 5.94 g/m*3 9.72 C 0 km/h
2532 18-01-2011 15:00:00 9.42 C 5.67 g/m*3 9.42 C 0 km/h
2533 18-01-2011 16:00:00 8.38 C 5.78 g/m*3 8.38 C 0 km/h
2534 18-01-2011 17:00:00 6.54 C 6.42 g/m*3 6.54 C 0 km/h
2535 18-01-2011 18:00:00 6.16 C 6.31 g/m*3 6.16 C 0 km/h
2536 18-01-2011 19:00:00 5.86 C 6.26 g/m*3 5.86 C 0 km/h
2537 18-01-2011 20:00:00 5.74 C 6.04 g/m*3 5.74 C 0 km/h
2538 18-01-2011 21:00:00 5.1 C 5.62 g/m*3 5.1 C 0 km/h
2539 18-01-2011 22:00:00 4.64 C 5.48 g/m*3 4.64 C 0 km/h
2540 18-01-2011 23:00:00 4.68 C 5.47 g/m*3 4.68 C 0 km/h
2541 19-01-2011 00:00:00 4.36 C 5.2 g/m*3 4.36 C 0 km/h
2542 19-01-2011 01:00:00 3.88 C 4.77 g/m*3 3.88 C 0 km/h
2543 19-01-2011 02:00:00 3.42 C 4.67 g/m*3 3.42 C 0 km/h
2544 19-01-2011 03:00:00 2.92 C 4.8 g/m*3 2.92 C 0 km/h
2545 19-01-2011 04:00:00 2.8 C 4.89 g/m*3 2.8 C 0 km/h
2546 19-01-2011 05:00:00 2.56 C 4.99 g/m*3 2.56 C 0 km/h
2547 19-01-2011 06:00:00 2.64 C 4.99 g/m*3 2.64 C 0 km/h
2548 19-01-2011 07:00:00 2.8 C 4.85 g/m*3 2.8 C 0 km/h
2549 19-01-2011 08:00:00 2.4 C 4.86 g/m*3 2.4 C 0 km/h
2550 19-01-2011 09:00:00 2.7 C 4.81 g/m*3 2.7 C 0 km/h
Sensor: Nr:Datum:Temp:Abs-Feuchte:Windchill:Wind:
Aussen-T/F 2551 19-01-2011 10:00:00 2.4 C 4.68 g/m*3 2.4 C 0 km/h
2552 19-01-2011 11:00:00 3.64 C 4.84 g/m*3 3.64 C 0 km/h
2553 19-01-2011 12:00:00 4.44 C 4.64 g/m*3 4.44 C 0 km/h
2554 19-01-2011 13:00:00 4.94 C 4.35 g/m*3 4.94 C 0 km/h
2555 19-01-2011 14:00:00 5.36 C 4.24 g/m*3 5.36 C 0 km/h
2556 19-01-2011 15:00:00 4.94 C 4.13 g/m*3 4.94 C 0 km/h
2557 19-01-2011 16:00:00 4.18 C 4.38 g/m*3 4.18 C 0 km/h
2558 19-01-2011 17:00:00 3.34 C 4.54 g/m*3 3.34 C 0 km/h
2559 19-01-2011 18:00:00 2.94 C 4.7 g/m*3 2.94 C 0 km/h
2560 19-01-2011 19:00:00 3.2 C 4.46 g/m*3 3.2 C 0 km/h
2561 19-01-2011 20:00:00 2.36 C 4.69 g/m*3 2.36 C 0 km/h
2562 19-01-2011 21:00:00 2.5 C 4.78 g/m*3 2.5 C 0 km/h
2563 19-01-2011 22:00:00 2.4 C 4.73 g/m*3 2.4 C 0 km/h
2564 19-01-2011 23:00:00 2.28 C 4.69 g/m*3 2.28 C 0 km/h
2565 20-01-2011 00:00:00 1.72 C 4.73 g/m*3 1.72 C 0 km/h
2566 20-01-2011 01:00:00 1.82 C 4.87 g/m*3 1.82 C 0 km/h
2567 20-01-2011 02:00:00 1.22 C 4.71 g/m*3 1.22 C 0 km/h
2568 20-01-2011 03:00:00 1.34 C 4.82 g/m*3 1.34 C 0 km/h
2569 20-01-2011 04:00:00 1.16 C 4.78 g/m*3 1.16 C 0 km/h
2570 20-01-2011 05:00:00 1.36 C 4.87 g/m*3 1.36 C 0 km/h
2571 20-01-2011 06:00:00 1.28 C 4.85 g/m*3 1.28 C 0 km/h
2572 20-01-2011 07:00:00 1.02 C 4.73 g/m*3 1.02 C 0 km/h
2573 20-01-2011 08:00:00 1.2 C 4.75 g/m*3 1.2 C 0 km/h
2574 20-01-2011 09:00:00 1.44 C 4.7 g/m*3 1.44 C 0 km/h
2575 20-01-2011 10:00:00 2.02 C 4.61 g/m*3 2.02 C 0 km/h
Sensor: Nr:Datum:Temp:Abs-Feuchte:Windchill:Wind:
Aussen-T/F 2576 20-01-2011 11:00:00 2.72 C 4.53 g/m*3 2.72 C 0 km/h
2577 20-01-2011 12:00:00 3.26 C 4.44 g/m*3 3.26 C 0 km/h
2578 20-01-2011 13:00:00 3.88 C 4.35 g/m*3 3.88 C 0 km/h
2579 20-01-2011 14:00:00 4.1 C 4.29 g/m*3 4.1 C 0 km/h
2580 20-01-2011 15:00:00 3.26 C 4.1 g/m*3 3.26 C 0 km/h
2581 20-01-2011 16:00:00 2.48 C 3.98 g/m*3 2.48 C 0 km/h
2582 20-01-2011 17:00:00 1.98 C 3.95 g/m*3 1.98 C 0 km/h
2583 20-01-2011 18:00:00 1.7 C 3.97 g/m*3 1.7 C 0 km/h
2584 20-01-2011 19:00:00 1.3 C 3.89 g/m*3 1.3 C 0 km/h
2585 20-01-2011 20:00:00 0.9 C 3.72 g/m*3 0.9 C 0 km/h
2586 20-01-2011 21:00:00 -0.16 C 3.59 g/m*3 -0.16 C 0 km/h
2587 20-01-2011 22:00:00 -0.28 C 3.55 g/m*3 -0.28 C 0 km/h
2588 20-01-2011 23:00:00 0.08 C 3.64 g/m*3 0.08 C 0 km/h
2589 21-01-2011 00:00:00 0.34 C 3.13 g/m*3 0.34 C 0 km/h
2590 21-01-2011 01:00:00 0.18 C 3.08 g/m*3 0.18 C 0 km/h
2591 21-01-2011 02:00:00 0.04 C 3.11 g/m*3 0.04 C 0 km/h
2592 21-01-2011 03:00:00 -0.36 C 2.8 g/m*3 -0.36 C 0 km/h
2593 21-01-2011 04:00:00 -0.38 C 2.67 g/m*3 -0.38 C 0 km/h
2594 21-01-2011 05:00:00 -0.46 C 2.75 g/m*3 -0.46 C 0 km/h
2595 21-01-2011 06:00:00 -0.74 C 2.81 g/m*3 -0.74 C 0 km/h
2596 21-01-2011 07:00:00 -0.6 C 2.67 g/m*3 -0.6 C 0 km/h
2597 21-01-2011 08:00:00 -0.5 C 2.69 g/m*3 -0.5 C 0 km/h
2598 21-01-2011 09:00:00 -0.14 C 2.75 g/m*3 -0.14 C 0 km/h
2599 21-01-2011 10:00:00 0.14 C 2.74 g/m*3 0.14 C 0 km/h
2600 21-01-2011 11:00:00 0.02 C 2.82 g/m*3 0.02 C 0 km/h
Sensor: Nr:Datum:Temp:Abs-Feuchte:Windchill:Wind:
Aussen-T/F 2601 21-01-2011 12:00:00 0.32 C 2.9 g/m*3 0.32 C 0 km/h
2602 21-01-2011 13:00:00 1.06 C 2.95 g/m*3 1.06 C 0 km/h
2603 21-01-2011 14:00:00 1.28 C 3.01 g/m*3 1.28 C 0 km/h
2604 21-01-2011 15:00:00 1.02 C 3.01 g/m*3 1.02 C 0 km/h
2605 21-01-2011 16:00:00 0.18 C 3.13 g/m*3 0.18 C 0 km/h
2606 21-01-2011 17:00:00 -0.22 C 3.25 g/m*3 -0.22 C 0 km/h
2607 21-01-2011 18:00:00 -0.14 C 3.26 g/m*3 -0.14 C 0 km/h
2608 21-01-2011 19:00:00 -0.4 C 3.25 g/m*3 -0.4 C 0 km/h
2609 21-01-2011 20:00:00 -0.42 C 3.4 g/m*3 -0.42 C 0 km/h
2610 21-01-2011 21:00:00 -0.78 C 3.61 g/m*3 -0.78 C 0 km/h
2611 21-01-2011 22:00:00 -0.58 C 3.7 g/m*3 -0.58 C 0 km/h
2612 21-01-2011 23:00:00 -0.48 C 3.8 g/m*3 -0.48 C 0 km/h
2613 22-01-2011 00:00:00 -0.4 C 3.86 g/m*3 -0.4 C 0 km/h
2614 22-01-2011 01:00:00 -0.4 C 3.86 g/m*3 -0.4 C 0 km/h
2615 22-01-2011 02:00:00 -0.4 C 3.86 g/m*3 -0.4 C 0 km/h
2616 22-01-2011 03:00:00 -0.4 C 3.86 g/m*3 -0.4 C 0 km/h
2617 22-01-2011 04:00:00 -0.4 C 3.86 g/m*3 -0.4 C 0 km/h
2618 22-01-2011 05:00:00 -0.4 C 3.86 g/m*3 -0.4 C 0 km/h
2619 22-01-2011 06:00:00 -0.4 C 3.86 g/m*3 -0.4 C 0 km/h
2620 22-01-2011 07:00:00 -0.4 C 3.86 g/m*3 -0.4 C 0 km/h
2621 22-01-2011 08:00:00 -0.32 C 3.89 g/m*3 -0.32 C 0 km/h
2622 22-01-2011 09:00:00 0 C 3.97 g/m*3 0 C 0 km/h
2623 22-01-2011 10:00:00 0.92 C 3.86 g/m*3 0.92 C 0 km/h
2624 22-01-2011 11:00:00 1.4 C 3.72 g/m*3 1.4 C 0 km/h
2625 22-01-2011 12:00:00 1.72 C 3.69 g/m*3 1.72 C 0 km/h
Sensor: Nr:Datum:Temp:Abs-Feuchte:Windchill:Wind:
Aussen-T/F 2626 22-01-2011 13:00:00 1.72 C 3.73 g/m*3 1.72 C 0 km/h
2627 22-01-2011 14:00:00 1.84 C 3.98 g/m*3 1.84 C 0 km/h
2628 22-01-2011 15:00:00 1.56 C 3.92 g/m*3 1.56 C 0 km/h
2629 22-01-2011 16:00:00 1.28 C 3.86 g/m*3 1.28 C 0 km/h
2630 22-01-2011 17:00:00 0.72 C 3.9 g/m*3 0.72 C 0 km/h
2631 22-01-2011 18:00:00 0.56 C 3.93 g/m*3 0.56 C 0 km/h
2632 22-01-2011 19:00:00 0.34 C 4.05 g/m*3 0.34 C 0 km/h
2633 22-01-2011 20:00:00 0.38 C 4.01 g/m*3 0.38 C 0 km/h
2634 22-01-2011 21:00:00 0.32 C 4.03 g/m*3 0.32 C 0 km/h
2635 22-01-2011 22:00:00 0.25 C 4.04 g/m*3 0.25 C 0 km/h
2636 22-01-2011 23:00:00 0 C 3.97 g/m*3 0 C 0 km/h
2637 23-01-2011 00:00:00 0.22 C 4.03 g/m*3 0.22 C 0 km/h
2638 23-01-2011 01:00:00 0.22 C 4.03 g/m*3 0.22 C 0 km/h
2639 23-01-2011 02:00:00 0.28 C 4.05 g/m*3 0.28 C 0 km/h
2640 23-01-2011 03:00:00 0.44 C 4.05 g/m*3 0.44 C 0 km/h
2641 23-01-2011 04:00:00 0.4 C 4.05 g/m*3 0.4 C 0 km/h
2642 23-01-2011 05:00:00 0.22 C 4.21 g/m*3 0.22 C 0 km/h
2643 23-01-2011 06:00:00 0.42 C 4.4 g/m*3 0.42 C 0 km/h
2644 23-01-2011 07:00:00 0.66 C 4.51 g/m*3 0.66 C 0 km/h
2645 23-01-2011 08:00:00 0.94 C 4.61 g/m*3 0.94 C 0 km/h
2646 23-01-2011 09:00:00 1.46 C 4.71 g/m*3 1.46 C 0 km/h
2647 23-01-2011 10:00:00 1.92 C 4.55 g/m*3 1.92 C 0 km/h
2648 23-01-2011 11:00:00 2.02 C 4.54 g/m*3 2.02 C 0 km/h
2649 23-01-2011 12:00:00 2.16 C 4.62 g/m*3 2.16 C 0 km/h
2650 23-01-2011 13:00:00 2.22 C 4.76 g/m*3 2.22 C 0 km/h
Sensor: Nr:Datum:Temp:Abs-Feuchte:Windchill:Wind:
Aussen-T/F 2651 23-01-2011 14:00:00 2.4 C 4.88 g/m*3 2.4 C 0 km/h
2652 23-01-2011 15:00:00 2.3 C 4.9 g/m*3 2.3 C 0 km/h
2653 23-01-2011 16:00:00 2.2 C 4.97 g/m*3 2.2 C 0 km/h
2654 23-01-2011 17:00:00 2.16 C 5.03 g/m*3 2.16 C 0 km/h
2655 23-01-2011 18:00:00 2.12 C 5.06 g/m*3 2.12 C 0 km/h
2656 23-01-2011 19:00:00 2.18 C 5.12 g/m*3 2.18 C 0 km/h
2657 23-01-2011 20:00:00 2.22 C 5.14 g/m*3 2.22 C 0 km/h
2658 23-01-2011 21:00:00 2.24 C 5.2 g/m*3 2.24 C 0 km/h
2659 23-01-2011 22:00:00 2.28 C 5.21 g/m*3 2.28 C 0 km/h
2660 23-01-2011 23:00:00 2.36 C 5.24 g/m*3 2.36 C 0 km/h
2661 24-01-2011 00:00:00 2.42 C 5.26 g/m*3 2.42 C 0 km/h
2662 24-01-2011 01:00:00 2.58 C 5.35 g/m*3 2.58 C 0 km/h
2663 24-01-2011 02:00:00 2.56 C 5.37 g/m*3 2.56 C 0 km/h
2664 24-01-2011 03:00:00 2.02 C 5.13 g/m*3 2.02 C 0 km/h
2665 24-01-2011 04:00:00 2.12 C 5.2 g/m*3 2.12 C 0 km/h
2666 24-01-2011 05:00:00 2.48 C 5.34 g/m*3 2.48 C 0 km/h
2667 24-01-2011 06:00:00 2.5 C 5.35 g/m*3 2.5 C 0 km/h
2668 24-01-2011 07:00:00 2.78 C 5.33 g/m*3 2.78 C 0 km/h
2669 24-01-2011 08:00:00 2.76 C 5.07 g/m*3 2.76 C 0 km/h
2670 24-01-2011 09:00:00 2.92 C 4.75 g/m*3 2.92 C 0 km/h
2671 24-01-2011 10:00:00 3.12 C 4.6 g/m*3 3.12 C 0 km/h
2672 24-01-2011 11:00:00 3.46 C 4.57 g/m*3 3.46 C 0 km/h
2673 24-01-2011 12:00:00 4.04 C 4.6 g/m*3 4.04 C 0 km/h
2674 24-01-2011 13:00:00 4.36 C 4.7 g/m*3 4.36 C 0 km/h
2675 24-01-2011 14:00:00 4.2 C 4.7 g/m*3 4.2 C 0 km/h
Sensor: Nr:Datum:Temp:Abs-Feuchte:Windchill:Wind:
Aussen-T/F 2676 24-01-2011 15:00:00 3.98 C 4.79 g/m*3 3.98 C 0 km/h
2677 24-01-2011 16:00:00 3.78 C 4.96 g/m*3 3.78 C 0 km/h
2678 24-01-2011 17:00:00 3.6 C 4.96 g/m*3 3.6 C 0 km/h
2679 24-01-2011 18:00:00 3.44 C 5.03 g/m*3 3.44 C 0 km/h
2680 24-01-2011 19:00:00 3.18 C 5.1 g/m*3 3.18 C 0 km/h
2681 24-01-2011 20:00:00 3.16 C 5.24 g/m*3 3.16 C 0 km/h
2682 24-01-2011 21:00:00 3.08 C 5.24 g/m*3 3.08 C 0 km/h
2683 24-01-2011 22:00:00 3.08 C 5.33 g/m*3 3.08 C 0 km/h
2684 24-01-2011 23:00:00 2.82 C 5.29 g/m*3 2.82 C 0 km/h
2685 25-01-2011 00:00:00 2.74 C 5.19 g/m*3 2.74 C 0 km/h
2686 25-01-2011 01:00:00 2.66 C 4.76 g/m*3 2.66 C 0 km/h
2687 25-01-2011 02:00:00 1.88 C 4.72 g/m*3 1.88 C 0 km/h
2688 25-01-2011 03:00:00 1.98 C 4.66 g/m*3 1.98 C 0 km/h
2689 25-01-2011 04:00:00 2.64 C 4.43 g/m*3 2.64 C 0 km/h
2690 25-01-2011 05:00:00 3.12 C 4.29 g/m*3 3.12 C 0 km/h
2691 25-01-2011 06:00:00 3.34 C 4.19 g/m*3 3.34 C 0 km/h
2692 25-01-2011 07:00:00 2.98 C 4.18 g/m*3 2.98 C 0 km/h
2693 25-01-2011 08:00:00 2.52 C 4.28 g/m*3 2.52 C 0 km/h
2694 25-01-2011 09:00:00 2.92 C 4.27 g/m*3 2.92 C 0 km/h
2695 25-01-2011 10:00:00 2.92 C 4.38 g/m*3 2.92 C 0 km/h
2696 25-01-2011 11:00:00 2.96 C 4.58 g/m*3 2.96 C 0 km/h
2697 25-01-2011 12:00:00 3.38 C 4.75 g/m*3 3.38 C 0 km/h
2698 25-01-2011 13:00:00 3.94 C 4.67 g/m*3 3.94 C 0 km/h
2699 25-01-2011 14:00:00 3.98 C 4.72 g/m*3 3.98 C 0 km/h
2700 25-01-2011 15:00:00 2.3 C 4.72 g/m*3 2.3 C 0 km/h
Sensor: Nr:Datum:Temp:Abs-Feuchte:Windchill:Wind:
Aussen-T/F 2701 25-01-2011 16:00:00 2.52 C 4.88 g/m*3 2.52 C 0 km/h
2702 25-01-2011 17:00:00 2.42 C 4.77 g/m*3 2.42 C 0 km/h
2703 25-01-2011 18:00:00 2.36 C 4.74 g/m*3 2.36 C 0 km/h
2704 25-01-2011 19:00:00 1.5 C 4.62 g/m*3 1.5 C 0 km/h
2705 25-01-2011 20:00:00 0.84 C 4.46 g/m*3 0.84 C 0 km/h
2706 25-01-2011 21:00:00 1.08 C 4.47 g/m*3 1.08 C 0 km/h
2707 25-01-2011 22:00:00 1.84 C 4.35 g/m*3 1.84 C 0 km/h
2708 25-01-2011 23:00:00 1.14 C 4.32 g/m*3 1.14 C 0 km/h
2709 26-01-2011 00:00:00 0.64 C 4.31 g/m*3 0.64 C 0 km/h
2710 26-01-2011 01:00:00 -0.58 C 4.07 g/m*3 -0.58 C 0 km/h
2711 26-01-2011 02:00:00 -0.62 C 4.13 g/m*3 -0.62 C 0 km/h
2712 26-01-2011 03:00:00 -0.52 C 4.21 g/m*3 -0.52 C 0 km/h
2713 26-01-2011 04:00:00 -0.46 C 4.24 g/m*3 -0.46 C 0 km/h
2714 26-01-2011 05:00:00 -0.2 C 4.35 g/m*3 -0.2 C 0 km/h
2715 26-01-2011 06:00:00 -0.16 C 4.36 g/m*3 -0.16 C 0 km/h
2716 26-01-2011 07:00:00 -0.22 C 4.34 g/m*3 -0.22 C 0 km/h
2717 26-01-2011 08:00:00 0.04 C 4.43 g/m*3 0.04 C 0 km/h
2718 26-01-2011 09:00:00 0.66 C 4.65 g/m*3 0.66 C 0 km/h
2719 26-01-2011 10:00:00 1.6 C 4.81 g/m*3 1.6 C 0 km/h
2720 26-01-2011 11:00:00 2.48 C 4.55 g/m*3 2.48 C 0 km/h
2721 26-01-2011 12:00:00 3.56 C 4.1 g/m*3 3.56 C 0 km/h
2722 26-01-2011 13:00:00 3.24 C 4 g/m*3 3.24 C 0 km/h
2723 26-01-2011 14:00:00 3.34 C 3.91 g/m*3 3.34 C 0 km/h
2724 26-01-2011 15:00:00 3.32 C 3.84 g/m*3 3.32 C 0 km/h
2725 26-01-2011 16:00:00 2.24 C 4.04 g/m*3 2.24 C 0 km/h
Sensor: Nr:Datum:Temp:Abs-Feuchte:Windchill:Wind:
Aussen-T/F 2726 26-01-2011 17:00:00 0.76 C 4.28 g/m*3 0.76 C 0 km/h
2727 26-01-2011 18:00:00 0.64 C 4.29 g/m*3 0.64 C 0 km/h
2728 26-01-2011 19:00:00 0.44 C 4.24 g/m*3 0.44 C 0 km/h
2729 26-01-2011 20:00:00 0.5 C 4.31 g/m*3 0.5 C 0 km/h
2730 26-01-2011 21:00:00 0.52 C 4.26 g/m*3 0.52 C 0 km/h
2731 26-01-2011 22:00:00 -0.16 C 4.01 g/m*3 -0.16 C 0 km/h
2732 26-01-2011 23:00:00 -0.88 C 3.86 g/m*3 -0.88 C 0 km/h
2733 27-01-2011 00:00:00 -1.24 C 3.81 g/m*3 -1.24 C 0 km/h
2734 27-01-2011 01:00:00 -1.76 C 3.69 g/m*3 -1.76 C 0 km/h
2735 27-01-2011 02:00:00 -2.52 C 3.5 g/m*3 -2.52 C 0 km/h
2736 27-01-2011 03:00:00 -3.36 C 3.32 g/m*3 -3.36 C 0 km/h
2737 27-01-2011 04:00:00 -2.2 C 3.68 g/m*3 -2.2 C 0 km/h
2738 27-01-2011 05:00:00 -1.56 C 3.9 g/m*3 -1.56 C 0 km/h
2739 27-01-2011 06:00:00 -1.38 C 3.96 g/m*3 -1.38 C 0 km/h
2740 27-01-2011 07:00:00 -1.32 C 3.98 g/m*3 -1.32 C 0 km/h
2741 27-01-2011 08:00:00 -1.18 C 4.04 g/m*3 -1.18 C 0 km/h
2742 27-01-2011 09:00:00 -0.24 C 4.33 g/m*3 -0.24 C 0 km/h
2743 27-01-2011 10:00:00 0.86 C 4.29 g/m*3 0.86 C 0 km/h
2744 27-01-2011 11:00:00 1.86 C 3.63 g/m*3 1.86 C 0 km/h
2745 27-01-2011 12:00:00 2.44 C 3.33 g/m*3 2.44 C 0 km/h
2746 27-01-2011 13:00:00 2.64 C 3.1 g/m*3 2.64 C 0 km/h
2747 27-01-2011 14:00:00 2.4 C 2.95 g/m*3 2.4 C 0 km/h
2748 27-01-2011 15:00:00 1.88 C 2.81 g/m*3 1.88 C 0 km/h
2749 27-01-2011 16:00:00 1.18 C 2.74 g/m*3 1.18 C 0 km/h
2750 27-01-2011 17:00:00 0.26 C 2.75 g/m*3 0.26 C 0 km/h
Sensor: Nr:Datum:Temp:Abs-Feuchte:Windchill:Wind:
Aussen-T/F 2751 27-01-2011 18:00:00 0 C 2.77 g/m*3 0 C 0 km/h
2752 27-01-2011 19:00:00 -0.16 C 2.82 g/m*3 -0.16 C 0 km/h
2753 27-01-2011 20:00:00 -0.34 C 2.86 g/m*3 -0.34 C 0 km/h
2754 27-01-2011 21:00:00 -0.92 C 2.84 g/m*3 -0.92 C 0 km/h
2755 27-01-2011 22:00:00 -1.2 C 2.84 g/m*3 -1.2 C 0 km/h
2756 27-01-2011 23:00:00 -1 C 2.78 g/m*3 -1 C 0 km/h
2757 28-01-2011 00:00:00 -1.34 C 2.76 g/m*3 -1.34 C 0 km/h
2758 28-01-2011 01:00:00 -1.24 C 2.67 g/m*3 -1.24 C 0 km/h
2759 28-01-2011 02:00:00 -1.42 C 2.69 g/m*3 -1.42 C 0 km/h
2760 28-01-2011 03:00:00 -1.18 C 2.79 g/m*3 -1.18 C 0 km/h
2761 28-01-2011 04:00:00 -1.04 C 2.82 g/m*3 -1.04 C 0 km/h
2762 28-01-2011 05:00:00 -0.98 C 2.83 g/m*3 -0.98 C 0 km/h
2763 28-01-2011 06:00:00 -0.98 C 2.77 g/m*3 -0.98 C 0 km/h
2764 28-01-2011 07:00:00 -1.06 C 2.79 g/m*3 -1.06 C 0 km/h
2765 28-01-2011 08:00:00 -2.1 C 2.72 g/m*3 -2.1 C 0 km/h
2766 28-01-2011 09:00:00 -1.4 C 2.8 g/m*3 -1.4 C 0 km/h
2767 28-01-2011 10:00:00 -0.6 C 2.69 g/m*3 -0.6 C 0 km/h
2768 28-01-2011 11:00:00 0.14 C 2.7 g/m*3 0.14 C 0 km/h
2769 28-01-2011 12:00:00 0.72 C 2.7 g/m*3 0.72 C 0 km/h
2770 28-01-2011 13:00:00 0.96 C 2.72 g/m*3 0.96 C 0 km/h
2771 28-01-2011 14:00:00 1.22 C 2.75 g/m*3 1.22 C 0 km/h
2772 28-01-2011 15:00:00 1.26 C 2.8 g/m*3 1.26 C 0 km/h
2773 28-01-2011 16:00:00 0.44 C 2.86 g/m*3 0.44 C 0 km/h
2774 28-01-2011 17:00:00 -1.38 C 2.96 g/m*3 -1.38 C 0 km/h
2775 28-01-2011 18:00:00 -2.44 C 3.09 g/m*3 -2.44 C 0 km/h
Sensor: Nr:Datum:Temp:Abs-Feuchte:Windchill:Wind:
Aussen-T/F 2776 28-01-2011 19:00:00 -2.68 C 3.08 g/m*3 -2.68 C 0 km/h
2777 28-01-2011 20:00:00 -3.52 C 3.01 g/m*3 -3.52 C 0 km/h
2778 28-01-2011 21:00:00 -3.84 C 3.02 g/m*3 -3.84 C 0 km/h
2779 28-01-2011 22:00:00 -4.18 C 3 g/m*3 -4.18 C 0 km/h
2780 28-01-2011 23:00:00 -3.86 C 3.07 g/m*3 -3.86 C 0 km/h
2781 29-01-2011 00:00:00 -4.68 C 2.87 g/m*3 -4.68 C 0 km/h
2782 29-01-2011 01:00:00 -5.04 C 2.8 g/m*3 -5.04 C 0 km/h
2783 29-01-2011 02:00:00 -5.52 C 2.71 g/m*3 -5.52 C 0 km/h
2784 29-01-2011 03:00:00 -5.52 C 2.74 g/m*3 -5.52 C 0 km/h
2785 29-01-2011 04:00:00 -5.48 C 2.74 g/m*3 -5.48 C 0 km/h
2786 29-01-2011 05:00:00 -5.88 C 2.65 g/m*3 -5.88 C 0 km/h
2787 29-01-2011 06:00:00 -6.52 C 2.5 g/m*3 -6.52 C 0 km/h
2788 29-01-2011 07:00:00 -6.5 C 2.5 g/m*3 -6.5 C 0 km/h
2789 29-01-2011 08:00:00 -6.28 C 2.55 g/m*3 -6.28 C 0 km/h
2790 29-01-2011 09:00:00 -6.44 C 2.5 g/m*3 -6.44 C 0 km/h
2791 29-01-2011 10:00:00 -5.78 C 2.62 g/m*3 -5.78 C 0 km/h
2792 29-01-2011 11:00:00 -4.86 C 2.82 g/m*3 -4.86 C 0 km/h
2793 29-01-2011 12:00:00 -4 C 2.99 g/m*3 -4 C 0 km/h
2794 29-01-2011 13:00:00 -3.26 C 3.03 g/m*3 -3.26 C 0 km/h
2795 29-01-2011 14:00:00 -2.42 C 3.09 g/m*3 -2.42 C 0 km/h
2796 29-01-2011 15:00:00 -1.6 C 3.16 g/m*3 -1.6 C 0 km/h
2797 29-01-2011 16:00:00 -2.3 C 2.9 g/m*3 -2.3 C 0 km/h
2798 29-01-2011 17:00:00 -3.32 C 2.6 g/m*3 -3.32 C 0 km/h
2799 29-01-2011 18:00:00 -4.22 C 2.51 g/m*3 -4.22 C 0 km/h
2800 29-01-2011 19:00:00 -4.52 C 2.57 g/m*3 -4.52 C 0 km/h
Sensor: Nr:Datum:Temp:Abs-Feuchte:Windchill:Wind:
Aussen-T/F 2801 29-01-2011 20:00:00 -5.08 C 2.55 g/m*3 -5.08 C 0 km/h
2802 29-01-2011 21:00:00 -5.96 C 2.45 g/m*3 -5.96 C 0 km/h
2803 29-01-2011 22:00:00 -6.2 C 2.43 g/m*3 -6.2 C 0 km/h
2804 29-01-2011 23:00:00 -6.22 C 2.46 g/m*3 -6.22 C 0 km/h
2805 30-01-2011 00:00:00 -6.72 C 2.39 g/m*3 -6.72 C 0 km/h
2806 30-01-2011 01:00:00 -7.12 C 2.32 g/m*3 -7.12 C 0 km/h
2807 30-01-2011 02:00:00 -7.7 C 2.18 g/m*3 -7.7 C 0 km/h
2808 30-01-2011 03:00:00 -7.74 C 2.21 g/m*3 -7.74 C 0 km/h
2809 30-01-2011 04:00:00 -7.78 C 2.21 g/m*3 -7.78 C 0 km/h
2810 30-01-2011 05:00:00 -8.24 C 2.14 g/m*3 -8.24 C 0 km/h
2811 30-01-2011 06:00:00 -8.72 C 2.06 g/m*3 -8.72 C 0 km/h
2812 30-01-2011 07:00:00 -7.8 C 2.23 g/m*3 -7.8 C 0 km/h
2813 30-01-2011 08:00:00 -8.86 C 2.01 g/m*3 -8.86 C 0 km/h
2814 30-01-2011 09:00:00 -8.06 C 2.13 g/m*3 -8.06 C 0 km/h
2815 30-01-2011 10:00:00 -6.54 C 2.43 g/m*3 -6.54 C 0 km/h
2816 30-01-2011 11:00:00 -5.94 C 2.53 g/m*3 -5.94 C 0 km/h
2817 30-01-2011 12:00:00 -5.36 C 2.68 g/m*3 -5.36 C 0 km/h
2818 30-01-2011 13:00:00 -4.42 C 2.85 g/m*3 -4.42 C 0 km/h
2819 30-01-2011 14:00:00 -3.38 C 3.01 g/m*3 -3.38 C 0 km/h
2820 30-01-2011 15:00:00 -2.32 C 3.06 g/m*3 -2.32 C 0 km/h
2821 30-01-2011 16:00:00 -2.98 C 2.95 g/m*3 -2.98 C 0 km/h
2822 30-01-2011 17:00:00 -3.96 C 2.9 g/m*3 -3.96 C 0 km/h
2823 30-01-2011 18:00:00 -4.44 C 2.83 g/m*3 -4.44 C 0 km/h
2824 30-01-2011 19:00:00 -5.12 C 2.74 g/m*3 -5.12 C 0 km/h
2825 30-01-2011 20:00:00 -5.16 C 2.76 g/m*3 -5.16 C 0 km/h
Sensor: Nr:Datum:Temp:Abs-Feuchte:Windchill:Wind:
Aussen-T/F 2826 30-01-2011 21:00:00 -5.86 C 2.63 g/m*3 -5.86 C 0 km/h
2827 30-01-2011 22:00:00 -7.14 C 2.38 g/m*3 -7.14 C 0 km/h
2828 30-01-2011 23:00:00 -7.66 C 2.26 g/m*3 -7.66 C 0 km/h
2829 31-01-2011 00:00:00 -7.5 C 2.29 g/m*3 -7.5 C 0 km/h
2830 31-01-2011 01:00:00 -8.24 C 2.14 g/m*3 -8.24 C 0 km/h
2831 31-01-2011 02:00:00 -8.58 C 2.05 g/m*3 -8.58 C 0 km/h
2832 31-01-2011 03:00:00 -8.18 C 2.14 g/m*3 -8.18 C 0 km/h
2833 31-01-2011 04:00:00 -9.08 C 1.97 g/m*3 -9.08 C 0 km/h
2834 31-01-2011 05:00:00 -8.26 C 2.12 g/m*3 -8.26 C 0 km/h
2835 31-01-2011 06:00:00 -7.14 C 2.37 g/m*3 -7.14 C 0 km/h
2836 31-01-2011 07:00:00 -7.1 C 2.4 g/m*3 -7.1 C 0 km/h
2837 31-01-2011 08:00:00 -6.98 C 2.44 g/m*3 -6.98 C 0 km/h
2838 31-01-2011 09:00:00 -6.72 C 2.49 g/m*3 -6.72 C 0 km/h
2839 31-01-2011 10:00:00 -5.96 C 2.62 g/m*3 -5.96 C 0 km/h
2840 31-01-2011 11:00:00 -5.32 C 2.73 g/m*3 -5.32 C 0 km/h
2841 31-01-2011 12:00:00 -4.68 C 2.84 g/m*3 -4.68 C 0 km/h
2842 31-01-2011 13:00:00 -4.06 C 2.9 g/m*3 -4.06 C 0 km/h
2843 31-01-2011 14:00:00 -3.72 C 2.87 g/m*3 -3.72 C 0 km/h
2844 31-01-2011 15:00:00 -3.6 C 2.89 g/m*3 -3.6 C 0 km/h
2845 31-01-2011 16:00:00 -3.98 C 2.86 g/m*3 -3.98 C 0 km/h
2846 31-01-2011 17:00:00 -4.12 C 2.92 g/m*3 -4.12 C 0 km/h
2847 31-01-2011 18:00:00 -3.9 C 3.01 g/m*3 -3.9 C 0 km/h
2848 31-01-2011 19:00:00 -3.7 C 3.05 g/m*3 -3.7 C 0 km/h
2849 31-01-2011 20:00:00 -3.96 C 2.94 g/m*3 -3.96 C 0 km/h
2850 31-01-2011 21:00:00 -4.14 C 2.9 g/m*3 -4.14 C 0 km/h
Sensor: Nr:Datum:Temp:Abs-Feuchte:Windchill:Wind:
Aussen-T/F 2851 31-01-2011 22:00:00 -4.32 C 2.86 g/m*3 -4.32 C 0 km/h
2852 31-01-2011 23:00:00 -4.48 C 2.83 g/m*3 -4.48 C 0 km/h
2853 01-02-2011 00:00:00 -4.44 C 2.84 g/m*3 -4.44 C 0 km/h
2854 01-02-2011 01:00:00 -4.52 C 2.81 g/m*3 -4.52 C 0 km/h
2855 01-02-2011 02:00:00 -4.74 C 2.71 g/m*3 -4.74 C 0 km/h
2856 01-02-2011 03:00:00 -4.78 C 2.64 g/m*3 -4.78 C 0 km/h
2857 01-02-2011 04:00:00 -4.9 C 2.61 g/m*3 -4.9 C 0 km/h
2858 01-02-2011 05:00:00 -5.1 C 2.53 g/m*3 -5.1 C 0 km/h
2859 01-02-2011 06:00:00 -5.2 C 2.51 g/m*3 -5.2 C 0 km/h
2860 01-02-2011 07:00:00 -5.3 C 2.49 g/m*3 -5.3 C 0 km/h
2861 01-02-2011 08:00:00 -5.2 C 2.52 g/m*3 -5.2 C 0 km/h
2862 01-02-2011 09:00:00 -4.84 C 2.56 g/m*3 -4.84 C 0 km/h
2863 01-02-2011 10:00:00 -4.5 C 2.56 g/m*3 -4.5 C 0 km/h
2864 01-02-2011 11:00:00 -3.98 C 2.56 g/m*3 -3.98 C 0 km/h
2865 01-02-2011 12:00:00 -3 C 2.62 g/m*3 -3 C 0 km/h
2866 01-02-2011 13:00:00 -2.5 C 2.69 g/m*3 -2.5 C 0 km/h
2867 01-02-2011 14:00:00 -2.4 C 2.74 g/m*3 -2.4 C 0 km/h
2868 01-02-2011 15:00:00 -2.66 C 2.7 g/m*3 -2.66 C 0 km/h
2869 01-02-2011 16:00:00 -3.62 C 2.62 g/m*3 -3.62 C 0 km/h
2870 01-02-2011 17:00:00 -4.1 C 2.68 g/m*3 -4.1 C 0 km/h
2871 01-02-2011 18:00:00 -3.6 C 2.77 g/m*3 -3.6 C 0 km/h
2872 01-02-2011 19:00:00 -3.38 C 2.75 g/m*3 -3.38 C 0 km/h
2873 01-02-2011 20:00:00 -3.3 C 2.76 g/m*3 -3.3 C 0 km/h
2874 01-02-2011 21:00:00 -3.56 C 2.63 g/m*3 -3.56 C 0 km/h
2875 01-02-2011 22:00:00 -3.6 C 2.61 g/m*3 -3.6 C 0 km/h
Sensor: Nr:Datum:Temp:Abs-Feuchte:Windchill:Wind:
Aussen-T/F 2876 01-02-2011 23:00:00 -3.72 C 2.89 g/m*3 -3.72 C 0 km/h
2877 02-02-2011 00:00:00 -3.84 C 3.02 g/m*3 -3.84 C 0 km/h
2878 02-02-2011 01:00:00 -3.66 C 3.05 g/m*3 -3.66 C 0 km/h
2879 02-02-2011 02:00:00 -3.38 C 3.02 g/m*3 -3.38 C 0 km/h
2880 02-02-2011 03:00:00 -3.28 C 3.04 g/m*3 -3.28 C 0 km/h
2881 02-02-2011 04:00:00 -3.12 C 3.09 g/m*3 -3.12 C 0 km/h
2882 02-02-2011 05:00:00 -2.98 C 3.15 g/m*3 -2.98 C 0 km/h
2883 02-02-2011 06:00:00 -2.84 C 3.18 g/m*3 -2.84 C 0 km/h
2884 02-02-2011 07:00:00 -2.68 C 3.21 g/m*3 -2.68 C 0 km/h
2885 02-02-2011 08:00:00 -2.28 C 3.3 g/m*3 -2.28 C 0 km/h
2886 02-02-2011 09:00:00 -1.54 C 3.33 g/m*3 -1.54 C 0 km/h
2887 02-02-2011 10:00:00 -0.94 C 3.33 g/m*3 -0.94 C 0 km/h
2888 02-02-2011 11:00:00 -0.46 C 3.38 g/m*3 -0.46 C 0 km/h
2889 02-02-2011 12:00:00 1.26 C 3.51 g/m*3 1.26 C 0 km/h
2890 02-02-2011 13:00:00 1.94 C 3.65 g/m*3 1.94 C 0 km/h
2891 02-02-2011 14:00:00 1.92 C 3.79 g/m*3 1.92 C 0 km/h
2892 02-02-2011 15:00:00 1.42 C 3.79 g/m*3 1.42 C 0 km/h
2893 02-02-2011 16:00:00 1.16 C 3.8 g/m*3 1.16 C 0 km/h
2894 02-02-2011 17:00:00 0.64 C 3.84 g/m*3 0.64 C 0 km/h
2895 02-02-2011 18:00:00 0.52 C 3.81 g/m*3 0.52 C 0 km/h
2896 02-02-2011 19:00:00 0.32 C 3.81 g/m*3 0.32 C 0 km/h
2897 02-02-2011 20:00:00 0.28 C 3.81 g/m*3 0.28 C 0 km/h
2898 02-02-2011 21:00:00 0.26 C 3.8 g/m*3 0.26 C 0 km/h
2899 02-02-2011 22:00:00 0.2 C 3.78 g/m*3 0.2 C 0 km/h
2900 02-02-2011 23:00:00 0.32 C 3.81 g/m*3 0.32 C 0 km/h
Sensor: Nr:Datum:Temp:Abs-Feuchte:Windchill:Wind:
Aussen-T/F 2901 03-02-2011 00:00:00 0.34 C 3.78 g/m*3 0.34 C 0 km/h
2902 03-02-2011 01:00:00 0.48 C 3.82 g/m*3 0.48 C 0 km/h
2903 03-02-2011 02:00:00 0.64 C 3.99 g/m*3 0.64 C 0 km/h
2904 03-02-2011 03:00:00 0.44 C 4.2 g/m*3 0.44 C 0 km/h
2905 03-02-2011 04:00:00 0.6 C 4.42 g/m*3 0.6 C 0 km/h
2906 03-02-2011 05:00:00 0.9 C 4.56 g/m*3 0.9 C 0 km/h
2907 03-02-2011 06:00:00 1.16 C 4.6 g/m*3 1.16 C 0 km/h
2908 03-02-2011 07:00:00 1.4 C 4.66 g/m*3 1.4 C 0 km/h
2909 03-02-2011 08:00:00 1.52 C 4.68 g/m*3 1.52 C 0 km/h
2910 03-02-2011 09:00:00 1.88 C 4.67 g/m*3 1.88 C 0 km/h
2911 03-02-2011 10:00:00 2.3 C 4.64 g/m*3 2.3 C 0 km/h
2912 03-02-2011 11:00:00 2.82 C 4.64 g/m*3 2.82 C 0 km/h
2913 03-02-2011 12:00:00 3.38 C 4.66 g/m*3 3.38 C 0 km/h
2914 03-02-2011 13:00:00 3.52 C 4.68 g/m*3 3.52 C 0 km/h
2915 03-02-2011 14:00:00 3.64 C 4.78 g/m*3 3.64 C 0 km/h
2916 03-02-2011 15:00:00 3.42 C 4.76 g/m*3 3.42 C 0 km/h
2917 03-02-2011 16:00:00 3.22 C 4.71 g/m*3 3.22 C 0 km/h
2918 03-02-2011 17:00:00 2.76 C 4.68 g/m*3 2.76 C 0 km/h
2919 03-02-2011 18:00:00 2.64 C 4.57 g/m*3 2.64 C 0 km/h
2920 03-02-2011 19:00:00 1.8 C 4.46 g/m*3 1.8 C 0 km/h
2921 03-02-2011 20:00:00 1.62 C 4.41 g/m*3 1.62 C 0 km/h
2922 03-02-2011 21:00:00 1.68 C 4.35 g/m*3 1.68 C 0 km/h
2923 03-02-2011 22:00:00 2.15 C 4.34 g/m*3 2.15 C 0 km/h
2924 03-02-2011 23:00:00 2.4 C 4.43 g/m*3 2.4 C 0 km/h
2925 04-02-2011 00:00:00 3.02 C 4.36 g/m*3 3.02 C 0 km/h
Sensor: Nr:Datum:Temp:Abs-Feuchte:Windchill:Wind:
Aussen-T/F 2926 04-02-2011 01:00:00 3.12 C 4.32 g/m*3 3.12 C 0 km/h
2927 04-02-2011 02:00:00 2.64 C 4.42 g/m*3 2.64 C 0 km/h
2928 04-02-2011 03:00:00 2.68 C 4.39 g/m*3 2.68 C 0 km/h
2929 04-02-2011 04:00:00 2.86 C 4.5 g/m*3 2.86 C 0 km/h
2930 04-02-2011 05:00:00 3.34 C 4.77 g/m*3 3.34 C 0 km/h
2931 04-02-2011 06:00:00 4.08 C 4.92 g/m*3 4.08 C 0 km/h
2932 04-02-2011 07:00:00 4.66 C 5 g/m*3 4.66 C 0 km/h
2933 04-02-2011 08:00:00 5.46 C 5.11 g/m*3 5.46 C 0 km/h
2934 04-02-2011 09:00:00 6.12 C 5.05 g/m*3 6.12 C 0 km/h
2935 04-02-2011 10:00:00 6.6 C 5.07 g/m*3 6.6 C 0 km/h
2936 04-02-2011 11:00:00 7.26 C 5.09 g/m*3 7.26 C 0 km/h
2937 04-02-2011 12:00:00 7.5 C 5.22 g/m*3 7.5 C 0 km/h
2938 04-02-2011 13:00:00 7.46 C 5.3 g/m*3 7.46 C 0 km/h
2939 04-02-2011 14:00:00 7.52 C 5.4 g/m*3 7.52 C 0 km/h
2940 04-02-2011 15:00:00 7.82 C 5.48 g/m*3 7.82 C 0 km/h
2941 04-02-2011 16:00:00 7.82 C 5.56 g/m*3 7.82 C 0 km/h
2942 04-02-2011 17:00:00 7.8 C 5.6 g/m*3 7.8 C 0 km/h
2943 04-02-2011 18:00:00 8.08 C 5.58 g/m*3 8.08 C 0 km/h
2944 04-02-2011 19:00:00 8.32 C 5.65 g/m*3 8.32 C 0 km/h
2945 04-02-2011 20:00:00 8.42 C 5.74 g/m*3 8.42 C 0 km/h
2946 04-02-2011 21:00:00 8.44 C 5.73 g/m*3 8.44 C 0 km/h
2947 04-02-2011 22:00:00 8.6 C 5.72 g/m*3 8.6 C 0 km/h
2948 04-02-2011 23:00:00 8.84 C 5.72 g/m*3 8.84 C 0 km/h
2949 05-02-2011 00:00:00 8.76 C 5.64 g/m*3 8.76 C 0 km/h
2950 05-02-2011 01:00:00 8.56 C 5.69 g/m*3 8.56 C 0 km/h
Sensor: Nr:Datum:Temp:Abs-Feuchte:Windchill:Wind:
Aussen-T/F 2951 05-02-2011 02:00:00 8.8 C 5.61 g/m*3 8.8 C 0 km/h
2952 05-02-2011 03:00:00 9.1 C 5.45 g/m*3 9.1 C 0 km/h
2953 05-02-2011 04:00:00 8.92 C 5.47 g/m*3 8.92 C 0 km/h
2954 05-02-2011 05:00:00 8.72 C 5.49 g/m*3 8.72 C 0 km/h
2955 05-02-2011 06:00:00 8.7 C 5.5 g/m*3 8.7 C 0 km/h
2956 05-02-2011 07:00:00 8.96 C 5.5 g/m*3 8.96 C 0 km/h
2957 05-02-2011 08:00:00 8.84 C 5.55 g/m*3 8.84 C 0 km/h
2958 05-02-2011 09:00:00 9.2 C 5.46 g/m*3 9.2 C 0 km/h
2959 05-02-2011 10:00:00 9.66 C 5.43 g/m*3 9.66 C 0 km/h
2960 05-02-2011 11:00:00 10.04 C 5.37 g/m*3 10.04 C 0 km/h
2961 05-02-2011 12:00:00 10.16 C 5.39 g/m*3 10.16 C 0 km/h
2962 05-02-2011 13:00:00 10.22 C 5.41 g/m*3 10.22 C 0 km/h
2963 05-02-2011 14:00:00 10.02 C 5.36 g/m*3 10.02 C 0 km/h
2964 05-02-2011 15:00:00 9.74 C 5.36 g/m*3 9.74 C 0 km/h
2965 05-02-2011 16:00:00 9.44 C 5.44 g/m*3 9.44 C 0 km/h
2966 05-02-2011 17:00:00 9.16 C 5.54 g/m*3 9.16 C 0 km/h
2967 05-02-2011 18:00:00 9.18 C 5.62 g/m*3 9.18 C 0 km/h
2968 05-02-2011 19:00:00 9.1 C 5.61 g/m*3 9.1 C 0 km/h
2969 05-02-2011 20:00:00 9.22 C 5.74 g/m*3 9.22 C 0 km/h
2970 05-02-2011 21:00:00 9.18 C 5.8 g/m*3 9.18 C 0 km/h
2971 05-02-2011 22:00:00 9.18 C 5.9 g/m*3 9.18 C 0 km/h
2972 05-02-2011 23:00:00 9.34 C 5.91 g/m*3 9.34 C 0 km/h
2973 06-02-2011 00:00:00 9.54 C 5.95 g/m*3 9.54 C 0 km/h
2974 06-02-2011 01:00:00 9.52 C 6 g/m*3 9.52 C 0 km/h
2975 06-02-2011 02:00:00 9.4 C 5.97 g/m*3 9.4 C 0 km/h
Sensor: Nr:Datum:Temp:Abs-Feuchte:Windchill:Wind:
Aussen-T/F 2976 06-02-2011 03:00:00 9.44 C 5.88 g/m*3 9.44 C 0 km/h
2977 06-02-2011 04:00:00 9.58 C 5.82 g/m*3 9.58 C 0 km/h
2978 06-02-2011 05:00:00 9.5 C 5.63 g/m*3 9.5 C 0 km/h
2979 06-02-2011 06:00:00 9.42 C 5.54 g/m*3 9.42 C 0 km/h
2980 06-02-2011 07:00:00 9.3 C 5.43 g/m*3 9.3 C 0 km/h
2981 06-02-2011 08:00:00 9.14 C 5.36 g/m*3 9.14 C 0 km/h
2982 06-02-2011 09:00:00 9.22 C 5.33 g/m*3 9.22 C 0 km/h
2983 06-02-2011 10:00:00 9.5 C 5.19 g/m*3 9.5 C 0 km/h
2984 06-02-2011 11:00:00 9.72 C 5.11 g/m*3 9.72 C 0 km/h
2985 06-02-2011 12:00:00 9.82 C 5.02 g/m*3 9.82 C 0 km/h
2986 06-02-2011 13:00:00 9.86 C 4.86 g/m*3 9.86 C 0 km/h
2987 06-02-2011 14:00:00 10.42 C 4.84 g/m*3 10.42 C 0 km/h
2988 06-02-2011 15:00:00 9.7 C 4.72 g/m*3 9.7 C 0 km/h
2989 06-02-2011 16:00:00 8.44 C 4.66 g/m*3 8.44 C 0 km/h
2990 06-02-2011 17:00:00 7.5 C 4.72 g/m*3 7.5 C 0 km/h
2991 06-02-2011 18:00:00 6.86 C 4.64 g/m*3 6.86 C 0 km/h
2992 06-02-2011 19:00:00 6.88 C 4.61 g/m*3 6.88 C 0 km/h
2993 06-02-2011 20:00:00 6.52 C 4.6 g/m*3 6.52 C 0 km/h
2994 06-02-2011 21:00:00 6.14 C 4.63 g/m*3 6.14 C 0 km/h
2995 06-02-2011 22:00:00 5.8 C 4.74 g/m*3 5.8 C 0 km/h
2996 06-02-2011 23:00:00 5.66 C 4.74 g/m*3 5.66 C 0 km/h
2997 07-02-2011 00:00:00 5.28 C 4.79 g/m*3 5.28 C 0 km/h
2998 07-02-2011 01:00:00 5.48 C 4.7 g/m*3 5.48 C 0 km/h
2999 07-02-2011 02:00:00 5.7 C 4.5 g/m*3 5.7 C 0 km/h
3000 07-02-2011 03:00:00 5.56 C 4.44 g/m*3 5.56 C 0 km/h
Sensor: Nr:Datum:Temp:Abs-Feuchte:Windchill:Wind:
Aussen-T/F 3001 07-02-2011 04:00:00 5.34 C 4.43 g/m*3 5.34 C 0 km/h
3002 07-02-2011 05:00:00 5.12 C 4.37 g/m*3 5.12 C 0 km/h
3003 07-02-2011 06:00:00 4.8 C 4.37 g/m*3 4.8 C 0 km/h
3004 07-02-2011 07:00:00 4.48 C 4.31 g/m*3 4.48 C 0 km/h
3005 07-02-2011 08:00:00 4.42 C 4.29 g/m*3 4.42 C 0 km/h
3006 07-02-2011 09:00:00 3.92 C 4.29 g/m*3 3.92 C 0 km/h
3007 07-02-2011 10:00:00 3.2 C 4.47 g/m*3 3.2 C 0 km/h
3008 07-02-2011 11:00:00 4.52 C 4.62 g/m*3 4.52 C 0 km/h
3009 07-02-2011 12:00:00 6.06 C 4.62 g/m*3 6.06 C 0 km/h
3010 07-02-2011 13:00:00 7.18 C 4.78 g/m*3 7.18 C 0 km/h
3011 07-02-2011 14:00:00 9.68 C 4.12 g/m*3 9.68 C 0 km/h
3012 07-02-2011 15:00:00 11.94 C 2.78 g/m*3 11.94 C 0 km/h
3013 07-02-2011 16:00:00 12.1 C 2.53 g/m*3 12.1 C 0 km/h
3014 07-02-2011 17:00:00 8.82 C 3 g/m*3 8.82 C 0 km/h
3015 07-02-2011 18:00:00 8.3 C 3.15 g/m*3 8.3 C 0 km/h
3016 07-02-2011 19:00:00 7.06 C 3.38 g/m*3 7.06 C 0 km/h
3017 07-02-2011 20:00:00 6.06 C 3.47 g/m*3 6.06 C 0 km/h
3018 07-02-2011 21:00:00 6.06 C 3.67 g/m*3 6.06 C 0 km/h
3019 07-02-2011 22:00:00 6.6 C 3.73 g/m*3 6.6 C 0 km/h
3020 07-02-2011 23:00:00 7.86 C 3.59 g/m*3 7.86 C 0 km/h
3021 08-02-2011 00:00:00 7.66 C 3.75 g/m*3 7.66 C 0 km/h
3022 08-02-2011 01:00:00 7.8 C 4.34 g/m*3 7.8 C 0 km/h
3023 08-02-2011 02:00:00 8.04 C 4.39 g/m*3 8.04 C 0 km/h
3024 08-02-2011 03:00:00 7.96 C 4.55 g/m*3 7.96 C 0 km/h
3025 08-02-2011 04:00:00 7.3 C 4.85 g/m*3 7.3 C 0 km/h
Sensor: Nr:Datum:Temp:Abs-Feuchte:Windchill:Wind:
Aussen-T/F 3026 08-02-2011 05:00:00 7.46 C 5 g/m*3 7.46 C 0 km/h
3027 08-02-2011 06:00:00 6.86 C 5.05 g/m*3 6.86 C 0 km/h
3028 08-02-2011 07:00:00 6.04 C 5.37 g/m*3 6.04 C 0 km/h
3029 08-02-2011 08:00:00 4.52 C 5.11 g/m*3 4.52 C 0 km/h
3030 08-02-2011 09:00:00 4.2 C 5.05 g/m*3 4.2 C 0 km/h
3031 08-02-2011 10:00:00 5.66 C 5.18 g/m*3 5.66 C 0 km/h
3032 08-02-2011 11:00:00 7.28 C 4.96 g/m*3 7.28 C 0 km/h
3033 08-02-2011 12:00:00 8.38 C 4.61 g/m*3 8.38 C 0 km/h
3034 08-02-2011 13:00:00 9.5 C 4.42 g/m*3 9.5 C 0 km/h
3035 08-02-2011 14:00:00 9.42 C 4.49 g/m*3 9.42 C 0 km/h
3036 08-02-2011 15:00:00 9.24 C 4.4 g/m*3 9.24 C 0 km/h
3037 08-02-2011 16:00:00 10.18 C 4.37 g/m*3 10.18 C 0 km/h
3038 08-02-2011 17:00:00 4.78 C 4.42 g/m*3 4.78 C 0 km/h
3039 08-02-2011 18:00:00 3 C 4.26 g/m*3 3 C 0 km/h
3040 08-02-2011 19:00:00 1.48 C 4.16 g/m*3 1.48 C 0 km/h
3041 08-02-2011 20:00:00 -0.02 C 3.97 g/m*3 -0.02 C 0 km/h
3042 08-02-2011 21:00:00 -0.9 C 3.8 g/m*3 -0.9 C 0 km/h
3043 08-02-2011 22:00:00 -1.78 C 3.61 g/m*3 -1.78 C 0 km/h
3044 08-02-2011 23:00:00 -2.34 C 3.5 g/m*3 -2.34 C 0 km/h
3045 09-02-2011 00:00:00 -2.74 C 3.43 g/m*3 -2.74 C 0 km/h
3046 09-02-2011 01:00:00 -3.2 C 3.33 g/m*3 -3.2 C 0 km/h
3047 09-02-2011 02:00:00 -3.38 C 3.31 g/m*3 -3.38 C 0 km/h
3048 09-02-2011 03:00:00 -3.78 C 3.23 g/m*3 -3.78 C 0 km/h
3049 09-02-2011 04:00:00 -4.04 C 3.18 g/m*3 -4.04 C 0 km/h
3050 09-02-2011 05:00:00 -4.26 C 3.12 g/m*3 -4.26 C 0 km/h
Sensor: Nr:Datum:Temp:Abs-Feuchte:Windchill:Wind:
Aussen-T/F 3051 09-02-2011 06:00:00 -4.06 C 3.17 g/m*3 -4.06 C 0 km/h
3052 09-02-2011 07:00:00 -3.42 C 3.32 g/m*3 -3.42 C 0 km/h
3053 09-02-2011 08:00:00 -3.2 C 3.41 g/m*3 -3.2 C 0 km/h
3054 09-02-2011 09:00:00 -2.76 C 3.52 g/m*3 -2.76 C 0 km/h
3055 09-02-2011 10:00:00 -2 C 3.71 g/m*3 -2 C 0 km/h
3056 09-02-2011 11:00:00 -0.58 C 4.05 g/m*3 -0.58 C 0 km/h
3057 09-02-2011 12:00:00 0.9 C 4.34 g/m*3 0.9 C 0 km/h
3058 09-02-2011 13:00:00 2.48 C 4.5 g/m*3 2.48 C 0 km/h
3059 09-02-2011 14:00:00 3.6 C 4.87 g/m*3 3.6 C 0 km/h
3060 09-02-2011 15:00:00 5.22 C 4.87 g/m*3 5.22 C 0 km/h
3061 09-02-2011 16:00:00 8.16 C 4.38 g/m*3 8.16 C 0 km/h
3062 09-02-2011 17:00:00 3.66 C 4.41 g/m*3 3.66 C 0 km/h
3063 09-02-2011 18:00:00 3.04 C 4.61 g/m*3 3.04 C 0 km/h
3064 09-02-2011 19:00:00 2.4 C 4.61 g/m*3 2.4 C 0 km/h
3065 09-02-2011 20:00:00 1.5 C 4.55 g/m*3 1.5 C 0 km/h
3066 09-02-2011 21:00:00 0.92 C 4.51 g/m*3 0.92 C 0 km/h
3067 09-02-2011 22:00:00 0.08 C 4.29 g/m*3 0.08 C 0 km/h
3068 09-02-2011 23:00:00 -0.14 C 4.26 g/m*3 -0.14 C 0 km/h
3069 10-02-2011 00:00:00 -0.28 C 4.24 g/m*3 -0.28 C 0 km/h
3070 10-02-2011 01:00:00 -0.82 C 4.11 g/m*3 -0.82 C 0 km/h
3071 10-02-2011 02:00:00 -1.22 C 4.01 g/m*3 -1.22 C 0 km/h
3072 10-02-2011 03:00:00 -1.26 C 4 g/m*3 -1.26 C 0 km/h
3073 10-02-2011 04:00:00 -0.22 C 4.34 g/m*3 -0.22 C 0 km/h
3074 10-02-2011 05:00:00 0.56 C 4.63 g/m*3 0.56 C 0 km/h
3075 10-02-2011 06:00:00 0.96 C 4.76 g/m*3 0.96 C 0 km/h
Sensor: Nr:Datum:Temp:Abs-Feuchte:Windchill:Wind:
Aussen-T/F 3076 10-02-2011 07:00:00 1.1 C 4.81 g/m*3 1.1 C 0 km/h
3077 10-02-2011 08:00:00 1.34 C 4.89 g/m*3 1.34 C 0 km/h
3078 10-02-2011 09:00:00 1.64 C 4.88 g/m*3 1.64 C 0 km/h
3079 10-02-2011 10:00:00 3.02 C 4.8 g/m*3 3.02 C 0 km/h
3080 10-02-2011 11:00:00 4.78 C 4.54 g/m*3 4.78 C 0 km/h
3081 10-02-2011 12:00:00 5.76 C 4.5 g/m*3 5.76 C 0 km/h
3082 10-02-2011 13:00:00 6.26 C 4.46 g/m*3 6.26 C 0 km/h
3083 10-02-2011 14:00:00 7.64 C 4.6 g/m*3 7.64 C 0 km/h
3084 10-02-2011 15:00:00 7.72 C 4.81 g/m*3 7.72 C 0 km/h
3085 10-02-2011 16:00:00 6.88 C 5.03 g/m*3 6.88 C 0 km/h
3086 10-02-2011 17:00:00 6 C 5.4 g/m*3 6 C 0 km/h
3087 10-02-2011 18:00:00 5.58 C 5.79 g/m*3 5.58 C 0 km/h
3088 10-02-2011 19:00:00 5.72 C 5.89 g/m*3 5.72 C 0 km/h
3089 10-02-2011 20:00:00 7.28 C 5.87 g/m*3 7.28 C 0 km/h
3090 10-02-2011 21:00:00 8.32 C 6.03 g/m*3 8.32 C 0 km/h
3091 10-02-2011 22:00:00 8.52 C 6.24 g/m*3 8.52 C 0 km/h
3092 10-02-2011 23:00:00 9.34 C 6.29 g/m*3 9.34 C 0 km/h
3093 11-02-2011 00:00:00 9.46 C 6.39 g/m*3 9.46 C 0 km/h
3094 11-02-2011 01:00:00 9.44 C 6.53 g/m*3 9.44 C 0 km/h
3095 11-02-2011 02:00:00 9.46 C 6.63 g/m*3 9.46 C 0 km/h
3096 11-02-2011 03:00:00 9 C 6.82 g/m*3 9 C 0 km/h
3097 11-02-2011 04:00:00 9.16 C 6.79 g/m*3 9.16 C 0 km/h
3098 11-02-2011 05:00:00 9.3 C 6.69 g/m*3 9.3 C 0 km/h
3099 11-02-2011 06:00:00 9.1 C 6.9 g/m*3 9.1 C 0 km/h
3100 11-02-2011 07:00:00 9.14 C 6.94 g/m*3 9.14 C 0 km/h
Sensor: Nr:Datum:Temp:Abs-Feuchte:Windchill:Wind:
Aussen-T/F 3101 11-02-2011 08:00:00 9.28 C 6.93 g/m*3 9.28 C 0 km/h
3102 11-02-2011 09:00:00 9.92 C 6.88 g/m*3 9.92 C 0 km/h
3103 11-02-2011 10:00:00 10.82 C 6.95 g/m*3 10.82 C 0 km/h
3104 11-02-2011 11:00:00 11.28 C 6.99 g/m*3 11.28 C 0 km/h
3105 11-02-2011 12:00:00 12.42 C 7.02 g/m*3 12.42 C 0 km/h
3106 11-02-2011 13:00:00 11.28 C 7.27 g/m*3 11.28 C 0 km/h
3107 11-02-2011 14:00:00 10.88 C 7.49 g/m*3 10.88 C 0 km/h
3108 11-02-2011 15:00:00 11.12 C 7.52 g/m*3 11.12 C 0 km/h
3109 11-02-2011 16:00:00 11.44 C 7.47 g/m*3 11.44 C 0 km/h
3110 11-02-2011 17:00:00 11.24 C 7.36 g/m*3 11.24 C 0 km/h
3111 11-02-2011 18:00:00 10.38 C 7.62 g/m*3 10.38 C 0 km/h
3112 11-02-2011 19:00:00 10.52 C 7.57 g/m*3 10.52 C 0 km/h
3113 11-02-2011 20:00:00 10.58 C 7.43 g/m*3 10.58 C 0 km/h
3114 11-02-2011 21:00:00 10.72 C 7.28 g/m*3 10.72 C 0 km/h
3115 11-02-2011 22:00:00 10.06 C 7.13 g/m*3 10.06 C 0 km/h
3116 11-02-2011 23:00:00 9.74 C 7.23 g/m*3 9.74 C 0 km/h
3117 12-02-2011 00:00:00 9.96 C 7.29 g/m*3 9.96 C 0 km/h
3118 12-02-2011 01:00:00 9.02 C 7.5 g/m*3 9.02 C 0 km/h
3119 12-02-2011 02:00:00 8.6 C 7.53 g/m*3 8.6 C 0 km/h
3120 12-02-2011 03:00:00 8.28 C 7.46 g/m*3 8.28 C 0 km/h
3121 12-02-2011 04:00:00 7.66 C 7.26 g/m*3 7.66 C 0 km/h
3122 12-02-2011 05:00:00 7.6 C 7.27 g/m*3 7.6 C 0 km/h
3123 12-02-2011 06:00:00 6.82 C 6.83 g/m*3 6.82 C 0 km/h
3124 12-02-2011 07:00:00 5.72 C 5.77 g/m*3 5.72 C 0 km/h
3125 12-02-2011 08:00:00 5.52 C 5.64 g/m*3 5.52 C 0 km/h
Sensor: Nr:Datum:Temp:Abs-Feuchte:Windchill:Wind:
Aussen-T/F 3126 12-02-2011 09:00:00 6.1 C 5.65 g/m*3 6.1 C 0 km/h
3127 12-02-2011 10:00:00 7.32 C 5.71 g/m*3 7.32 C 0 km/h
3128 12-02-2011 11:00:00 8.3 C 5.83 g/m*3 8.3 C 0 km/h
3129 12-02-2011 12:00:00 9.1 C 5.91 g/m*3 9.1 C 0 km/h
3130 12-02-2011 13:00:00 7.96 C 6 g/m*3 7.96 C 0 km/h
3131 12-02-2011 14:00:00 8.04 C 6.08 g/m*3 8.04 C 0 km/h
3132 12-02-2011 15:00:00 8.56 C 5.93 g/m*3 8.56 C 0 km/h
3133 12-02-2011 16:00:00 7.48 C 5.84 g/m*3 7.48 C 0 km/h
3134 12-02-2011 17:00:00 6.3 C 5.79 g/m*3 6.3 C 0 km/h
3135 12-02-2011 18:00:00 4.26 C 5.47 g/m*3 4.26 C 0 km/h
3136 12-02-2011 19:00:00 3.64 C 5.47 g/m*3 3.64 C 0 km/h
3137 12-02-2011 20:00:00 4.42 C 5.86 g/m*3 4.42 C 0 km/h
3138 12-02-2011 21:00:00 4.68 C 5.99 g/m*3 4.68 C 0 km/h
3139 12-02-2011 22:00:00 4.72 C 6.03 g/m*3 4.72 C 0 km/h
3140 12-02-2011 23:00:00 5.06 C 6.15 g/m*3 5.06 C 0 km/h
3141 13-02-2011 00:00:00 5.24 C 6.17 g/m*3 5.24 C 0 km/h
3142 13-02-2011 01:00:00 5.06 C 6.11 g/m*3 5.06 C 0 km/h
3143 13-02-2011 02:00:00 4.74 C 6.08 g/m*3 4.74 C 0 km/h
3144 13-02-2011 03:00:00 4.92 C 6.15 g/m*3 4.92 C 0 km/h
3145 13-02-2011 04:00:00 4.92 C 6.18 g/m*3 4.92 C 0 km/h
3146 13-02-2011 05:00:00 4.24 C 5.94 g/m*3 4.24 C 0 km/h
3147 13-02-2011 06:00:00 3.88 C 5.8 g/m*3 3.88 C 0 km/h
3148 13-02-2011 07:00:00 2.66 C 5.36 g/m*3 2.66 C 0 km/h
3149 13-02-2011 08:00:00 1.74 C 5.06 g/m*3 1.74 C 0 km/h
3150 13-02-2011 09:00:00 2.76 C 5.41 g/m*3 2.76 C 0 km/h
Sensor: Nr:Datum:Temp:Abs-Feuchte:Windchill:Wind:
Aussen-T/F 3151 13-02-2011 10:00:00 4.74 C 5.97 g/m*3 4.74 C 0 km/h
3152 13-02-2011 11:00:00 6.14 C 5.79 g/m*3 6.14 C 0 km/h
3153 13-02-2011 12:00:00 7.56 C 5.64 g/m*3 7.56 C 0 km/h
3154 13-02-2011 13:00:00 7.56 C 5.13 g/m*3 7.56 C 0 km/h
3155 13-02-2011 14:00:00 8.78 C 5.11 g/m*3 8.78 C 0 km/h
3156 13-02-2011 15:00:00 8.9 C 4.92 g/m*3 8.9 C 0 km/h
3157 13-02-2011 16:00:00 8.16 C 5.03 g/m*3 8.16 C 0 km/h
3158 13-02-2011 17:00:00 5.96 C 5.47 g/m*3 5.96 C 0 km/h
3159 13-02-2011 18:00:00 4.48 C 5.44 g/m*3 4.48 C 0 km/h
3160 13-02-2011 19:00:00 4.36 C 5.55 g/m*3 4.36 C 0 km/h
3161 13-02-2011 20:00:00 4.28 C 5.54 g/m*3 4.28 C 0 km/h
3162 13-02-2011 21:00:00 4.22 C 5.55 g/m*3 4.22 C 0 km/h
3163 13-02-2011 22:00:00 4.06 C 5.52 g/m*3 4.06 C 0 km/h
3164 13-02-2011 23:00:00 3.86 C 5.53 g/m*3 3.86 C 0 km/h
3165 14-02-2011 00:00:00 3.36 C 5.4 g/m*3 3.36 C 0 km/h
3166 14-02-2011 01:00:00 2.96 C 5.3 g/m*3 2.96 C 0 km/h
3167 14-02-2011 02:00:00 2.62 C 5.22 g/m*3 2.62 C 0 km/h
3168 14-02-2011 03:00:00 2.26 C 5.15 g/m*3 2.26 C 0 km/h
3169 14-02-2011 04:00:00 1.74 C 4.97 g/m*3 1.74 C 0 km/h
3170 14-02-2011 05:00:00 1.86 C 5.04 g/m*3 1.86 C 0 km/h
3171 14-02-2011 06:00:00 1.6 C 4.97 g/m*3 1.6 C 0 km/h
3172 14-02-2011 07:00:00 0.96 C 4.76 g/m*3 0.96 C 0 km/h
3173 14-02-2011 08:00:00 1.28 C 4.88 g/m*3 1.28 C 0 km/h
3174 14-02-2011 09:00:00 3.22 C 5.55 g/m*3 3.22 C 0 km/h
3175 14-02-2011 10:00:00 4.8 C 5.93 g/m*3 4.8 C 0 km/h
Sensor: Nr:Datum:Temp:Abs-Feuchte:Windchill:Wind:
Aussen-T/F 3176 14-02-2011 11:00:00 6.92 C 5.81 g/m*3 6.92 C 0 km/h
3177 14-02-2011 12:00:00 8.52 C 5.47 g/m*3 8.52 C 0 km/h
3178 14-02-2011 13:00:00 10.08 C 5.46 g/m*3 10.08 C 0 km/h
3179 14-02-2011 14:00:00 9.92 C 5.35 g/m*3 9.92 C 0 km/h
3180 14-02-2011 15:00:00 10.34 C 5.51 g/m*3 10.34 C 0 km/h
3181 14-02-2011 16:00:00 8.8 C 5.59 g/m*3 8.8 C 0 km/h
3182 14-02-2011 17:00:00 6.46 C 5.83 g/m*3 6.46 C 0 km/h
3183 14-02-2011 18:00:00 6.32 C 6.12 g/m*3 6.32 C 0 km/h
3184 14-02-2011 19:00:00 6.48 C 6.23 g/m*3 6.48 C 0 km/h
3185 14-02-2011 20:00:00 6.36 C 6.39 g/m*3 6.36 C 0 km/h
3186 14-02-2011 21:00:00 6.26 C 6.35 g/m*3 6.26 C 0 km/h
3187 14-02-2011 22:00:00 6.12 C 6.25 g/m*3 6.12 C 0 km/h
3188 14-02-2011 23:00:00 5.92 C 6.21 g/m*3 5.92 C 0 km/h
3189 15-02-2011 00:00:00 5.92 C 6.3 g/m*3 5.92 C 0 km/h
3190 15-02-2011 01:00:00 5.88 C 6.39 g/m*3 5.88 C 0 km/h
3191 15-02-2011 02:00:00 5.56 C 6.35 g/m*3 5.56 C 0 km/h
3192 15-02-2011 03:00:00 4.62 C 5.96 g/m*3 4.62 C 0 km/h
3193 15-02-2011 04:00:00 4.5 C 5.93 g/m*3 4.5 C 0 km/h
3194 15-02-2011 05:00:00 4.28 C 5.86 g/m*3 4.28 C 0 km/h
3195 15-02-2011 06:00:00 4.24 C 5.88 g/m*3 4.24 C 0 km/h
3196 15-02-2011 07:00:00 3.74 C 5.7 g/m*3 3.74 C 0 km/h
3197 15-02-2011 08:00:00 3.84 C 5.75 g/m*3 3.84 C 0 km/h
3198 15-02-2011 09:00:00 4.6 C 5.97 g/m*3 4.6 C 0 km/h
3199 15-02-2011 10:00:00 5.66 C 6.05 g/m*3 5.66 C 0 km/h
3200 15-02-2011 11:00:00 6.98 C 5.74 g/m*3 6.98 C 0 km/h
Sensor: Nr:Datum:Temp:Abs-Feuchte:Windchill:Wind:
Aussen-T/F 3201 15-02-2011 12:00:00 7.64 C 5.49 g/m*3 7.64 C 0 km/h
3202 15-02-2011 13:00:00 7.38 C 5.4 g/m*3 7.38 C 0 km/h
3203 15-02-2011 14:00:00 6.72 C 5.39 g/m*3 6.72 C 0 km/h
3204 15-02-2011 15:00:00 6.32 C 5.37 g/m*3 6.32 C 0 km/h
3205 15-02-2011 16:00:00 5.48 C 5.4 g/m*3 5.48 C 0 km/h
3206 15-02-2011 17:00:00 4.98 C 5.29 g/m*3 4.98 C 0 km/h
3207 15-02-2011 18:00:00 4.62 C 5.26 g/m*3 4.62 C 0 km/h
3208 15-02-2011 19:00:00 4.18 C 5.19 g/m*3 4.18 C 0 km/h
3209 15-02-2011 20:00:00 3.42 C 5.25 g/m*3 3.42 C 0 km/h
3210 15-02-2011 21:00:00 4.24 C 5.57 g/m*3 4.24 C 0 km/h
3211 15-02-2011 22:00:00 4.25 C 5.46 g/m*3 4.25 C 0 km/h
3212 15-02-2011 23:00:00 4.36 C 5.65 g/m*3 4.36 C 0 km/h
3213 16-02-2011 00:00:00 4.78 C 5.69 g/m*3 4.78 C 0 km/h
3214 16-02-2011 01:00:00 3.52 C 5.33 g/m*3 3.52 C 0 km/h
3215 16-02-2011 02:00:00 4.22 C 5.74 g/m*3 4.22 C 0 km/h
3216 16-02-2011 03:00:00 4.42 C 5.82 g/m*3 4.42 C 0 km/h
3217 16-02-2011 04:00:00